PWSweather.com
Personal Weather Stations
Station Observations
KMNHANSK2
Andys Live Weather Stations, Hanska, MN 56041

Andys Live Weather StationsHanska, MN 56041

Lat: 44.170119, Lon: -94.381619

Elevation: 1004

Station Type: Davis Instruments Vantage Pro2 Plus

http://www.madeliasliveweather.com/thompsonfarms/

High Low Average
Temperature 19.6°F-6.9°C 4.2°F-15.4°C 11.1°F-11.6°C
Dew Point 13.6°F-10.2°C -4.5°F-20.3°C 1.6°F-16.9°C
Winds 30.0 mph 48.3 kmh 9.0 mph 14.5 kmh 20.0 mph NW32.2 kmh NW
Wind Gusts 35.0 mph56.3 kmh 17.0 mph27.4 kmh 27.0 mph43.5 kmh
Humidity 77% 45% 65%
Pressure 30.50 in1032.8 mb 30.09 in1019.0 mb -
Precipitation 0.00 in0.0 mm - -
Hour Temp Dew Point Humidity Winds Wind Gusts Pressure Precip Precip Rate Daily Precip Total
12:00 AM 25.0°F-3.9°C 20.0°F-6.7°C 81% 24.0 mph NW38.6 kmh NW 33.0 mph53.1 kmh 30.06 in1017.9 mb 0.00 in0.0 mm 0.00 in/hr0.0 mm/hr 0.00 in0.0 mm
12:01 AM 25.0°F-3.9°C 20.0°F-6.7°C 81% 18.0 mph NW29.0 kmh NW 25.0 mph40.2 kmh 30.06 in1017.9 mb 0.00 in0.0 mm 0.00 in/hr0.0 mm/hr 0.00 in0.0 mm
12:02 AM 24.9°F-3.9°C 19.9°F-6.7°C 81% 26.0 mph NW41.8 kmh NW 26.0 mph41.8 kmh 30.06 in1017.9 mb 0.00 in0.0 mm 0.00 in/hr0.0 mm/hr 0.00 in0.0 mm
12:03 AM 24.9°F-3.9°C 19.9°F-6.7°C 81% 22.0 mph NW35.4 kmh NW 28.0 mph45.1 kmh 30.06 in1017.9 mb 0.00 in0.0 mm 0.00 in/hr0.0 mm/hr 0.00 in0.0 mm
12:04 AM 24.9°F-3.9°C 19.9°F-6.7°C 81% 25.0 mph NW40.2 kmh NW 28.0 mph45.1 kmh 30.06 in1017.9 mb 0.00 in0.0 mm 0.00 in/hr0.0 mm/hr 0.00 in0.0 mm
12:05 AM 24.8°F-4.0°C 19.5°F-6.9°C 80% 20.0 mph NW32.2 kmh NW 28.0 mph45.1 kmh 30.06 in1017.9 mb 0.00 in0.0 mm 0.00 in/hr0.0 mm/hr 0.00 in0.0 mm
12:06 AM 24.7°F-4.1°C 19.4°F-7.0°C 80% 19.0 mph NW30.6 kmh NW 28.0 mph45.1 kmh 30.06 in1017.9 mb 0.00 in0.0 mm 0.00 in/hr0.0 mm/hr 0.00 in0.0 mm
12:07 AM 24.5°F-4.2°C 19.2°F-7.1°C 80% 21.0 mph NW33.8 kmh NW 28.0 mph45.1 kmh 30.07 in1018.3 mb 0.00 in0.0 mm 0.00 in/hr0.0 mm/hr 0.00 in0.0 mm
12:09 AM 24.4°F-4.2°C 19.1°F-7.2°C 80% 23.0 mph NW37.0 kmh NW 28.0 mph45.1 kmh 30.06 in1017.9 mb 0.00 in0.0 mm 0.00 in/hr0.0 mm/hr 0.00 in0.0 mm
12:10 AM 24.3°F-4.3°C 19.0°F-7.2°C 80% 27.0 mph NW43.5 kmh NW 28.0 mph45.1 kmh 30.07 in1018.3 mb 0.00 in0.0 mm 0.00 in/hr0.0 mm/hr 0.00 in0.0 mm
12:12 AM 24.1°F-4.4°C 18.5°F-7.5°C 79% 22.0 mph NW35.4 kmh NW 28.0 mph45.1 kmh 30.07 in1018.3 mb 0.00 in0.0 mm 0.00 in/hr0.0 mm/hr 0.00 in0.0 mm
12:13 AM 23.9°F-4.5°C 18.4°F-7.6°C 79% 21.0 mph WNW33.8 kmh WNW 28.0 mph45.1 kmh 30.07 in1018.3 mb 0.00 in0.0 mm 0.00 in/hr0.0 mm/hr 0.00 in0.0 mm
12:15 AM 23.9°F-4.5°C 18.6°F-7.4°C 80% 23.0 mph NW37.0 kmh NW 28.0 mph45.1 kmh 30.07 in1018.3 mb 0.00 in0.0 mm 0.00 in/hr0.0 mm/hr 0.00 in0.0 mm
12:16 AM 23.8°F-4.6°C 18.3°F-7.6°C 79% 26.0 mph WNW41.8 kmh WNW 28.0 mph45.1 kmh 30.07 in1018.3 mb 0.00 in0.0 mm 0.00 in/hr0.0 mm/hr 0.00 in0.0 mm
12:18 AM 23.5°F-4.7°C 17.7°F-7.9°C 78% 26.0 mph NW41.8 kmh NW 28.0 mph45.1 kmh 30.07 in1018.3 mb 0.00 in0.0 mm 0.00 in/hr0.0 mm/hr 0.00 in0.0 mm
12:19 AM 23.4°F-4.8°C 17.6°F-8.0°C 78% 24.0 mph WNW38.6 kmh WNW 28.0 mph45.1 kmh 30.07 in1018.3 mb 0.00 in0.0 mm 0.00 in/hr0.0 mm/hr 0.00 in0.0 mm
12:20 AM 23.2°F-4.9°C 17.1°F-8.3°C 77% 24.0 mph NW38.6 kmh NW 28.0 mph45.1 kmh 30.07 in1018.3 mb 0.00 in0.0 mm 0.00 in/hr0.0 mm/hr 0.00 in0.0 mm
12:22 AM 23.0°F-5.0°C 17.2°F-8.2°C 78% 23.0 mph NW37.0 kmh NW 28.0 mph45.1 kmh 30.07 in1018.3 mb 0.00 in0.0 mm 0.00 in/hr0.0 mm/hr 0.00 in0.0 mm
12:23 AM 23.0°F-5.0°C 17.2°F-8.2°C 78% 24.0 mph W38.6 kmh W 28.0 mph45.1 kmh 30.07 in1018.3 mb 0.00 in0.0 mm 0.00 in/hr0.0 mm/hr 0.00 in0.0 mm
12:24 AM 22.9°F-5.1°C 17.1°F-8.3°C 78% 23.0 mph NW37.0 kmh NW 30.0 mph48.3 kmh 30.07 in1018.3 mb 0.00 in0.0 mm 0.00 in/hr0.0 mm/hr 0.00 in0.0 mm
12:26 AM 22.8°F-5.1°C 17.0°F-8.3°C 78% 20.0 mph NW32.2 kmh NW 30.0 mph48.3 kmh 30.07 in1018.3 mb 0.00 in0.0 mm 0.00 in/hr0.0 mm/hr 0.00 in0.0 mm
12:28 AM 22.5°F-5.3°C 16.1°F-8.8°C 76% 32.0 mph WNW51.5 kmh WNW 33.0 mph53.1 kmh 30.07 in1018.3 mb 0.00 in0.0 mm 0.00 in/hr0.0 mm/hr 0.00 in0.0 mm
12:29 AM 22.4°F-5.3°C 16.0°F-8.9°C 76% 23.0 mph NW37.0 kmh NW 33.0 mph53.1 kmh 30.07 in1018.3 mb 0.00 in0.0 mm 0.00 in/hr0.0 mm/hr 0.00 in0.0 mm
12:30 AM 22.2°F-5.4°C 15.8°F-9.0°C 76% 28.0 mph NW45.1 kmh NW 33.0 mph53.1 kmh 30.07 in1018.3 mb 0.00 in0.0 mm 0.00 in/hr0.0 mm/hr 0.00 in0.0 mm
12:31 AM 22.2°F-5.4°C 15.8°F-9.0°C 76% 27.0 mph NW43.5 kmh NW 31.0 mph49.9 kmh 30.07 in1018.3 mb 0.00 in0.0 mm 0.00 in/hr0.0 mm/hr 0.00 in0.0 mm
12:32 AM 22.1°F-5.5°C 15.7°F-9.1°C 76% 26.0 mph NW41.8 kmh NW 31.0 mph49.9 kmh 30.07 in1018.3 mb 0.00 in0.0 mm 0.00 in/hr0.0 mm/hr 0.00 in0.0 mm
12:33 AM 21.9°F-5.6°C 15.5°F-9.2°C 76% 27.0 mph NW43.5 kmh NW 31.0 mph49.9 kmh 30.08 in1018.6 mb 0.00 in0.0 mm 0.00 in/hr0.0 mm/hr 0.00 in0.0 mm
12:35 AM 21.8°F-5.7°C 15.4°F-9.2°C 76% 29.0 mph NW46.7 kmh NW 33.0 mph53.1 kmh 30.08 in1018.6 mb 0.00 in0.0 mm 0.00 in/hr0.0 mm/hr 0.00 in0.0 mm
12:36 AM 21.7°F-5.7°C 15.3°F-9.3°C 76% 22.0 mph NW35.4 kmh NW 33.0 mph53.1 kmh 30.08 in1018.6 mb 0.00 in0.0 mm 0.00 in/hr0.0 mm/hr 0.00 in0.0 mm
12:38 AM 21.6°F-5.8°C 14.9°F-9.5°C 75% 23.0 mph NW37.0 kmh NW 33.0 mph53.1 kmh 30.08 in1018.6 mb 0.00 in0.0 mm 0.00 in/hr0.0 mm/hr 0.00 in0.0 mm
12:39 AM 21.4°F-5.9°C 14.7°F-9.6°C 75% 25.0 mph NW40.2 kmh NW 33.0 mph53.1 kmh 30.08 in1018.6 mb 0.00 in0.0 mm 0.00 in/hr0.0 mm/hr 0.00 in0.0 mm
12:40 AM 21.3°F-5.9°C 14.6°F-9.7°C 75% 23.0 mph NW37.0 kmh NW 33.0 mph53.1 kmh 30.08 in1018.6 mb 0.00 in0.0 mm 0.00 in/hr0.0 mm/hr 0.00 in0.0 mm
12:41 AM 21.2°F-6.0°C 14.5°F-9.7°C 75% 21.0 mph NW33.8 kmh NW 33.0 mph53.1 kmh 30.08 in1018.6 mb 0.00 in0.0 mm 0.00 in/hr0.0 mm/hr 0.00 in0.0 mm
12:42 AM 21.1°F-6.1°C 14.7°F-9.6°C 76% 26.0 mph NW41.8 kmh NW 33.0 mph53.1 kmh 30.09 in1019.0 mb 0.00 in0.0 mm 0.00 in/hr0.0 mm/hr 0.00 in0.0 mm
12:43 AM 21.1°F-6.1°C 14.7°F-9.6°C 76% 27.0 mph NW43.5 kmh NW 33.0 mph53.1 kmh 30.09 in1019.0 mb 0.00 in0.0 mm 0.00 in/hr0.0 mm/hr 0.00 in0.0 mm
12:45 AM 21.0°F-6.1°C 14.6°F-9.7°C 76% 27.0 mph NW43.5 kmh NW 33.0 mph53.1 kmh 30.09 in1019.0 mb 0.00 in0.0 mm 0.00 in/hr0.0 mm/hr 0.00 in0.0 mm
12:46 AM 20.9°F-6.2°C 14.2°F-9.9°C 75% 26.0 mph NW41.8 kmh NW 33.0 mph53.1 kmh 30.09 in1019.0 mb 0.00 in0.0 mm 0.00 in/hr0.0 mm/hr 0.00 in0.0 mm
12:48 AM 20.5°F-6.4°C 13.9°F-10.1°C 75% 26.0 mph NW41.8 kmh NW 33.0 mph53.1 kmh 30.09 in1019.0 mb 0.00 in0.0 mm 0.00 in/hr0.0 mm/hr 0.00 in0.0 mm
12:49 AM 20.4°F-6.4°C 13.8°F-10.1°C 75% 21.0 mph NW33.8 kmh NW 33.0 mph53.1 kmh 30.09 in1019.0 mb 0.00 in0.0 mm 0.00 in/hr0.0 mm/hr 0.00 in0.0 mm
12:50 AM 20.2°F-6.6°C 13.6°F-10.2°C 75% 29.0 mph NW46.7 kmh NW 33.0 mph53.1 kmh 30.09 in1019.0 mb 0.00 in0.0 mm 0.00 in/hr0.0 mm/hr 0.00 in0.0 mm
12:51 AM 20.1°F-6.6°C 13.5°F-10.3°C 75% 21.0 mph NW33.8 kmh NW 33.0 mph53.1 kmh 30.09 in1019.0 mb 0.00 in0.0 mm 0.00 in/hr0.0 mm/hr 0.00 in0.0 mm
12:53 AM 19.9°F-6.7°C 13.3°F-10.4°C 75% 23.0 mph NW37.0 kmh NW 33.0 mph53.1 kmh 30.09 in1019.0 mb 0.00 in0.0 mm 0.00 in/hr0.0 mm/hr 0.00 in0.0 mm
12:54 AM 19.8°F-6.8°C 13.2°F-10.4°C 75% 22.0 mph NW35.4 kmh NW 33.0 mph53.1 kmh 30.09 in1019.0 mb 0.00 in0.0 mm 0.00 in/hr0.0 mm/hr 0.00 in0.0 mm
12:56 AM 19.7°F-6.8°C 13.1°F-10.5°C 75% 21.0 mph NW33.8 kmh NW 33.0 mph53.1 kmh 30.09 in1019.0 mb 0.00 in0.0 mm 0.00 in/hr0.0 mm/hr 0.00 in0.0 mm
12:57 AM 19.6°F-6.9°C 13.3°F-10.4°C 76% 21.0 mph NW33.8 kmh NW 33.0 mph53.1 kmh 30.09 in1019.0 mb 0.00 in0.0 mm 0.00 in/hr0.0 mm/hr 0.00 in0.0 mm
12:58 AM 19.6°F-6.9°C 13.3°F-10.4°C 76% 21.0 mph NW33.8 kmh NW 33.0 mph53.1 kmh 30.09 in1019.0 mb 0.00 in0.0 mm 0.00 in/hr0.0 mm/hr 0.00 in0.0 mm
01:00 AM 19.6°F-6.9°C 13.6°F-10.2°C 77% 17.0 mph NW27.4 kmh NW 17.0 mph27.4 kmh 30.09 in1019.0 mb 0.00 in0.0 mm 0.00 in/hr0.0 mm/hr 0.00 in0.0 mm
01:01 AM 19.5°F-6.9°C 13.5°F-10.3°C 77% 17.0 mph NW27.4 kmh NW 25.0 mph40.2 kmh 30.10 in1019.3 mb 0.00 in0.0 mm 0.00 in/hr0.0 mm/hr 0.00 in0.0 mm
01:02 AM 19.5°F-6.9°C 13.5°F-10.3°C 77% 15.0 mph NW24.1 kmh NW 25.0 mph40.2 kmh 30.10 in1019.3 mb 0.00 in0.0 mm 0.00 in/hr0.0 mm/hr 0.00 in0.0 mm
01:03 AM 19.5°F-6.9°C 13.2°F-10.4°C 76% 14.0 mph NW22.5 kmh NW 25.0 mph40.2 kmh 30.10 in1019.3 mb 0.00 in0.0 mm 0.00 in/hr0.0 mm/hr 0.00 in0.0 mm
01:04 AM 19.5°F-6.9°C 13.2°F-10.4°C 76% 17.0 mph NW27.4 kmh NW 25.0 mph40.2 kmh 30.10 in1019.3 mb 0.00 in0.0 mm 0.00 in/hr0.0 mm/hr 0.00 in0.0 mm
01:05 AM 19.5°F-6.9°C 13.2°F-10.4°C 76% 17.0 mph NW27.4 kmh NW 25.0 mph40.2 kmh 30.10 in1019.3 mb 0.00 in0.0 mm 0.00 in/hr0.0 mm/hr 0.00 in0.0 mm
01:07 AM 19.4°F-7.0°C 13.1°F-10.5°C 76% 20.0 mph NW32.2 kmh NW 25.0 mph40.2 kmh 30.10 in1019.3 mb 0.00 in0.0 mm 0.00 in/hr0.0 mm/hr 0.00 in0.0 mm
01:08 AM 19.3°F-7.1°C 12.7°F-10.7°C 75% 24.0 mph NW38.6 kmh NW 27.0 mph43.5 kmh 30.10 in1019.3 mb 0.00 in0.0 mm 0.00 in/hr0.0 mm/hr 0.00 in0.0 mm
01:10 AM 19.0°F-7.2°C 12.4°F-10.9°C 75% 22.0 mph NW35.4 kmh NW 27.0 mph43.5 kmh 30.10 in1019.3 mb 0.00 in0.0 mm 0.00 in/hr0.0 mm/hr 0.00 in0.0 mm
01:11 AM 18.8°F-7.3°C 11.9°F-11.2°C 74% 24.0 mph NW38.6 kmh NW 30.0 mph48.3 kmh 30.10 in1019.3 mb 0.00 in0.0 mm 0.00 in/hr0.0 mm/hr 0.00 in0.0 mm
01:12 AM 18.6°F-7.4°C 11.7°F-11.3°C 74% 20.0 mph NW32.2 kmh NW 30.0 mph48.3 kmh 30.10 in1019.3 mb 0.00 in0.0 mm 0.00 in/hr0.0 mm/hr 0.00 in0.0 mm
01:14 AM 18.5°F-7.5°C 11.6°F-11.3°C 74% 25.0 mph NW40.2 kmh NW 30.0 mph48.3 kmh 30.10 in1019.3 mb 0.00 in0.0 mm 0.00 in/hr0.0 mm/hr 0.00 in0.0 mm
01:15 AM 18.3°F-7.6°C 11.4°F-11.4°C 74% 21.0 mph NW33.8 kmh NW 30.0 mph48.3 kmh 30.10 in1019.3 mb 0.00 in0.0 mm 0.00 in/hr0.0 mm/hr 0.00 in0.0 mm
01:17 AM 18.1°F-7.7°C 11.2°F-11.6°C 74% 20.0 mph NW32.2 kmh NW 30.0 mph48.3 kmh 30.10 in1019.3 mb 0.00 in0.0 mm 0.00 in/hr0.0 mm/hr 0.00 in0.0 mm
01:18 AM 18.0°F-7.8°C 11.1°F-11.6°C 74% 24.0 mph NW38.6 kmh NW 30.0 mph48.3 kmh 30.10 in1019.3 mb 0.00 in0.0 mm 0.00 in/hr0.0 mm/hr 0.00 in0.0 mm
01:19 AM 18.0°F-7.8°C 11.1°F-11.6°C 74% 24.0 mph NW38.6 kmh NW 30.0 mph48.3 kmh 30.10 in1019.3 mb 0.00 in0.0 mm 0.00 in/hr0.0 mm/hr 0.00 in0.0 mm
01:20 AM 17.9°F-7.8°C 11.0°F-11.7°C 74% 20.0 mph NW32.2 kmh NW 30.0 mph48.3 kmh 30.10 in1019.3 mb 0.00 in0.0 mm 0.00 in/hr0.0 mm/hr 0.00 in0.0 mm
01:21 AM 17.8°F-7.9°C 10.9°F-11.7°C 74% 19.0 mph NW30.6 kmh NW 30.0 mph48.3 kmh 30.11 in1019.6 mb 0.00 in0.0 mm 0.00 in/hr0.0 mm/hr 0.00 in0.0 mm
01:23 AM 17.8°F-7.9°C 11.2°F-11.6°C 75% 18.0 mph NW29.0 kmh NW 30.0 mph48.3 kmh 30.11 in1019.6 mb 0.00 in0.0 mm 0.00 in/hr0.0 mm/hr 0.00 in0.0 mm
01:24 AM 17.7°F-7.9°C 11.1°F-11.6°C 75% 24.0 mph NW38.6 kmh NW 30.0 mph48.3 kmh 30.10 in1019.3 mb 0.00 in0.0 mm 0.00 in/hr0.0 mm/hr 0.00 in0.0 mm
01:26 AM 17.6°F-8.0°C 10.7°F-11.8°C 74% 20.0 mph WNW32.2 kmh WNW 30.0 mph48.3 kmh 30.10 in1019.3 mb 0.00 in0.0 mm 0.00 in/hr0.0 mm/hr 0.00 in0.0 mm
01:27 AM 17.5°F-8.1°C 10.6°F-11.9°C 74% 20.0 mph NW32.2 kmh NW 30.0 mph48.3 kmh 30.11 in1019.6 mb 0.00 in0.0 mm 0.00 in/hr0.0 mm/hr 0.00 in0.0 mm
01:28 AM 17.4°F-8.1°C 10.6°F-11.9°C 74% 24.0 mph NW38.6 kmh NW 30.0 mph48.3 kmh 30.11 in1019.6 mb 0.00 in0.0 mm 0.00 in/hr0.0 mm/hr 0.00 in0.0 mm
01:29 AM 17.3°F-8.2°C 10.5°F-11.9°C 74% 21.0 mph NW33.8 kmh NW 30.0 mph48.3 kmh 30.11 in1019.6 mb 0.00 in0.0 mm 0.00 in/hr0.0 mm/hr 0.00 in0.0 mm
01:30 AM 17.1°F-8.3°C 10.0°F-12.2°C 73% 17.0 mph NW27.4 kmh NW 30.0 mph48.3 kmh 30.11 in1019.6 mb 0.00 in0.0 mm 0.00 in/hr0.0 mm/hr 0.00 in0.0 mm
01:31 AM 17.0°F-8.3°C 9.9°F-12.3°C 73% 19.0 mph NW30.6 kmh NW 26.0 mph41.8 kmh 30.11 in1019.6 mb 0.00 in0.0 mm 0.00 in/hr0.0 mm/hr 0.00 in0.0 mm
01:32 AM 16.9°F-8.4°C 9.8°F-12.3°C 73% 24.0 mph NW38.6 kmh NW 27.0 mph43.5 kmh 30.11 in1019.6 mb 0.00 in0.0 mm 0.00 in/hr0.0 mm/hr 0.00 in0.0 mm
01:34 AM 16.8°F-8.4°C 9.7°F-12.4°C 73% 22.0 mph NW35.4 kmh NW 27.0 mph43.5 kmh 30.11 in1019.6 mb 0.00 in0.0 mm 0.00 in/hr0.0 mm/hr 0.00 in0.0 mm
01:35 AM 16.7°F-8.5°C 9.6°F-12.4°C 73% 21.0 mph NW33.8 kmh NW 27.0 mph43.5 kmh 30.11 in1019.6 mb 0.00 in0.0 mm 0.00 in/hr0.0 mm/hr 0.00 in0.0 mm
01:37 AM 16.7°F-8.5°C 10.2°F-12.1°C 75% 18.0 mph NW29.0 kmh NW 27.0 mph43.5 kmh 30.11 in1019.6 mb 0.00 in0.0 mm 0.00 in/hr0.0 mm/hr 0.00 in0.0 mm
01:38 AM 16.7°F-8.5°C 9.9°F-12.3°C 74% 20.0 mph NW32.2 kmh NW 27.0 mph43.5 kmh 30.11 in1019.6 mb 0.00 in0.0 mm 0.00 in/hr0.0 mm/hr 0.00 in0.0 mm
01:40 AM 16.6°F-8.6°C 9.8°F-12.3°C 74% 13.0 mph NW20.9 kmh NW 27.0 mph43.5 kmh 30.11 in1019.6 mb 0.00 in0.0 mm 0.00 in/hr0.0 mm/hr 0.00 in0.0 mm
01:41 AM 16.6°F-8.6°C 9.8°F-12.3°C 74% 20.0 mph NW32.2 kmh NW 27.0 mph43.5 kmh 30.11 in1019.6 mb 0.00 in0.0 mm 0.00 in/hr0.0 mm/hr 0.00 in0.0 mm
01:42 AM 16.6°F-8.6°C 9.8°F-12.3°C 74% 19.0 mph NW30.6 kmh NW 27.0 mph43.5 kmh 30.11 in1019.6 mb 0.00 in0.0 mm 0.00 in/hr0.0 mm/hr 0.00 in0.0 mm
01:43 AM 16.4°F-8.7°C 9.6°F-12.4°C 74% 16.0 mph NW25.7 kmh NW 27.0 mph43.5 kmh 30.11 in1019.6 mb 0.00 in0.0 mm 0.00 in/hr0.0 mm/hr 0.00 in0.0 mm
01:45 AM 16.4°F-8.7°C 9.6°F-12.4°C 74% 18.0 mph WNW29.0 kmh WNW 27.0 mph43.5 kmh 30.11 in1019.6 mb 0.00 in0.0 mm 0.00 in/hr0.0 mm/hr 0.00 in0.0 mm
01:46 AM 16.4°F-8.7°C 9.6°F-12.4°C 74% 23.0 mph NW37.0 kmh NW 29.0 mph46.7 kmh 30.11 in1019.6 mb 0.00 in0.0 mm 0.00 in/hr0.0 mm/hr 0.00 in0.0 mm
01:47 AM 16.3°F-8.7°C 9.5°F-12.5°C 74% 22.0 mph NW35.4 kmh NW 29.0 mph46.7 kmh 30.11 in1019.6 mb 0.00 in0.0 mm 0.00 in/hr0.0 mm/hr 0.00 in0.0 mm
01:48 AM 16.3°F-8.7°C 9.2°F-12.7°C 73% 20.0 mph NW32.2 kmh NW 29.0 mph46.7 kmh 30.11 in1019.6 mb 0.00 in0.0 mm 0.00 in/hr0.0 mm/hr 0.00 in0.0 mm
01:50 AM 16.1°F-8.8°C 8.7°F-12.9°C 72% 21.0 mph NW33.8 kmh NW 29.0 mph46.7 kmh 30.11 in1019.6 mb 0.00 in0.0 mm 0.00 in/hr0.0 mm/hr 0.00 in0.0 mm
01:51 AM 15.9°F-8.9°C 8.5°F-13.1°C 72% 25.0 mph NW40.2 kmh NW 29.0 mph46.7 kmh 30.11 in1019.6 mb 0.00 in0.0 mm 0.00 in/hr0.0 mm/hr 0.00 in0.0 mm
01:53 AM 15.7°F-9.1°C 8.3°F-13.2°C 72% 16.0 mph NW25.7 kmh NW 29.0 mph46.7 kmh 30.11 in1019.6 mb 0.00 in0.0 mm 0.00 in/hr0.0 mm/hr 0.00 in0.0 mm
01:54 AM 15.6°F-9.1°C 8.5°F-13.1°C 73% 20.0 mph NW32.2 kmh NW 29.0 mph46.7 kmh 30.11 in1019.6 mb 0.00 in0.0 mm 0.00 in/hr0.0 mm/hr 0.00 in0.0 mm
01:55 AM 15.5°F-9.2°C 8.4°F-13.1°C 73% 22.0 mph NW35.4 kmh NW 29.0 mph46.7 kmh 30.11 in1019.6 mb 0.00 in0.0 mm 0.00 in/hr0.0 mm/hr 0.00 in0.0 mm
01:57 AM 15.4°F-9.2°C 8.3°F-13.2°C 73% 22.0 mph NW35.4 kmh NW 29.0 mph46.7 kmh 30.11 in1019.6 mb 0.00 in0.0 mm 0.00 in/hr0.0 mm/hr 0.00 in0.0 mm
01:58 AM 15.3°F-9.3°C 7.9°F-13.4°C 72% 21.0 mph NW33.8 kmh NW 30.0 mph48.3 kmh 30.11 in1019.6 mb 0.00 in0.0 mm 0.00 in/hr0.0 mm/hr 0.00 in0.0 mm
02:00 AM 15.2°F-9.3°C 7.8°F-13.4°C 72% 21.0 mph NW33.8 kmh NW 30.0 mph48.3 kmh 30.11 in1019.6 mb 0.00 in0.0 mm 0.00 in/hr0.0 mm/hr 0.00 in0.0 mm
02:01 AM 15.2°F-9.3°C 7.8°F-13.4°C 72% 25.0 mph NW40.2 kmh NW 31.0 mph49.9 kmh 30.11 in1019.6 mb 0.00 in0.0 mm 0.00 in/hr0.0 mm/hr 0.00 in0.0 mm
02:02 AM 15.1°F-9.4°C 7.7°F-13.5°C 72% 25.0 mph NW40.2 kmh NW 31.0 mph49.9 kmh 30.11 in1019.6 mb 0.00 in0.0 mm 0.00 in/hr0.0 mm/hr 0.00 in0.0 mm
02:03 AM 15.0°F-9.4°C 7.6°F-13.6°C 72% 24.0 mph NW38.6 kmh NW 31.0 mph49.9 kmh 30.11 in1019.6 mb 0.00 in0.0 mm 0.00 in/hr0.0 mm/hr 0.00 in0.0 mm
02:04 AM 14.9°F-9.5°C 7.5°F-13.6°C 72% 17.0 mph NW27.4 kmh NW 31.0 mph49.9 kmh 30.11 in1019.6 mb 0.00 in0.0 mm 0.00 in/hr0.0 mm/hr 0.00 in0.0 mm
02:05 AM 14.9°F-9.5°C 7.5°F-13.6°C 72% 26.0 mph NW41.8 kmh NW 31.0 mph49.9 kmh 30.11 in1019.6 mb 0.00 in0.0 mm 0.00 in/hr0.0 mm/hr 0.00 in0.0 mm
02:06 AM 14.8°F-9.6°C 7.4°F-13.7°C 72% 25.0 mph NW40.2 kmh NW 31.0 mph49.9 kmh 30.11 in1019.6 mb 0.00 in0.0 mm 0.00 in/hr0.0 mm/hr 0.00 in0.0 mm
02:07 AM 14.7°F-9.6°C 7.3°F-13.7°C 72% 24.0 mph NW38.6 kmh NW 31.0 mph49.9 kmh 30.11 in1019.6 mb 0.00 in0.0 mm 0.00 in/hr0.0 mm/hr 0.00 in0.0 mm
02:09 AM 14.6°F-9.7°C 7.2°F-13.8°C 72% 29.0 mph NW46.7 kmh NW 32.0 mph51.5 kmh 30.11 in1019.6 mb 0.00 in0.0 mm 0.00 in/hr0.0 mm/hr 0.00 in0.0 mm
02:10 AM 14.5°F-9.7°C 7.1°F-13.8°C 72% 25.0 mph NW40.2 kmh NW 32.0 mph51.5 kmh 30.11 in1019.6 mb 0.00 in0.0 mm 0.00 in/hr0.0 mm/hr 0.00 in0.0 mm
02:11 AM 14.4°F-9.8°C 7.0°F-13.9°C 72% 27.0 mph NW43.5 kmh NW 32.0 mph51.5 kmh 30.11 in1019.6 mb 0.00 in0.0 mm 0.00 in/hr0.0 mm/hr 0.00 in0.0 mm
02:12 AM 14.3°F-9.8°C 6.9°F-13.9°C 72% 25.0 mph NW40.2 kmh NW 32.0 mph51.5 kmh 30.11 in1019.6 mb 0.00 in0.0 mm 0.00 in/hr0.0 mm/hr 0.00 in0.0 mm
02:14 AM 14.1°F-9.9°C 6.8°F-14.0°C 72% 19.0 mph NW30.6 kmh NW 32.0 mph51.5 kmh 30.12 in1020.0 mb 0.00 in0.0 mm 0.00 in/hr0.0 mm/hr 0.00 in0.0 mm
02:15 AM 14.1°F-9.9°C 6.8°F-14.0°C 72% 24.0 mph NW38.6 kmh NW 32.0 mph51.5 kmh 30.12 in1020.0 mb 0.00 in0.0 mm 0.00 in/hr0.0 mm/hr 0.00 in0.0 mm
02:17 AM 14.0°F-10.0°C 6.7°F-14.1°C 72% 26.0 mph NW41.8 kmh NW 34.0 mph54.7 kmh 30.12 in1020.0 mb 0.00 in0.0 mm 0.00 in/hr0.0 mm/hr 0.00 in0.0 mm
02:18 AM 13.9°F-10.1°C 6.6°F-14.1°C 72% 27.0 mph NW43.5 kmh NW 34.0 mph54.7 kmh 30.12 in1020.0 mb 0.00 in0.0 mm 0.00 in/hr0.0 mm/hr 0.00 in0.0 mm
02:20 AM 13.8°F-10.1°C 6.5°F-14.2°C 72% 22.0 mph NW35.4 kmh NW 34.0 mph54.7 kmh 30.12 in1020.0 mb 0.00 in0.0 mm 0.00 in/hr0.0 mm/hr 0.00 in0.0 mm
02:21 AM 13.7°F-10.2°C 6.4°F-14.2°C 72% 24.0 mph NW38.6 kmh NW 34.0 mph54.7 kmh 30.12 in1020.0 mb 0.00 in0.0 mm 0.00 in/hr0.0 mm/hr 0.00 in0.0 mm
02:23 AM 13.7°F-10.2°C 6.4°F-14.2°C 72% 18.0 mph NW29.0 kmh NW 34.0 mph54.7 kmh 30.12 in1020.0 mb 0.00 in0.0 mm 0.00 in/hr0.0 mm/hr 0.00 in0.0 mm
02:24 AM 13.7°F-10.2°C 6.7°F-14.1°C 73% 21.0 mph NW33.8 kmh NW 34.0 mph54.7 kmh 30.12 in1020.0 mb 0.00 in0.0 mm 0.00 in/hr0.0 mm/hr 0.00 in0.0 mm
02:26 AM 13.7°F-10.2°C 6.7°F-14.1°C 73% 22.0 mph NNW35.4 kmh NNW 34.0 mph54.7 kmh 30.12 in1020.0 mb 0.00 in0.0 mm 0.00 in/hr0.0 mm/hr 0.00 in0.0 mm
02:27 AM 13.7°F-10.2°C 6.7°F-14.1°C 73% 21.0 mph NW33.8 kmh NW 34.0 mph54.7 kmh 30.12 in1020.0 mb 0.00 in0.0 mm 0.00 in/hr0.0 mm/hr 0.00 in0.0 mm
02:29 AM 13.7°F-10.2°C 6.7°F-14.1°C 73% 17.0 mph NW27.4 kmh NW 34.0 mph54.7 kmh 30.12 in1020.0 mb 0.00 in0.0 mm 0.00 in/hr0.0 mm/hr 0.00 in0.0 mm
02:30 AM 13.7°F-10.2°C 6.7°F-14.1°C 73% 23.0 mph NW37.0 kmh NW 34.0 mph54.7 kmh 30.12 in1020.0 mb 0.00 in0.0 mm 0.00 in/hr0.0 mm/hr 0.00 in0.0 mm
02:32 AM 13.6°F-10.2°C 6.3°F-14.3°C 72% 19.0 mph NW30.6 kmh NW 27.0 mph43.5 kmh 30.12 in1020.0 mb 0.00 in0.0 mm 0.00 in/hr0.0 mm/hr 0.00 in0.0 mm
02:33 AM 13.5°F-10.3°C 6.5°F-14.2°C 73% 20.0 mph NW32.2 kmh NW 27.0 mph43.5 kmh 30.12 in1020.0 mb 0.00 in0.0 mm 0.00 in/hr0.0 mm/hr 0.00 in0.0 mm
02:35 AM 13.5°F-10.3°C 6.5°F-14.2°C 73% 28.0 mph NW45.1 kmh NW 28.0 mph45.1 kmh 30.12 in1020.0 mb 0.00 in0.0 mm 0.00 in/hr0.0 mm/hr 0.00 in0.0 mm
02:37 AM 13.3°F-10.4°C 6.0°F-14.4°C 72% 25.0 mph NW40.2 kmh NW 29.0 mph46.7 kmh 30.12 in1020.0 mb 0.00 in0.0 mm 0.00 in/hr0.0 mm/hr 0.00 in0.0 mm
02:38 AM 13.2°F-10.4°C 5.9°F-14.5°C 72% 21.0 mph NW33.8 kmh NW 29.0 mph46.7 kmh 30.13 in1020.3 mb 0.00 in0.0 mm 0.00 in/hr0.0 mm/hr 0.00 in0.0 mm
02:40 AM 13.2°F-10.4°C 6.2°F-14.3°C 73% 21.0 mph NW33.8 kmh NW 29.0 mph46.7 kmh 30.13 in1020.3 mb 0.00 in0.0 mm 0.00 in/hr0.0 mm/hr 0.00 in0.0 mm
02:41 AM 13.2°F-10.4°C 6.2°F-14.3°C 73% 24.0 mph NW38.6 kmh NW 29.0 mph46.7 kmh 30.13 in1020.3 mb 0.00 in0.0 mm 0.00 in/hr0.0 mm/hr 0.00 in0.0 mm
02:43 AM 13.2°F-10.4°C 6.2°F-14.3°C 73% 21.0 mph NW33.8 kmh NW 29.0 mph46.7 kmh 30.13 in1020.3 mb 0.00 in0.0 mm 0.00 in/hr0.0 mm/hr 0.00 in0.0 mm
02:44 AM 13.1°F-10.5°C 6.1°F-14.4°C 73% 23.0 mph NW37.0 kmh NW 29.0 mph46.7 kmh 30.13 in1020.3 mb 0.00 in0.0 mm 0.00 in/hr0.0 mm/hr 0.00 in0.0 mm
02:45 AM 13.1°F-10.5°C 6.1°F-14.4°C 73% 22.0 mph NW35.4 kmh NW 29.0 mph46.7 kmh 30.13 in1020.3 mb 0.00 in0.0 mm 0.00 in/hr0.0 mm/hr 0.00 in0.0 mm
02:48 AM 13.1°F-10.5°C 6.1°F-14.4°C 73% 24.0 mph NW38.6 kmh NW 29.0 mph46.7 kmh 30.14 in1020.7 mb 0.00 in0.0 mm 0.00 in/hr0.0 mm/hr 0.00 in0.0 mm
02:50 AM 13.1°F-10.5°C 6.1°F-14.4°C 73% 30.0 mph NW48.3 kmh NW 30.0 mph48.3 kmh 30.14 in1020.7 mb 0.00 in0.0 mm 0.00 in/hr0.0 mm/hr 0.00 in0.0 mm
02:51 AM 13.1°F-10.5°C 6.1°F-14.4°C 73% 28.0 mph NW45.1 kmh NW 30.0 mph48.3 kmh 30.14 in1020.7 mb 0.00 in0.0 mm 0.00 in/hr0.0 mm/hr 0.00 in0.0 mm
02:52 AM 13.1°F-10.5°C 5.8°F-14.6°C 72% 25.0 mph NW40.2 kmh NW 30.0 mph48.3 kmh 30.14 in1020.7 mb 0.00 in0.0 mm 0.00 in/hr0.0 mm/hr 0.00 in0.0 mm
02:54 AM 13.0°F-10.6°C 5.7°F-14.6°C 72% 20.0 mph NW32.2 kmh NW 30.0 mph48.3 kmh 30.14 in1020.7 mb 0.00 in0.0 mm 0.00 in/hr0.0 mm/hr 0.00 in0.0 mm
02:55 AM 13.0°F-10.6°C 5.7°F-14.6°C 72% 21.0 mph NW33.8 kmh NW 30.0 mph48.3 kmh 30.14 in1020.7 mb 0.00 in0.0 mm 0.00 in/hr0.0 mm/hr 0.00 in0.0 mm
02:57 AM 13.0°F-10.6°C 6.0°F-14.4°C 73% 22.0 mph NW35.4 kmh NW 30.0 mph48.3 kmh 30.14 in1020.7 mb 0.00 in0.0 mm 0.00 in/hr0.0 mm/hr 0.00 in0.0 mm
02:58 AM 13.1°F-10.5°C 6.1°F-14.4°C 73% 21.0 mph NW33.8 kmh NW 30.0 mph48.3 kmh 30.14 in1020.7 mb 0.00 in0.0 mm 0.00 in/hr0.0 mm/hr 0.00 in0.0 mm
03:00 AM 13.0°F-10.6°C 5.7°F-14.6°C 72% 21.0 mph WNW33.8 kmh WNW 30.0 mph48.3 kmh 30.14 in1020.7 mb 0.00 in0.0 mm 0.00 in/hr0.0 mm/hr 0.00 in0.0 mm
03:01 AM 13.0°F-10.6°C 5.7°F-14.6°C 72% 18.0 mph NW29.0 kmh NW 20.0 mph32.2 kmh 30.14 in1020.7 mb 0.00 in0.0 mm 0.00 in/hr0.0 mm/hr 0.00 in0.0 mm
03:03 AM 13.0°F-10.6°C 5.7°F-14.6°C 72% 20.0 mph NW32.2 kmh NW 27.0 mph43.5 kmh 30.14 in1020.7 mb 0.00 in0.0 mm 0.00 in/hr0.0 mm/hr 0.00 in0.0 mm
03:04 AM 13.0°F-10.6°C 5.7°F-14.6°C 72% 23.0 mph NW37.0 kmh NW 27.0 mph43.5 kmh 30.14 in1020.7 mb 0.00 in0.0 mm 0.00 in/hr0.0 mm/hr 0.00 in0.0 mm
03:06 AM 12.9°F-10.6°C 5.6°F-14.7°C 72% 23.0 mph NW37.0 kmh NW 27.0 mph43.5 kmh 30.14 in1020.7 mb 0.00 in0.0 mm 0.00 in/hr0.0 mm/hr 0.00 in0.0 mm
03:07 AM 12.9°F-10.6°C 5.6°F-14.7°C 72% 23.0 mph NW37.0 kmh NW 27.0 mph43.5 kmh 30.15 in1021.0 mb 0.00 in0.0 mm 0.00 in/hr0.0 mm/hr 0.00 in0.0 mm
03:09 AM 12.9°F-10.6°C 5.6°F-14.7°C 72% 20.0 mph NW32.2 kmh NW 27.0 mph43.5 kmh 30.15 in1021.0 mb 0.00 in0.0 mm 0.00 in/hr0.0 mm/hr 0.00 in0.0 mm
03:10 AM 12.8°F-10.7°C 5.5°F-14.7°C 72% 18.0 mph NW29.0 kmh NW 28.0 mph45.1 kmh 30.15 in1021.0 mb 0.00 in0.0 mm 0.00 in/hr0.0 mm/hr 0.00 in0.0 mm
03:11 AM 12.8°F-10.7°C 5.5°F-14.7°C 72% 18.0 mph NW29.0 kmh NW 28.0 mph45.1 kmh 30.14 in1020.7 mb 0.00 in0.0 mm 0.00 in/hr0.0 mm/hr 0.00 in0.0 mm
03:12 AM 12.8°F-10.7°C 5.5°F-14.7°C 72% 22.0 mph NW35.4 kmh NW 28.0 mph45.1 kmh 30.14 in1020.7 mb 0.00 in0.0 mm 0.00 in/hr0.0 mm/hr 0.00 in0.0 mm
03:13 AM 12.8°F-10.7°C 5.5°F-14.7°C 72% 20.0 mph NW32.2 kmh NW 28.0 mph45.1 kmh 30.15 in1021.0 mb 0.00 in0.0 mm 0.00 in/hr0.0 mm/hr 0.00 in0.0 mm
03:15 AM 12.8°F-10.7°C 5.5°F-14.7°C 72% 16.0 mph NW25.7 kmh NW 28.0 mph45.1 kmh 30.15 in1021.0 mb 0.00 in0.0 mm 0.00 in/hr0.0 mm/hr 0.00 in0.0 mm
03:17 AM 12.8°F-10.7°C 5.5°F-14.7°C 72% 20.0 mph NW32.2 kmh NW 28.0 mph45.1 kmh 30.15 in1021.0 mb 0.00 in0.0 mm 0.00 in/hr0.0 mm/hr 0.00 in0.0 mm
03:18 AM 12.8°F-10.7°C 5.5°F-14.7°C 72% 20.0 mph NW32.2 kmh NW 28.0 mph45.1 kmh 30.15 in1021.0 mb 0.00 in0.0 mm 0.00 in/hr0.0 mm/hr 0.00 in0.0 mm
03:21 AM 12.8°F-10.7°C 5.5°F-14.7°C 72% 23.0 mph NW37.0 kmh NW 29.0 mph46.7 kmh 30.15 in1021.0 mb 0.00 in0.0 mm 0.00 in/hr0.0 mm/hr 0.00 in0.0 mm
03:23 AM 12.7°F-10.7°C 5.4°F-14.8°C 72% 12.0 mph NW19.3 kmh NW 29.0 mph46.7 kmh 30.15 in1021.0 mb 0.00 in0.0 mm 0.00 in/hr0.0 mm/hr 0.00 in0.0 mm
03:24 AM 12.7°F-10.7°C 5.4°F-14.8°C 72% 24.0 mph NW38.6 kmh NW 29.0 mph46.7 kmh 30.15 in1021.0 mb 0.00 in0.0 mm 0.00 in/hr0.0 mm/hr 0.00 in0.0 mm
03:26 AM 12.7°F-10.7°C 5.4°F-14.8°C 72% 20.0 mph NW32.2 kmh NW 29.0 mph46.7 kmh 30.15 in1021.0 mb 0.00 in0.0 mm 0.00 in/hr0.0 mm/hr 0.00 in0.0 mm
03:27 AM 12.7°F-10.7°C 5.4°F-14.8°C 72% 24.0 mph NW38.6 kmh NW 29.0 mph46.7 kmh 30.15 in1021.0 mb 0.00 in0.0 mm 0.00 in/hr0.0 mm/hr 0.00 in0.0 mm
03:28 AM 12.7°F-10.7°C 5.4°F-14.8°C 72% 22.0 mph NW35.4 kmh NW 29.0 mph46.7 kmh 30.15 in1021.0 mb 0.00 in0.0 mm 0.00 in/hr0.0 mm/hr 0.00 in0.0 mm
03:30 AM 12.6°F-10.8°C 5.3°F-14.8°C 72% 18.0 mph NW29.0 kmh NW 29.0 mph46.7 kmh 30.15 in1021.0 mb 0.00 in0.0 mm 0.00 in/hr0.0 mm/hr 0.00 in0.0 mm
03:31 AM 12.6°F-10.8°C 5.3°F-14.8°C 72% 22.0 mph NW35.4 kmh NW 24.0 mph38.6 kmh 30.15 in1021.0 mb 0.00 in0.0 mm 0.00 in/hr0.0 mm/hr 0.00 in0.0 mm
03:32 AM 12.6°F-10.8°C 5.3°F-14.8°C 72% 19.0 mph NW30.6 kmh NW 29.0 mph46.7 kmh 30.15 in1021.0 mb 0.00 in0.0 mm 0.00 in/hr0.0 mm/hr 0.00 in0.0 mm
03:34 AM 12.5°F-10.8°C 5.2°F-14.9°C 72% 20.0 mph NW32.2 kmh NW 29.0 mph46.7 kmh 30.15 in1021.0 mb 0.00 in0.0 mm 0.00 in/hr0.0 mm/hr 0.00 in0.0 mm
03:35 AM 12.5°F-10.8°C 5.2°F-14.9°C 72% 23.0 mph NW37.0 kmh NW 29.0 mph46.7 kmh 30.15 in1021.0 mb 0.00 in0.0 mm 0.00 in/hr0.0 mm/hr 0.00 in0.0 mm
03:36 AM 12.4°F-10.9°C 5.1°F-14.9°C 72% 17.0 mph NW27.4 kmh NW 29.0 mph46.7 kmh 30.15 in1021.0 mb 0.00 in0.0 mm 0.00 in/hr0.0 mm/hr 0.00 in0.0 mm
03:38 AM 12.4°F-10.9°C 5.1°F-14.9°C 72% 22.0 mph NW35.4 kmh NW 29.0 mph46.7 kmh 30.15 in1021.0 mb 0.00 in0.0 mm 0.00 in/hr0.0 mm/hr 0.00 in0.0 mm
03:39 AM 12.4°F-10.9°C 5.1°F-14.9°C 72% 22.0 mph NW35.4 kmh NW 29.0 mph46.7 kmh 30.15 in1021.0 mb 0.00 in0.0 mm 0.00 in/hr0.0 mm/hr 0.00 in0.0 mm
03:40 AM 12.4°F-10.9°C 5.1°F-14.9°C 72% 22.0 mph NW35.4 kmh NW 29.0 mph46.7 kmh 30.15 in1021.0 mb 0.00 in0.0 mm 0.00 in/hr0.0 mm/hr 0.00 in0.0 mm
03:41 AM 12.4°F-10.9°C 5.1°F-14.9°C 72% 22.0 mph NW35.4 kmh NW 29.0 mph46.7 kmh 30.16 in1021.3 mb 0.00 in0.0 mm 0.00 in/hr0.0 mm/hr 0.00 in0.0 mm
03:42 AM 12.3°F-10.9°C 5.3°F-14.8°C 73% 24.0 mph NW38.6 kmh NW 29.0 mph46.7 kmh 30.16 in1021.3 mb 0.00 in0.0 mm 0.00 in/hr0.0 mm/hr 0.00 in0.0 mm
03:43 AM 12.3°F-10.9°C 5.3°F-14.8°C 73% 21.0 mph NW33.8 kmh NW 29.0 mph46.7 kmh 30.15 in1021.0 mb 0.00 in0.0 mm 0.00 in/hr0.0 mm/hr 0.00 in0.0 mm
03:45 AM 12.3°F-10.9°C 5.0°F-15.0°C 72% 24.0 mph NW38.6 kmh NW 29.0 mph46.7 kmh 30.16 in1021.3 mb 0.00 in0.0 mm 0.00 in/hr0.0 mm/hr 0.00 in0.0 mm
03:46 AM 12.2°F-11.0°C 4.9°F-15.1°C 72% 19.0 mph NW30.6 kmh NW 29.0 mph46.7 kmh 30.16 in1021.3 mb 0.00 in0.0 mm 0.00 in/hr0.0 mm/hr 0.00 in0.0 mm
03:47 AM 12.2°F-11.0°C 4.9°F-15.1°C 72% 18.0 mph NW29.0 kmh NW 29.0 mph46.7 kmh 30.16 in1021.3 mb 0.00 in0.0 mm 0.00 in/hr0.0 mm/hr 0.00 in0.0 mm
03:48 AM 12.2°F-11.0°C 4.9°F-15.1°C 72% 23.0 mph NW37.0 kmh NW 29.0 mph46.7 kmh 30.16 in1021.3 mb 0.00 in0.0 mm 0.00 in/hr0.0 mm/hr 0.00 in0.0 mm
03:50 AM 12.1°F-11.1°C 4.8°F-15.1°C 72% 21.0 mph NW33.8 kmh NW 29.0 mph46.7 kmh 30.16 in1021.3 mb 0.00 in0.0 mm 0.00 in/hr0.0 mm/hr 0.00 in0.0 mm
03:52 AM 12.1°F-11.1°C 4.8°F-15.1°C 72% 15.0 mph NW24.1 kmh NW 29.0 mph46.7 kmh 30.16 in1021.3 mb 0.00 in0.0 mm 0.00 in/hr0.0 mm/hr 0.00 in0.0 mm
03:54 AM 12.0°F-11.1°C 4.7°F-15.2°C 72% 21.0 mph NW33.8 kmh NW 29.0 mph46.7 kmh 30.16 in1021.3 mb 0.00 in0.0 mm 0.00 in/hr0.0 mm/hr 0.00 in0.0 mm
03:56 AM 11.9°F-11.2°C 4.6°F-15.2°C 72% 16.0 mph NW25.7 kmh NW 29.0 mph46.7 kmh 30.16 in1021.3 mb 0.00 in0.0 mm 0.00 in/hr0.0 mm/hr 0.00 in0.0 mm
03:57 AM 11.9°F-11.2°C 4.6°F-15.2°C 72% 21.0 mph NW33.8 kmh NW 29.0 mph46.7 kmh 30.16 in1021.3 mb 0.00 in0.0 mm 0.00 in/hr0.0 mm/hr 0.00 in0.0 mm
03:59 AM 11.8°F-11.2°C 4.5°F-15.3°C 72% 16.0 mph NW25.7 kmh NW 29.0 mph46.7 kmh 30.15 in1021.0 mb 0.00 in0.0 mm 0.00 in/hr0.0 mm/hr 0.00 in0.0 mm
04:00 AM 11.8°F-11.2°C 4.5°F-15.3°C 72% 20.0 mph NW32.2 kmh NW 29.0 mph46.7 kmh 30.16 in1021.3 mb 0.00 in0.0 mm 0.00 in/hr0.0 mm/hr 0.00 in0.0 mm
04:01 AM 11.7°F-11.3°C 4.4°F-15.3°C 72% 14.0 mph NW22.5 kmh NW 22.0 mph35.4 kmh 30.16 in1021.3 mb 0.00 in0.0 mm 0.00 in/hr0.0 mm/hr 0.00 in0.0 mm
04:02 AM 11.7°F-11.3°C 4.7°F-15.2°C 73% 20.0 mph NW32.2 kmh NW 25.0 mph40.2 kmh 30.16 in1021.3 mb 0.00 in0.0 mm 0.00 in/hr0.0 mm/hr 0.00 in0.0 mm
04:03 AM 11.7°F-11.3°C 4.7°F-15.2°C 73% 19.0 mph NW30.6 kmh NW 25.0 mph40.2 kmh 30.16 in1021.3 mb 0.00 in0.0 mm 0.00 in/hr0.0 mm/hr 0.00 in0.0 mm
04:05 AM 11.6°F-11.3°C 4.6°F-15.2°C 73% 20.0 mph NW32.2 kmh NW 26.0 mph41.8 kmh 30.16 in1021.3 mb 0.00 in0.0 mm 0.00 in/hr0.0 mm/hr 0.00 in0.0 mm
04:07 AM 11.6°F-11.3°C 4.6°F-15.2°C 73% 24.0 mph NW38.6 kmh NW 26.0 mph41.8 kmh 30.16 in1021.3 mb 0.00 in0.0 mm 0.00 in/hr0.0 mm/hr 0.00 in0.0 mm
04:08 AM 11.6°F-11.3°C 4.6°F-15.2°C 73% 21.0 mph NW33.8 kmh NW 27.0 mph43.5 kmh 30.16 in1021.3 mb 0.00 in0.0 mm 0.00 in/hr0.0 mm/hr 0.00 in0.0 mm
04:10 AM 11.6°F-11.3°C 4.3°F-15.4°C 72% 19.0 mph NW30.6 kmh NW 27.0 mph43.5 kmh 30.16 in1021.3 mb 0.00 in0.0 mm 0.00 in/hr0.0 mm/hr 0.00 in0.0 mm
04:12 AM 11.6°F-11.3°C 4.6°F-15.2°C 73% 19.0 mph NW30.6 kmh NW 27.0 mph43.5 kmh 30.16 in1021.3 mb 0.00 in0.0 mm 0.00 in/hr0.0 mm/hr 0.00 in0.0 mm
04:13 AM 11.6°F-11.3°C 4.6°F-15.2°C 73% 21.0 mph NW33.8 kmh NW 27.0 mph43.5 kmh 30.16 in1021.3 mb 0.00 in0.0 mm 0.00 in/hr0.0 mm/hr 0.00 in0.0 mm
04:15 AM 11.6°F-11.3°C 4.6°F-15.2°C 73% 19.0 mph NW30.6 kmh NW 27.0 mph43.5 kmh 30.16 in1021.3 mb 0.00 in0.0 mm 0.00 in/hr0.0 mm/hr 0.00 in0.0 mm
04:17 AM 11.6°F-11.3°C 4.6°F-15.2°C 73% 19.0 mph NW30.6 kmh NW 27.0 mph43.5 kmh 30.16 in1021.3 mb 0.00 in0.0 mm 0.00 in/hr0.0 mm/hr 0.00 in0.0 mm
04:18 AM 11.7°F-11.3°C 4.7°F-15.2°C 73% 25.0 mph NW40.2 kmh NW 27.0 mph43.5 kmh 30.16 in1021.3 mb 0.00 in0.0 mm 0.00 in/hr0.0 mm/hr 0.00 in0.0 mm
04:19 AM 11.7°F-11.3°C 4.7°F-15.2°C 73% 22.0 mph NW35.4 kmh NW 27.0 mph43.5 kmh 30.16 in1021.3 mb 0.00 in0.0 mm 0.00 in/hr0.0 mm/hr 0.00 in0.0 mm
04:20 AM 11.7°F-11.3°C 4.4°F-15.3°C 72% 20.0 mph NW32.2 kmh NW 27.0 mph43.5 kmh 30.16 in1021.3 mb 0.00 in0.0 mm 0.00 in/hr0.0 mm/hr 0.00 in0.0 mm
04:21 AM 11.6°F-11.3°C 4.3°F-15.4°C 72% 20.0 mph NW32.2 kmh NW 28.0 mph45.1 kmh 30.16 in1021.3 mb 0.00 in0.0 mm 0.00 in/hr0.0 mm/hr 0.00 in0.0 mm
04:22 AM 11.6°F-11.3°C 4.3°F-15.4°C 72% 18.0 mph NW29.0 kmh NW 28.0 mph45.1 kmh 30.16 in1021.3 mb 0.00 in0.0 mm 0.00 in/hr0.0 mm/hr 0.00 in0.0 mm
04:23 AM 11.7°F-11.3°C 4.7°F-15.2°C 73% 18.0 mph NW29.0 kmh NW 28.0 mph45.1 kmh 30.16 in1021.3 mb 0.00 in0.0 mm 0.00 in/hr0.0 mm/hr 0.00 in0.0 mm
04:24 AM 11.7°F-11.3°C 4.4°F-15.3°C 72% 22.0 mph NW35.4 kmh NW 28.0 mph45.1 kmh 30.16 in1021.3 mb 0.00 in0.0 mm 0.00 in/hr0.0 mm/hr 0.00 in0.0 mm
04:26 AM 11.6°F-11.3°C 4.3°F-15.4°C 72% 22.0 mph NW35.4 kmh NW 28.0 mph45.1 kmh 30.17 in1021.7 mb 0.00 in0.0 mm 0.00 in/hr0.0 mm/hr 0.00 in0.0 mm
04:27 AM 11.6°F-11.3°C 4.3°F-15.4°C 72% 20.0 mph NW32.2 kmh NW 28.0 mph45.1 kmh 30.17 in1021.7 mb 0.00 in0.0 mm 0.00 in/hr0.0 mm/hr 0.00 in0.0 mm
04:28 AM 11.6°F-11.3°C 4.3°F-15.4°C 72% 20.0 mph NW32.2 kmh NW 28.0 mph45.1 kmh 30.17 in1021.7 mb 0.00 in0.0 mm 0.00 in/hr0.0 mm/hr 0.00 in0.0 mm
04:30 AM 11.6°F-11.3°C 4.3°F-15.4°C 72% 18.0 mph NW29.0 kmh NW 28.0 mph45.1 kmh 30.16 in1021.3 mb 0.00 in0.0 mm 0.00 in/hr0.0 mm/hr 0.00 in0.0 mm
04:31 AM 11.6°F-11.3°C 4.6°F-15.2°C 73% 20.0 mph NW32.2 kmh NW 22.0 mph35.4 kmh 30.17 in1021.7 mb 0.00 in0.0 mm 0.00 in/hr0.0 mm/hr 0.00 in0.0 mm
04:33 AM 11.6°F-11.3°C 4.3°F-15.4°C 72% 16.0 mph NNW25.7 kmh NNW 26.0 mph41.8 kmh 30.17 in1021.7 mb 0.00 in0.0 mm 0.00 in/hr0.0 mm/hr 0.00 in0.0 mm
04:34 AM 11.7°F-11.3°C 4.4°F-15.3°C 72% 21.0 mph NW33.8 kmh NW 26.0 mph41.8 kmh 30.17 in1021.7 mb 0.00 in0.0 mm 0.00 in/hr0.0 mm/hr 0.00 in0.0 mm
04:35 AM 11.6°F-11.3°C 4.3°F-15.4°C 72% 20.0 mph NW32.2 kmh NW 26.0 mph41.8 kmh 30.17 in1021.7 mb 0.00 in0.0 mm 0.00 in/hr0.0 mm/hr 0.00 in0.0 mm
04:36 AM 11.7°F-11.3°C 4.4°F-15.3°C 72% 22.0 mph NW35.4 kmh NW 26.0 mph41.8 kmh 30.17 in1021.7 mb 0.00 in0.0 mm 0.00 in/hr0.0 mm/hr 0.00 in0.0 mm
04:37 AM 11.6°F-11.3°C 4.3°F-15.4°C 72% 20.0 mph NW32.2 kmh NW 26.0 mph41.8 kmh 30.17 in1021.7 mb 0.00 in0.0 mm 0.00 in/hr0.0 mm/hr 0.00 in0.0 mm
04:39 AM 11.6°F-11.3°C 4.3°F-15.4°C 72% 22.0 mph NW35.4 kmh NW 27.0 mph43.5 kmh 30.17 in1021.7 mb 0.00 in0.0 mm 0.00 in/hr0.0 mm/hr 0.00 in0.0 mm
04:40 AM 11.6°F-11.3°C 4.3°F-15.4°C 72% 22.0 mph NW35.4 kmh NW 27.0 mph43.5 kmh 30.17 in1021.7 mb 0.00 in0.0 mm 0.00 in/hr0.0 mm/hr 0.00 in0.0 mm
04:42 AM 11.6°F-11.3°C 4.3°F-15.4°C 72% 19.0 mph NW30.6 kmh NW 27.0 mph43.5 kmh 30.17 in1021.7 mb 0.00 in0.0 mm 0.00 in/hr0.0 mm/hr 0.00 in0.0 mm
04:43 AM 11.5°F-11.4°C 4.2°F-15.4°C 72% 17.0 mph NW27.4 kmh NW 27.0 mph43.5 kmh 30.17 in1021.7 mb 0.00 in0.0 mm 0.00 in/hr0.0 mm/hr 0.00 in0.0 mm
04:44 AM 11.5°F-11.4°C 4.2°F-15.4°C 72% 18.0 mph NW29.0 kmh NW 27.0 mph43.5 kmh 30.17 in1021.7 mb 0.00 in0.0 mm 0.00 in/hr0.0 mm/hr 0.00 in0.0 mm
04:45 AM 11.5°F-11.4°C 4.2°F-15.4°C 72% 23.0 mph NW37.0 kmh NW 27.0 mph43.5 kmh 30.17 in1021.7 mb 0.00 in0.0 mm 0.00 in/hr0.0 mm/hr 0.00 in0.0 mm
04:47 AM 11.5°F-11.4°C 4.2°F-15.4°C 72% 23.0 mph NW37.0 kmh NW 27.0 mph43.5 kmh 30.17 in1021.7 mb 0.00 in0.0 mm 0.00 in/hr0.0 mm/hr 0.00 in0.0 mm
04:48 AM 11.5°F-11.4°C 4.2°F-15.4°C 72% 23.0 mph NW37.0 kmh NW 27.0 mph43.5 kmh 30.17 in1021.7 mb 0.00 in0.0 mm 0.00 in/hr0.0 mm/hr 0.00 in0.0 mm
04:50 AM 11.4°F-11.4°C 3.8°F-15.7°C 71% 20.0 mph NW32.2 kmh NW 27.0 mph43.5 kmh 30.17 in1021.7 mb 0.00 in0.0 mm 0.00 in/hr0.0 mm/hr 0.00 in0.0 mm
04:51 AM 11.4°F-11.4°C 3.8°F-15.7°C 71% 24.0 mph NW38.6 kmh NW 28.0 mph45.1 kmh 30.17 in1021.7 mb 0.00 in0.0 mm 0.00 in/hr0.0 mm/hr 0.00 in0.0 mm
04:52 AM 11.4°F-11.4°C 3.8°F-15.7°C 71% 20.0 mph NNW32.2 kmh NNW 28.0 mph45.1 kmh 30.17 in1021.7 mb 0.00 in0.0 mm 0.00 in/hr0.0 mm/hr 0.00 in0.0 mm
04:53 AM 11.4°F-11.4°C 3.8°F-15.7°C 71% 22.0 mph NW35.4 kmh NW 28.0 mph45.1 kmh 30.17 in1021.7 mb 0.00 in0.0 mm 0.00 in/hr0.0 mm/hr 0.00 in0.0 mm
04:55 AM 11.4°F-11.4°C 4.1°F-15.5°C 72% 22.0 mph NW35.4 kmh NW 28.0 mph45.1 kmh 30.17 in1021.7 mb 0.00 in0.0 mm 0.00 in/hr0.0 mm/hr 0.00 in0.0 mm
04:56 AM 11.4°F-11.4°C 4.1°F-15.5°C 72% 20.0 mph NW32.2 kmh NW 28.0 mph45.1 kmh 30.17 in1021.7 mb 0.00 in0.0 mm 0.00 in/hr0.0 mm/hr 0.00 in0.0 mm
04:57 AM 11.4°F-11.4°C 4.1°F-15.5°C 72% 25.0 mph NW40.2 kmh NW 28.0 mph45.1 kmh 30.17 in1021.7 mb 0.00 in0.0 mm 0.00 in/hr0.0 mm/hr 0.00 in0.0 mm
04:59 AM 11.5°F-11.4°C 4.2°F-15.4°C 72% 21.0 mph NW33.8 kmh NW 29.0 mph46.7 kmh 30.18 in1022.0 mb 0.00 in0.0 mm 0.00 in/hr0.0 mm/hr 0.00 in0.0 mm
05:00 AM 11.5°F-11.4°C 4.2°F-15.4°C 72% 23.0 mph NNW37.0 kmh NNW 29.0 mph46.7 kmh 30.18 in1022.0 mb 0.00 in0.0 mm 0.00 in/hr0.0 mm/hr 0.00 in0.0 mm
05:01 AM 11.5°F-11.4°C 3.9°F-15.6°C 71% 24.0 mph NNW38.6 kmh NNW 27.0 mph43.5 kmh 30.18 in1022.0 mb 0.00 in0.0 mm 0.00 in/hr0.0 mm/hr 0.00 in0.0 mm
05:03 AM 11.5°F-11.4°C 3.9°F-15.6°C 71% 21.0 mph NW33.8 kmh NW 28.0 mph45.1 kmh 30.18 in1022.0 mb 0.00 in0.0 mm 0.00 in/hr0.0 mm/hr 0.00 in0.0 mm
05:05 AM 11.5°F-11.4°C 3.9°F-15.6°C 71% 23.0 mph NNW37.0 kmh NNW 28.0 mph45.1 kmh 30.18 in1022.0 mb 0.00 in0.0 mm 0.00 in/hr0.0 mm/hr 0.00 in0.0 mm
05:06 AM 11.5°F-11.4°C 3.9°F-15.6°C 71% 17.0 mph NNW27.4 kmh NNW 28.0 mph45.1 kmh 30.18 in1022.0 mb 0.00 in0.0 mm 0.00 in/hr0.0 mm/hr 0.00 in0.0 mm
05:08 AM 11.5°F-11.4°C 3.9°F-15.6°C 71% 22.0 mph NW35.4 kmh NW 28.0 mph45.1 kmh 30.18 in1022.0 mb 0.00 in0.0 mm 0.00 in/hr0.0 mm/hr 0.00 in0.0 mm
05:10 AM 11.5°F-11.4°C 3.9°F-15.6°C 71% 25.0 mph NW40.2 kmh NW 31.0 mph49.9 kmh 30.18 in1022.0 mb 0.00 in0.0 mm 0.00 in/hr0.0 mm/hr 0.00 in0.0 mm
05:11 AM 11.5°F-11.4°C 3.9°F-15.6°C 71% 24.0 mph NW38.6 kmh NW 31.0 mph49.9 kmh 30.18 in1022.0 mb 0.00 in0.0 mm 0.00 in/hr0.0 mm/hr 0.00 in0.0 mm
05:13 AM 11.5°F-11.4°C 3.9°F-15.6°C 71% 23.0 mph NW37.0 kmh NW 31.0 mph49.9 kmh 30.18 in1022.0 mb 0.00 in0.0 mm 0.00 in/hr0.0 mm/hr 0.00 in0.0 mm
05:15 AM 11.6°F-11.3°C 4.0°F-15.6°C 71% 23.0 mph NW37.0 kmh NW 31.0 mph49.9 kmh 30.19 in1022.4 mb 0.00 in0.0 mm 0.00 in/hr0.0 mm/hr 0.00 in0.0 mm
05:17 AM 11.6°F-11.3°C 4.0°F-15.6°C 71% 19.0 mph NW30.6 kmh NW 31.0 mph49.9 kmh 30.18 in1022.0 mb 0.00 in0.0 mm 0.00 in/hr0.0 mm/hr 0.00 in0.0 mm
05:19 AM 11.6°F-11.3°C 4.0°F-15.6°C 71% 21.0 mph NW33.8 kmh NW 31.0 mph49.9 kmh 30.18 in1022.0 mb 0.00 in0.0 mm 0.00 in/hr0.0 mm/hr 0.00 in0.0 mm
05:20 AM 11.6°F-11.3°C 4.0°F-15.6°C 71% 22.0 mph NW35.4 kmh NW 31.0 mph49.9 kmh 30.18 in1022.0 mb 0.00 in0.0 mm 0.00 in/hr0.0 mm/hr 0.00 in0.0 mm
05:21 AM 11.5°F-11.4°C 3.6°F-15.8°C 70% 24.0 mph NW38.6 kmh NW 31.0 mph49.9 kmh 30.18 in1022.0 mb 0.00 in0.0 mm 0.00 in/hr0.0 mm/hr 0.00 in0.0 mm
05:22 AM 11.5°F-11.4°C 3.6°F-15.8°C 70% 19.0 mph NW30.6 kmh NW 31.0 mph49.9 kmh 30.19 in1022.4 mb 0.00 in0.0 mm 0.00 in/hr0.0 mm/hr 0.00 in0.0 mm
05:24 AM 11.5°F-11.4°C 3.9°F-15.6°C 71% 17.0 mph NW27.4 kmh NW 31.0 mph49.9 kmh 30.19 in1022.4 mb 0.00 in0.0 mm 0.00 in/hr0.0 mm/hr 0.00 in0.0 mm
05:25 AM 11.5°F-11.4°C 3.9°F-15.6°C 71% 17.0 mph NW27.4 kmh NW 31.0 mph49.9 kmh 30.19 in1022.4 mb 0.00 in0.0 mm 0.00 in/hr0.0 mm/hr 0.00 in0.0 mm
05:26 AM 11.5°F-11.4°C 3.9°F-15.6°C 71% 26.0 mph NW41.8 kmh NW 31.0 mph49.9 kmh 30.19 in1022.4 mb 0.00 in0.0 mm 0.00 in/hr0.0 mm/hr 0.00 in0.0 mm
05:27 AM 11.5°F-11.4°C 3.9°F-15.6°C 71% 25.0 mph NW40.2 kmh NW 31.0 mph49.9 kmh 30.19 in1022.4 mb 0.00 in0.0 mm 0.00 in/hr0.0 mm/hr 0.00 in0.0 mm
05:28 AM 11.4°F-11.4°C 3.5°F-15.8°C 70% 24.0 mph NW38.6 kmh NW 31.0 mph49.9 kmh 30.19 in1022.4 mb 0.00 in0.0 mm 0.00 in/hr0.0 mm/hr 0.00 in0.0 mm
05:30 AM 11.4°F-11.4°C 3.5°F-15.8°C 70% 24.0 mph NW38.6 kmh NW 31.0 mph49.9 kmh 30.19 in1022.4 mb 0.00 in0.0 mm 0.00 in/hr0.0 mm/hr 0.00 in0.0 mm
05:32 AM 11.3°F-11.5°C 3.4°F-15.9°C 70% 24.0 mph NW38.6 kmh NW 27.0 mph43.5 kmh 30.19 in1022.4 mb 0.00 in0.0 mm 0.00 in/hr0.0 mm/hr 0.00 in0.0 mm
05:33 AM 11.3°F-11.5°C 3.4°F-15.9°C 70% 19.0 mph NW30.6 kmh NW 27.0 mph43.5 kmh 30.19 in1022.4 mb 0.00 in0.0 mm 0.00 in/hr0.0 mm/hr 0.00 in0.0 mm
05:34 AM 11.3°F-11.5°C 3.7°F-15.7°C 71% 26.0 mph NNW41.8 kmh NNW 30.0 mph48.3 kmh 30.19 in1022.4 mb 0.00 in0.0 mm 0.00 in/hr0.0 mm/hr 0.00 in0.0 mm
05:35 AM 11.3°F-11.5°C 3.7°F-15.7°C 71% 24.0 mph NW38.6 kmh NW 31.0 mph49.9 kmh 30.19 in1022.4 mb 0.00 in0.0 mm 0.00 in/hr0.0 mm/hr 0.00 in0.0 mm
05:36 AM 11.2°F-11.6°C 3.7°F-15.7°C 71% 21.0 mph NNW33.8 kmh NNW 31.0 mph49.9 kmh 30.19 in1022.4 mb 0.00 in0.0 mm 0.00 in/hr0.0 mm/hr 0.00 in0.0 mm
05:38 AM 11.2°F-11.6°C 3.7°F-15.7°C 71% 23.0 mph NNW37.0 kmh NNW 31.0 mph49.9 kmh 30.19 in1022.4 mb 0.00 in0.0 mm 0.00 in/hr0.0 mm/hr 0.00 in0.0 mm
05:40 AM 11.2°F-11.6°C 3.7°F-15.7°C 71% 22.0 mph NW35.4 kmh NW 31.0 mph49.9 kmh 30.19 in1022.4 mb 0.00 in0.0 mm 0.00 in/hr0.0 mm/hr 0.00 in0.0 mm
05:41 AM 11.2°F-11.6°C 3.3°F-15.9°C 70% 24.0 mph NW38.6 kmh NW 31.0 mph49.9 kmh 30.20 in1022.7 mb 0.00 in0.0 mm 0.00 in/hr0.0 mm/hr 0.00 in0.0 mm
05:42 AM 11.2°F-11.6°C 3.3°F-15.9°C 70% 17.0 mph NW27.4 kmh NW 31.0 mph49.9 kmh 30.20 in1022.7 mb 0.00 in0.0 mm 0.00 in/hr0.0 mm/hr 0.00 in0.0 mm
05:44 AM 11.2°F-11.6°C 3.7°F-15.7°C 71% 19.0 mph NW30.6 kmh NW 31.0 mph49.9 kmh 30.20 in1022.7 mb 0.00 in0.0 mm 0.00 in/hr0.0 mm/hr 0.00 in0.0 mm
05:45 AM 11.2°F-11.6°C 3.7°F-15.7°C 71% 23.0 mph NW37.0 kmh NW 31.0 mph49.9 kmh 30.20 in1022.7 mb 0.00 in0.0 mm 0.00 in/hr0.0 mm/hr 0.00 in0.0 mm
05:46 AM 11.2°F-11.6°C 3.7°F-15.7°C 71% 21.0 mph NW33.8 kmh NW 31.0 mph49.9 kmh 30.20 in1022.7 mb 0.00 in0.0 mm 0.00 in/hr0.0 mm/hr 0.00 in0.0 mm
05:47 AM 11.2°F-11.6°C 3.3°F-15.9°C 70% 19.0 mph NW30.6 kmh NW 31.0 mph49.9 kmh 30.20 in1022.7 mb 0.00 in0.0 mm 0.00 in/hr0.0 mm/hr 0.00 in0.0 mm
05:49 AM 11.1°F-11.6°C 3.2°F-16.0°C 70% 21.0 mph NW33.8 kmh NW 31.0 mph49.9 kmh 30.20 in1022.7 mb 0.00 in0.0 mm 0.00 in/hr0.0 mm/hr 0.00 in0.0 mm
05:50 AM 11.0°F-11.7°C 3.2°F-16.0°C 70% 18.0 mph NW29.0 kmh NW 31.0 mph49.9 kmh 30.20 in1022.7 mb 0.00 in0.0 mm 0.00 in/hr0.0 mm/hr 0.00 in0.0 mm
05:51 AM 11.0°F-11.7°C 3.2°F-16.0°C 70% 19.0 mph NW30.6 kmh NW 31.0 mph49.9 kmh 30.20 in1022.7 mb 0.00 in0.0 mm 0.00 in/hr0.0 mm/hr 0.00 in0.0 mm
05:53 AM 11.0°F-11.7°C 3.5°F-15.8°C 71% 22.0 mph NNW35.4 kmh NNW 31.0 mph49.9 kmh 30.21 in1023.0 mb 0.00 in0.0 mm 0.00 in/hr0.0 mm/hr 0.00 in0.0 mm
05:55 AM 10.9°F-11.7°C 3.4°F-15.9°C 71% 20.0 mph NNW32.2 kmh NNW 31.0 mph49.9 kmh 30.20 in1022.7 mb 0.00 in0.0 mm 0.00 in/hr0.0 mm/hr 0.00 in0.0 mm
05:56 AM 10.9°F-11.7°C 3.4°F-15.9°C 71% 21.0 mph NW33.8 kmh NW 31.0 mph49.9 kmh 30.21 in1023.0 mb 0.00 in0.0 mm 0.00 in/hr0.0 mm/hr 0.00 in0.0 mm
05:58 AM 10.9°F-11.7°C 3.1°F-16.1°C 70% 24.0 mph NW38.6 kmh NW 31.0 mph49.9 kmh 30.20 in1022.7 mb 0.00 in0.0 mm 0.00 in/hr0.0 mm/hr 0.00 in0.0 mm
05:59 AM 10.8°F-11.8°C 3.0°F-16.1°C 70% 16.0 mph NW25.7 kmh NW 31.0 mph49.9 kmh 30.21 in1023.0 mb 0.00 in0.0 mm 0.00 in/hr0.0 mm/hr 0.00 in0.0 mm
06:00 AM 10.8°F-11.8°C 3.3°F-15.9°C 71% 20.0 mph NW32.2 kmh NW 31.0 mph49.9 kmh 30.21 in1023.0 mb 0.00 in0.0 mm 0.00 in/hr0.0 mm/hr 0.00 in0.0 mm
06:01 AM 10.8°F-11.8°C 3.3°F-15.9°C 71% 13.0 mph NW20.9 kmh NW 21.0 mph33.8 kmh 30.21 in1023.0 mb 0.00 in0.0 mm 0.00 in/hr0.0 mm/hr 0.00 in0.0 mm
06:03 AM 10.7°F-11.8°C 3.2°F-16.0°C 71% 23.0 mph NW37.0 kmh NW 24.0 mph38.6 kmh 30.21 in1023.0 mb 0.00 in0.0 mm 0.00 in/hr0.0 mm/hr 0.00 in0.0 mm
06:05 AM 10.7°F-11.8°C 3.2°F-16.0°C 71% 18.0 mph NNW29.0 kmh NNW 24.0 mph38.6 kmh 30.21 in1023.0 mb 0.00 in0.0 mm 0.00 in/hr0.0 mm/hr 0.00 in0.0 mm
06:06 AM 10.6°F-11.9°C 3.1°F-16.1°C 71% 20.0 mph NW32.2 kmh NW 27.0 mph43.5 kmh 30.21 in1023.0 mb 0.00 in0.0 mm 0.00 in/hr0.0 mm/hr 0.00 in0.0 mm
06:08 AM 10.5°F-11.9°C 3.0°F-16.1°C 71% 20.0 mph NW32.2 kmh NW 28.0 mph45.1 kmh 30.21 in1023.0 mb 0.00 in0.0 mm 0.00 in/hr0.0 mm/hr 0.00 in0.0 mm
06:10 AM 10.4°F-12.0°C 2.6°F-16.3°C 70% 19.0 mph NNW30.6 kmh NNW 29.0 mph46.7 kmh 30.22 in1023.4 mb 0.00 in0.0 mm 0.00 in/hr0.0 mm/hr 0.00 in0.0 mm
06:11 AM 10.4°F-12.0°C 2.6°F-16.3°C 70% 23.0 mph N37.0 kmh N 29.0 mph46.7 kmh 30.21 in1023.0 mb 0.00 in0.0 mm 0.00 in/hr0.0 mm/hr 0.00 in0.0 mm
06:13 AM 10.3°F-12.1°C 2.5°F-16.4°C 70% 21.0 mph NW33.8 kmh NW 29.0 mph46.7 kmh 30.22 in1023.4 mb 0.00 in0.0 mm 0.00 in/hr0.0 mm/hr 0.00 in0.0 mm
06:14 AM 10.2°F-12.1°C 2.4°F-16.4°C 70% 18.0 mph NNW29.0 kmh NNW 29.0 mph46.7 kmh 30.22 in1023.4 mb 0.00 in0.0 mm 0.00 in/hr0.0 mm/hr 0.00 in0.0 mm
06:15 AM 10.2°F-12.1°C 2.4°F-16.4°C 70% 20.0 mph NW32.2 kmh NW 29.0 mph46.7 kmh 30.22 in1023.4 mb 0.00 in0.0 mm 0.00 in/hr0.0 mm/hr 0.00 in0.0 mm
06:17 AM 10.2°F-12.1°C 2.4°F-16.4°C 70% 21.0 mph NNW33.8 kmh NNW 29.0 mph46.7 kmh 30.22 in1023.4 mb 0.00 in0.0 mm 0.00 in/hr0.0 mm/hr 0.00 in0.0 mm
06:19 AM 10.1°F-12.2°C 2.6°F-16.3°C 71% 15.0 mph NW24.1 kmh NW 29.0 mph46.7 kmh 30.22 in1023.4 mb 0.00 in0.0 mm 0.00 in/hr0.0 mm/hr 0.00 in0.0 mm
06:20 AM 10.1°F-12.2°C 2.6°F-16.3°C 71% 19.0 mph NNW30.6 kmh NNW 29.0 mph46.7 kmh 30.22 in1023.4 mb 0.00 in0.0 mm 0.00 in/hr0.0 mm/hr 0.00 in0.0 mm
06:22 AM 10.1°F-12.2°C 2.6°F-16.3°C 71% 19.0 mph NW30.6 kmh NW 29.0 mph46.7 kmh 30.22 in1023.4 mb 0.00 in0.0 mm 0.00 in/hr0.0 mm/hr 0.00 in0.0 mm
06:23 AM 10.0°F-12.2°C 2.5°F-16.4°C 71% 17.0 mph NW27.4 kmh NW 29.0 mph46.7 kmh 30.22 in1023.4 mb 0.00 in0.0 mm 0.00 in/hr0.0 mm/hr 0.00 in0.0 mm
06:25 AM 10.0°F-12.2°C 2.5°F-16.4°C 71% 16.0 mph NW25.7 kmh NW 29.0 mph46.7 kmh 30.22 in1023.4 mb 0.00 in0.0 mm 0.00 in/hr0.0 mm/hr 0.00 in0.0 mm
06:27 AM 10.0°F-12.2°C 2.5°F-16.4°C 71% 17.0 mph NW27.4 kmh NW 29.0 mph46.7 kmh 30.22 in1023.4 mb 0.00 in0.0 mm 0.00 in/hr0.0 mm/hr 0.00 in0.0 mm
06:28 AM 9.9°F-12.3°C 2.4°F-16.4°C 71% 20.0 mph NW32.2 kmh NW 29.0 mph46.7 kmh 30.22 in1023.4 mb 0.00 in0.0 mm 0.00 in/hr0.0 mm/hr 0.00 in0.0 mm
06:29 AM 9.9°F-12.3°C 2.4°F-16.4°C 71% 19.0 mph NW30.6 kmh NW 29.0 mph46.7 kmh 30.23 in1023.7 mb 0.00 in0.0 mm 0.00 in/hr0.0 mm/hr 0.00 in0.0 mm
06:30 AM 9.9°F-12.3°C 2.4°F-16.4°C 71% 25.0 mph NNW40.2 kmh NNW 29.0 mph46.7 kmh 30.22 in1023.4 mb 0.00 in0.0 mm 0.00 in/hr0.0 mm/hr 0.00 in0.0 mm
06:31 AM 9.8°F-12.3°C 2.3°F-16.5°C 71% 23.0 mph NW37.0 kmh NW 24.0 mph38.6 kmh 30.23 in1023.7 mb 0.00 in0.0 mm 0.00 in/hr0.0 mm/hr 0.00 in0.0 mm
06:33 AM 9.8°F-12.3°C 2.3°F-16.5°C 71% 19.0 mph NW30.6 kmh NW 24.0 mph38.6 kmh 30.23 in1023.7 mb 0.00 in0.0 mm 0.00 in/hr0.0 mm/hr 0.00 in0.0 mm
06:34 AM 9.8°F-12.3°C 2.3°F-16.5°C 71% 18.0 mph NW29.0 kmh NW 24.0 mph38.6 kmh 30.23 in1023.7 mb 0.00 in0.0 mm 0.00 in/hr0.0 mm/hr 0.00 in0.0 mm
06:36 AM 9.8°F-12.3°C 2.3°F-16.5°C 71% 17.0 mph NW27.4 kmh NW 27.0 mph43.5 kmh 30.23 in1023.7 mb 0.00 in0.0 mm 0.00 in/hr0.0 mm/hr 0.00 in0.0 mm
06:37 AM 9.7°F-12.4°C 2.2°F-16.6°C 71% 21.0 mph NW33.8 kmh NW 27.0 mph43.5 kmh 30.23 in1023.7 mb 0.00 in0.0 mm 0.00 in/hr0.0 mm/hr 0.00 in0.0 mm
06:38 AM 9.7°F-12.4°C 2.2°F-16.6°C 71% 27.0 mph NW43.5 kmh NW 35.0 mph56.3 kmh 30.23 in1023.7 mb 0.00 in0.0 mm 0.00 in/hr0.0 mm/hr 0.00 in0.0 mm
06:40 AM 9.6°F-12.4°C 2.1°F-16.6°C 71% 26.0 mph NW41.8 kmh NW 35.0 mph56.3 kmh 30.23 in1023.7 mb 0.00 in0.0 mm 0.00 in/hr0.0 mm/hr 0.00 in0.0 mm
06:42 AM 9.6°F-12.4°C 1.8°F-16.8°C 70% 21.0 mph NNW33.8 kmh NNW 35.0 mph56.3 kmh 30.23 in1023.7 mb 0.00 in0.0 mm 0.00 in/hr0.0 mm/hr 0.00 in0.0 mm
06:44 AM 9.5°F-12.5°C 1.7°F-16.8°C 70% 20.0 mph NNW32.2 kmh NNW 35.0 mph56.3 kmh 30.23 in1023.7 mb 0.00 in0.0 mm 0.00 in/hr0.0 mm/hr 0.00 in0.0 mm
06:45 AM 9.5°F-12.5°C 1.7°F-16.8°C 70% 24.0 mph NNW38.6 kmh NNW 35.0 mph56.3 kmh 30.23 in1023.7 mb 0.00 in0.0 mm 0.00 in/hr0.0 mm/hr 0.00 in0.0 mm
06:47 AM 9.4°F-12.6°C 1.6°F-16.9°C 70% 20.0 mph NW32.2 kmh NW 35.0 mph56.3 kmh 30.23 in1023.7 mb 0.00 in0.0 mm 0.00 in/hr0.0 mm/hr 0.00 in0.0 mm
06:48 AM 9.4°F-12.6°C 1.6°F-16.9°C 70% 19.0 mph N30.6 kmh N 35.0 mph56.3 kmh 30.23 in1023.7 mb 0.00 in0.0 mm 0.00 in/hr0.0 mm/hr 0.00 in0.0 mm
06:50 AM 9.4°F-12.6°C 1.6°F-16.9°C 70% 25.0 mph NW40.2 kmh NW 35.0 mph56.3 kmh 30.23 in1023.7 mb 0.00 in0.0 mm 0.00 in/hr0.0 mm/hr 0.00 in0.0 mm
06:51 AM 9.4°F-12.6°C 1.6°F-16.9°C 70% 27.0 mph NW43.5 kmh NW 35.0 mph56.3 kmh 30.23 in1023.7 mb 0.00 in0.0 mm 0.00 in/hr0.0 mm/hr 0.00 in0.0 mm
06:52 AM 9.3°F-12.6°C 1.2°F-17.1°C 69% 27.0 mph NNW43.5 kmh NNW 35.0 mph56.3 kmh 30.23 in1023.7 mb 0.00 in0.0 mm 0.00 in/hr0.0 mm/hr 0.00 in0.0 mm
06:53 AM 9.3°F-12.6°C 1.2°F-17.1°C 69% 21.0 mph NNW33.8 kmh NNW 35.0 mph56.3 kmh 30.23 in1023.7 mb 0.00 in0.0 mm 0.00 in/hr0.0 mm/hr 0.00 in0.0 mm
06:54 AM 9.2°F-12.7°C 1.4°F-17.0°C 70% 23.0 mph NNW37.0 kmh NNW 35.0 mph56.3 kmh 30.24 in1024.0 mb 0.00 in0.0 mm 0.00 in/hr0.0 mm/hr 0.00 in0.0 mm
06:55 AM 9.2°F-12.7°C 1.4°F-17.0°C 70% 21.0 mph NW33.8 kmh NW 35.0 mph56.3 kmh 30.24 in1024.0 mb 0.00 in0.0 mm 0.00 in/hr0.0 mm/hr 0.00 in0.0 mm
06:57 AM 9.2°F-12.7°C 1.4°F-17.0°C 70% 20.0 mph NW32.2 kmh NW 35.0 mph56.3 kmh 30.24 in1024.0 mb 0.00 in0.0 mm 0.00 in/hr0.0 mm/hr 0.00 in0.0 mm
06:58 AM 9.2°F-12.7°C 1.4°F-17.0°C 70% 21.0 mph NNW33.8 kmh NNW 35.0 mph56.3 kmh 30.24 in1024.0 mb 0.00 in0.0 mm 0.00 in/hr0.0 mm/hr 0.00 in0.0 mm
07:00 AM 9.2°F-12.7°C 1.4°F-17.0°C 70% 22.0 mph NW35.4 kmh NW 35.0 mph56.3 kmh 30.24 in1024.0 mb 0.00 in0.0 mm 0.00 in/hr0.0 mm/hr 0.00 in0.0 mm
07:01 AM 9.2°F-12.7°C 1.4°F-17.0°C 70% 24.0 mph NNW38.6 kmh NNW 28.0 mph45.1 kmh 30.23 in1023.7 mb 0.00 in0.0 mm 0.00 in/hr0.0 mm/hr 0.00 in0.0 mm
07:02 AM 9.2°F-12.7°C 1.4°F-17.0°C 70% 22.0 mph NW35.4 kmh NW 28.0 mph45.1 kmh 30.24 in1024.0 mb 0.00 in0.0 mm 0.00 in/hr0.0 mm/hr 0.00 in0.0 mm
07:03 AM 9.2°F-12.7°C 1.4°F-17.0°C 70% 26.0 mph NNW41.8 kmh NNW 29.0 mph46.7 kmh 30.24 in1024.0 mb 0.00 in0.0 mm 0.00 in/hr0.0 mm/hr 0.00 in0.0 mm
07:05 AM 9.1°F-12.7°C 1.3°F-17.1°C 70% 23.0 mph NW37.0 kmh NW 31.0 mph49.9 kmh 30.24 in1024.0 mb 0.00 in0.0 mm 0.00 in/hr0.0 mm/hr 0.00 in0.0 mm
07:07 AM 9.0°F-12.8°C 1.2°F-17.1°C 70% 23.0 mph NW37.0 kmh NW 31.0 mph49.9 kmh 30.24 in1024.0 mb 0.00 in0.0 mm 0.00 in/hr0.0 mm/hr 0.00 in0.0 mm
07:08 AM 9.0°F-12.8°C 1.2°F-17.1°C 70% 24.0 mph NW38.6 kmh NW 31.0 mph49.9 kmh 30.24 in1024.0 mb 0.00 in0.0 mm 0.00 in/hr0.0 mm/hr 0.00 in0.0 mm
07:10 AM 9.0°F-12.8°C 1.2°F-17.1°C 70% 21.0 mph NW33.8 kmh NW 31.0 mph49.9 kmh 30.24 in1024.0 mb 0.00 in0.0 mm 0.00 in/hr0.0 mm/hr 0.00 in0.0 mm
07:11 AM 9.0°F-12.8°C 1.2°F-17.1°C 70% 22.0 mph NNW35.4 kmh NNW 31.0 mph49.9 kmh 30.24 in1024.0 mb 0.00 in0.0 mm 0.00 in/hr0.0 mm/hr 0.00 in0.0 mm
07:12 AM 8.9°F-12.8°C 1.1°F-17.2°C 70% 23.0 mph NNW37.0 kmh NNW 31.0 mph49.9 kmh 30.24 in1024.0 mb 0.00 in0.0 mm 0.00 in/hr0.0 mm/hr 0.00 in0.0 mm
07:14 AM 8.9°F-12.8°C 1.1°F-17.2°C 70% 21.0 mph NNW33.8 kmh NNW 31.0 mph49.9 kmh 30.24 in1024.0 mb 0.00 in0.0 mm 0.00 in/hr0.0 mm/hr 0.00 in0.0 mm
07:15 AM 8.9°F-12.8°C 1.1°F-17.2°C 70% 27.0 mph NNW43.5 kmh NNW 31.0 mph49.9 kmh 30.24 in1024.0 mb 0.00 in0.0 mm 0.00 in/hr0.0 mm/hr 0.00 in0.0 mm
07:17 AM 8.8°F-12.9°C 1.0°F-17.2°C 70% 27.0 mph NW43.5 kmh NW 31.0 mph49.9 kmh 30.24 in1024.0 mb 0.00 in0.0 mm 0.00 in/hr0.0 mm/hr 0.00 in0.0 mm
07:19 AM 8.7°F-12.9°C 0.9°F-17.3°C 70% 20.0 mph NNW32.2 kmh NNW 31.0 mph49.9 kmh 30.25 in1024.4 mb 0.00 in0.0 mm 0.00 in/hr0.0 mm/hr 0.00 in0.0 mm
07:20 AM 8.7°F-12.9°C 0.9°F-17.3°C 70% 22.0 mph NNW35.4 kmh NNW 31.0 mph49.9 kmh 30.24 in1024.0 mb 0.00 in0.0 mm 0.00 in/hr0.0 mm/hr 0.00 in0.0 mm
07:22 AM 8.7°F-12.9°C 0.9°F-17.3°C 70% 23.0 mph NNW37.0 kmh NNW 31.0 mph49.9 kmh 30.25 in1024.4 mb 0.00 in0.0 mm 0.00 in/hr0.0 mm/hr 0.00 in0.0 mm
07:23 AM 8.7°F-12.9°C 0.9°F-17.3°C 70% 22.0 mph NNW35.4 kmh NNW 31.0 mph49.9 kmh 30.25 in1024.4 mb 0.00 in0.0 mm 0.00 in/hr0.0 mm/hr 0.00 in0.0 mm
07:25 AM 8.6°F-13.0°C 0.8°F-17.3°C 70% 22.0 mph NNW35.4 kmh NNW 31.0 mph49.9 kmh 30.25 in1024.4 mb 0.00 in0.0 mm 0.00 in/hr0.0 mm/hr 0.00 in0.0 mm
07:27 AM 8.6°F-13.0°C 0.8°F-17.3°C 70% 16.0 mph NW25.7 kmh NW 31.0 mph49.9 kmh 30.25 in1024.4 mb 0.00 in0.0 mm 0.00 in/hr0.0 mm/hr 0.00 in0.0 mm
07:28 AM 8.6°F-13.0°C 0.8°F-17.3°C 70% 25.0 mph NNW40.2 kmh NNW 31.0 mph49.9 kmh 30.25 in1024.4 mb 0.00 in0.0 mm 0.00 in/hr0.0 mm/hr 0.00 in0.0 mm
07:30 AM 8.6°F-13.0°C 0.8°F-17.3°C 70% 25.0 mph NW40.2 kmh NW 31.0 mph49.9 kmh 30.25 in1024.4 mb 0.00 in0.0 mm 0.00 in/hr0.0 mm/hr 0.00 in0.0 mm
07:31 AM 8.6°F-13.0°C 0.8°F-17.3°C 70% 17.0 mph NNW27.4 kmh NNW 23.0 mph37.0 kmh 30.26 in1024.7 mb 0.00 in0.0 mm 0.00 in/hr0.0 mm/hr 0.00 in0.0 mm
07:33 AM 8.5°F-13.1°C 0.7°F-17.4°C 70% 23.0 mph NW37.0 kmh NW 26.0 mph41.8 kmh 30.26 in1024.7 mb 0.00 in0.0 mm 0.00 in/hr0.0 mm/hr 0.00 in0.0 mm
07:34 AM 8.5°F-13.1°C 0.7°F-17.4°C 70% 24.0 mph NNW38.6 kmh NNW 27.0 mph43.5 kmh 30.25 in1024.4 mb 0.00 in0.0 mm 0.00 in/hr0.0 mm/hr 0.00 in0.0 mm
07:36 AM 8.5°F-13.1°C 0.7°F-17.4°C 70% 22.0 mph NNW35.4 kmh NNW 28.0 mph45.1 kmh 30.26 in1024.7 mb 0.00 in0.0 mm 0.00 in/hr0.0 mm/hr 0.00 in0.0 mm
07:37 AM 8.4°F-13.1°C 0.6°F-17.4°C 70% 24.0 mph NNW38.6 kmh NNW 28.0 mph45.1 kmh 30.26 in1024.7 mb 0.00 in0.0 mm 0.00 in/hr0.0 mm/hr 0.00 in0.0 mm
07:38 AM 8.4°F-13.1°C 0.6°F-17.4°C 70% 22.0 mph NNW35.4 kmh NNW 28.0 mph45.1 kmh 30.26 in1024.7 mb 0.00 in0.0 mm 0.00 in/hr0.0 mm/hr 0.00 in0.0 mm
07:39 AM 8.3°F-13.2°C 0.6°F-17.4°C 70% 22.0 mph NNW35.4 kmh NNW 28.0 mph45.1 kmh 30.26 in1024.7 mb 0.00 in0.0 mm 0.00 in/hr0.0 mm/hr 0.00 in0.0 mm
07:40 AM 8.3°F-13.2°C 0.6°F-17.4°C 70% 22.0 mph NW35.4 kmh NW 28.0 mph45.1 kmh 30.26 in1024.7 mb 0.00 in0.0 mm 0.00 in/hr0.0 mm/hr 0.00 in0.0 mm
07:41 AM 8.3°F-13.2°C 0.6°F-17.4°C 70% 18.0 mph NNW29.0 kmh NNW 28.0 mph45.1 kmh 30.26 in1024.7 mb 0.00 in0.0 mm 0.00 in/hr0.0 mm/hr 0.00 in0.0 mm
07:42 AM 8.2°F-13.2°C 0.5°F-17.5°C 70% 18.0 mph NW29.0 kmh NW 28.0 mph45.1 kmh 30.26 in1024.7 mb 0.00 in0.0 mm 0.00 in/hr0.0 mm/hr 0.00 in0.0 mm
07:44 AM 8.2°F-13.2°C 0.5°F-17.5°C 70% 17.0 mph NNW27.4 kmh NNW 28.0 mph45.1 kmh 30.26 in1024.7 mb 0.00 in0.0 mm 0.00 in/hr0.0 mm/hr 0.00 in0.0 mm
07:46 AM 8.1°F-13.3°C 0.4°F-17.6°C 70% 20.0 mph N32.2 kmh N 28.0 mph45.1 kmh 30.26 in1024.7 mb 0.00 in0.0 mm 0.00 in/hr0.0 mm/hr 0.00 in0.0 mm
07:49 AM 8.0°F-13.3°C 0.3°F-17.6°C 70% 20.0 mph NNW32.2 kmh NNW 28.0 mph45.1 kmh 30.27 in1025.1 mb 0.00 in0.0 mm 0.00 in/hr0.0 mm/hr 0.00 in0.0 mm
07:50 AM 8.0°F-13.3°C 0.6°F-17.4°C 71% 23.0 mph NNW37.0 kmh NNW 28.0 mph45.1 kmh 30.27 in1025.1 mb 0.00 in0.0 mm 0.00 in/hr0.0 mm/hr 0.00 in0.0 mm
07:51 AM 7.9°F-13.4°C 0.5°F-17.5°C 71% 25.0 mph NNW40.2 kmh NNW 28.0 mph45.1 kmh 30.27 in1025.1 mb 0.00 in0.0 mm 0.00 in/hr0.0 mm/hr 0.00 in0.0 mm
07:53 AM 7.9°F-13.4°C 0.5°F-17.5°C 71% 20.0 mph NNW32.2 kmh NNW 28.0 mph45.1 kmh 30.27 in1025.1 mb 0.00 in0.0 mm 0.00 in/hr0.0 mm/hr 0.00 in0.0 mm
07:54 AM 7.8°F-13.4°C 0.1°F-17.7°C 70% 20.0 mph NNW32.2 kmh NNW 28.0 mph45.1 kmh 30.27 in1025.1 mb 0.00 in0.0 mm 0.00 in/hr0.0 mm/hr 0.00 in0.0 mm
07:55 AM 7.8°F-13.4°C 0.4°F-17.6°C 71% 17.0 mph NW27.4 kmh NW 28.0 mph45.1 kmh 30.27 in1025.1 mb 0.00 in0.0 mm 0.00 in/hr0.0 mm/hr 0.00 in0.0 mm
07:56 AM 7.7°F-13.5°C 0.3°F-17.6°C 71% 16.0 mph NNW25.7 kmh NNW 28.0 mph45.1 kmh 30.27 in1025.1 mb 0.00 in0.0 mm 0.00 in/hr0.0 mm/hr 0.00 in0.0 mm
07:58 AM 7.7°F-13.5°C 0.3°F-17.6°C 71% 20.0 mph NNW32.2 kmh NNW 28.0 mph45.1 kmh 30.27 in1025.1 mb 0.00 in0.0 mm 0.00 in/hr0.0 mm/hr 0.00 in0.0 mm
08:00 AM 7.6°F-13.6°C 0.2°F-17.7°C 71% 24.0 mph NW38.6 kmh NW 29.0 mph46.7 kmh 30.27 in1025.1 mb 0.00 in0.0 mm 0.00 in/hr0.0 mm/hr 0.00 in0.0 mm
08:01 AM 7.5°F-13.6°C 0.1°F-17.7°C 71% 23.0 mph NW37.0 kmh NW 25.0 mph40.2 kmh 30.28 in1025.4 mb 0.00 in0.0 mm 0.00 in/hr0.0 mm/hr 0.00 in0.0 mm
08:03 AM 7.4°F-13.7°C 0.0°F-17.8°C 71% 25.0 mph NW40.2 kmh NW 28.0 mph45.1 kmh 30.28 in1025.4 mb 0.00 in0.0 mm 0.00 in/hr0.0 mm/hr 0.00 in0.0 mm
08:04 AM 7.2°F-13.8°C -0.5°F-18.1°C 70% 22.0 mph N35.4 kmh N 28.0 mph45.1 kmh 30.28 in1025.4 mb 0.00 in0.0 mm 0.00 in/hr0.0 mm/hr 0.00 in0.0 mm
08:05 AM 7.1°F-13.8°C -0.6°F-18.1°C 70% 24.0 mph NW38.6 kmh NW 28.0 mph45.1 kmh 30.28 in1025.4 mb 0.00 in0.0 mm 0.00 in/hr0.0 mm/hr 0.00 in0.0 mm
08:07 AM 7.1°F-13.8°C -0.6°F-18.1°C 70% 18.0 mph NNW29.0 kmh NNW 28.0 mph45.1 kmh 30.28 in1025.4 mb 0.00 in0.0 mm 0.00 in/hr0.0 mm/hr 0.00 in0.0 mm
08:08 AM 6.9°F-13.9°C -0.8°F-18.2°C 70% 18.0 mph NNW29.0 kmh NNW 28.0 mph45.1 kmh 30.28 in1025.4 mb 0.00 in0.0 mm 0.00 in/hr0.0 mm/hr 0.00 in0.0 mm
08:10 AM 6.9°F-13.9°C -0.5°F-18.1°C 71% 17.0 mph NW27.4 kmh NW 28.0 mph45.1 kmh 30.28 in1025.4 mb 0.00 in0.0 mm 0.00 in/hr0.0 mm/hr 0.00 in0.0 mm
08:11 AM 6.8°F-14.0°C -0.6°F-18.1°C 71% 16.0 mph NNW25.7 kmh NNW 28.0 mph45.1 kmh 30.29 in1025.7 mb 0.00 in0.0 mm 0.00 in/hr0.0 mm/hr 0.00 in0.0 mm
08:13 AM 6.8°F-14.0°C -0.3°F-17.9°C 72% 17.0 mph NNW27.4 kmh NNW 28.0 mph45.1 kmh 30.29 in1025.7 mb 0.00 in0.0 mm 0.00 in/hr0.0 mm/hr 0.00 in0.0 mm
08:15 AM 6.6°F-14.1°C -0.5°F-18.1°C 72% 18.0 mph NNW29.0 kmh NNW 28.0 mph45.1 kmh 30.29 in1025.7 mb 0.00 in0.0 mm 0.00 in/hr0.0 mm/hr 0.00 in0.0 mm
08:17 AM 6.5°F-14.2°C -0.6°F-18.1°C 72% 26.0 mph NW41.8 kmh NW 28.0 mph45.1 kmh 30.29 in1025.7 mb 0.00 in0.0 mm 0.00 in/hr0.0 mm/hr 0.00 in0.0 mm
08:18 AM 6.4°F-14.2°C -0.7°F-18.2°C 72% 23.0 mph NNW37.0 kmh NNW 28.0 mph45.1 kmh 30.29 in1025.7 mb 0.00 in0.0 mm 0.00 in/hr0.0 mm/hr 0.00 in0.0 mm
08:20 AM 6.3°F-14.3°C -0.8°F-18.2°C 72% 19.0 mph NW30.6 kmh NW 28.0 mph45.1 kmh 30.29 in1025.7 mb 0.00 in0.0 mm 0.00 in/hr0.0 mm/hr 0.00 in0.0 mm
08:22 AM 6.2°F-14.3°C -0.9°F-18.3°C 72% 19.0 mph NNW30.6 kmh NNW 28.0 mph45.1 kmh 30.29 in1025.7 mb 0.00 in0.0 mm 0.00 in/hr0.0 mm/hr 0.00 in0.0 mm
08:23 AM 6.0°F-14.4°C -1.1°F-18.4°C 72% 18.0 mph NNW29.0 kmh NNW 28.0 mph45.1 kmh 30.29 in1025.7 mb 0.00 in0.0 mm 0.00 in/hr0.0 mm/hr 0.00 in0.0 mm
08:25 AM 5.9°F-14.5°C -1.2°F-18.4°C 72% 23.0 mph NNW37.0 kmh NNW 28.0 mph45.1 kmh 30.29 in1025.7 mb 0.00 in0.0 mm 0.00 in/hr0.0 mm/hr 0.00 in0.0 mm
08:27 AM 5.9°F-14.5°C -1.2°F-18.4°C 72% 22.0 mph NNW35.4 kmh NNW 28.0 mph45.1 kmh 30.29 in1025.7 mb 0.00 in0.0 mm 0.00 in/hr0.0 mm/hr 0.00 in0.0 mm
08:28 AM 5.8°F-14.6°C -1.3°F-18.5°C 72% 19.0 mph NNW30.6 kmh NNW 28.0 mph45.1 kmh 30.30 in1026.1 mb 0.00 in0.0 mm 0.00 in/hr0.0 mm/hr 0.00 in0.0 mm
08:30 AM 5.7°F-14.6°C -1.4°F-18.6°C 72% 20.0 mph NW32.2 kmh NW 28.0 mph45.1 kmh 30.30 in1026.1 mb 0.00 in0.0 mm 0.00 in/hr0.0 mm/hr 0.00 in0.0 mm
08:31 AM 5.6°F-14.7°C -1.5°F-18.6°C 72% 23.0 mph NW37.0 kmh NW 27.0 mph43.5 kmh 30.30 in1026.1 mb 0.00 in0.0 mm 0.00 in/hr0.0 mm/hr 0.00 in0.0 mm
08:33 AM 5.5°F-14.7°C -1.6°F-18.7°C 72% 17.0 mph NW27.4 kmh NW 27.0 mph43.5 kmh 30.30 in1026.1 mb 0.00 in0.0 mm 0.00 in/hr0.0 mm/hr 0.00 in0.0 mm
08:34 AM 5.5°F-14.7°C -1.6°F-18.7°C 72% 21.0 mph NNW33.8 kmh NNW 27.0 mph43.5 kmh 30.30 in1026.1 mb 0.00 in0.0 mm 0.00 in/hr0.0 mm/hr 0.00 in0.0 mm
08:35 AM 5.4°F-14.8°C -1.7°F-18.7°C 72% 17.0 mph NW27.4 kmh NW 27.0 mph43.5 kmh 30.30 in1026.1 mb 0.00 in0.0 mm 0.00 in/hr0.0 mm/hr 0.00 in0.0 mm
08:36 AM 5.4°F-14.8°C -1.4°F-18.6°C 73% 21.0 mph NNW33.8 kmh NNW 27.0 mph43.5 kmh 30.30 in1026.1 mb 0.00 in0.0 mm 0.00 in/hr0.0 mm/hr 0.00 in0.0 mm
08:37 AM 5.3°F-14.8°C -1.8°F-18.8°C 72% 20.0 mph NNW32.2 kmh NNW 27.0 mph43.5 kmh 30.30 in1026.1 mb 0.00 in0.0 mm 0.00 in/hr0.0 mm/hr 0.00 in0.0 mm
08:39 AM 5.2°F-14.9°C -1.8°F-18.8°C 72% 20.0 mph NW32.2 kmh NW 27.0 mph43.5 kmh 30.30 in1026.1 mb 0.00 in0.0 mm 0.00 in/hr0.0 mm/hr 0.00 in0.0 mm
08:40 AM 5.2°F-14.9°C -1.6°F-18.7°C 73% 18.0 mph NW29.0 kmh NW 27.0 mph43.5 kmh 30.30 in1026.1 mb 0.00 in0.0 mm 0.00 in/hr0.0 mm/hr 0.00 in0.0 mm
08:41 AM 5.1°F-14.9°C -1.7°F-18.7°C 73% 26.0 mph NW41.8 kmh NW 27.0 mph43.5 kmh 30.30 in1026.1 mb 0.00 in0.0 mm 0.00 in/hr0.0 mm/hr 0.00 in0.0 mm
08:42 AM 5.1°F-14.9°C -1.7°F-18.7°C 73% 19.0 mph NNW30.6 kmh NNW 27.0 mph43.5 kmh 30.30 in1026.1 mb 0.00 in0.0 mm 0.00 in/hr0.0 mm/hr 0.00 in0.0 mm
08:44 AM 5.0°F-15.0°C -1.8°F-18.8°C 73% 17.0 mph NW27.4 kmh NW 27.0 mph43.5 kmh 30.30 in1026.1 mb 0.00 in0.0 mm 0.00 in/hr0.0 mm/hr 0.00 in0.0 mm
08:45 AM 5.0°F-15.0°C -1.8°F-18.8°C 73% 21.0 mph NW33.8 kmh NW 27.0 mph43.5 kmh 30.31 in1026.4 mb 0.00 in0.0 mm 0.00 in/hr0.0 mm/hr 0.00 in0.0 mm
08:46 AM 4.9°F-15.1°C -1.8°F-18.8°C 73% 16.0 mph NNW25.7 kmh NNW 27.0 mph43.5 kmh 30.31 in1026.4 mb 0.00 in0.0 mm 0.00 in/hr0.0 mm/hr 0.00 in0.0 mm
08:47 AM 4.9°F-15.1°C -1.8°F-18.8°C 73% 25.0 mph NNW40.2 kmh NNW 27.0 mph43.5 kmh 30.31 in1026.4 mb 0.00 in0.0 mm 0.00 in/hr0.0 mm/hr 0.00 in0.0 mm
08:48 AM 4.8°F-15.1°C -1.9°F-18.8°C 73% 20.0 mph NNW32.2 kmh NNW 27.0 mph43.5 kmh 30.31 in1026.4 mb 0.00 in0.0 mm 0.00 in/hr0.0 mm/hr 0.00 in0.0 mm
08:49 AM 4.8°F-15.1°C -1.9°F-18.8°C 73% 22.0 mph NNW35.4 kmh NNW 27.0 mph43.5 kmh 30.31 in1026.4 mb 0.00 in0.0 mm 0.00 in/hr0.0 mm/hr 0.00 in0.0 mm
08:50 AM 4.7°F-15.2°C -2.0°F-18.9°C 73% 18.0 mph NNW29.0 kmh NNW 27.0 mph43.5 kmh 30.31 in1026.4 mb 0.00 in0.0 mm 0.00 in/hr0.0 mm/hr 0.00 in0.0 mm
08:51 AM 4.7°F-15.2°C -2.0°F-18.9°C 73% 18.0 mph NW29.0 kmh NW 27.0 mph43.5 kmh 30.31 in1026.4 mb 0.00 in0.0 mm 0.00 in/hr0.0 mm/hr 0.00 in0.0 mm
08:53 AM 4.7°F-15.2°C -2.0°F-18.9°C 73% 22.0 mph NNW35.4 kmh NNW 27.0 mph43.5 kmh 30.31 in1026.4 mb 0.00 in0.0 mm 0.00 in/hr0.0 mm/hr 0.00 in0.0 mm
08:55 AM 4.6°F-15.2°C -2.1°F-18.9°C 73% 22.0 mph NW35.4 kmh NW 27.0 mph43.5 kmh 30.31 in1026.4 mb 0.00 in0.0 mm 0.00 in/hr0.0 mm/hr 0.00 in0.0 mm
08:56 AM 4.5°F-15.3°C -2.2°F-19.0°C 73% 19.0 mph NNW30.6 kmh NNW 27.0 mph43.5 kmh 30.31 in1026.4 mb 0.00 in0.0 mm 0.00 in/hr0.0 mm/hr 0.00 in0.0 mm
08:58 AM 4.5°F-15.3°C -2.2°F-19.0°C 73% 17.0 mph NNW27.4 kmh NNW 27.0 mph43.5 kmh 30.31 in1026.4 mb 0.00 in0.0 mm 0.00 in/hr0.0 mm/hr 0.00 in0.0 mm
09:00 AM 4.4°F-15.3°C -2.3°F-19.1°C 73% 15.0 mph N24.1 kmh N 27.0 mph43.5 kmh 30.31 in1026.4 mb 0.00 in0.0 mm 0.00 in/hr0.0 mm/hr 0.00 in0.0 mm
09:01 AM 4.4°F-15.3°C -2.3°F-19.1°C 73% 18.0 mph NNW29.0 kmh NNW 20.0 mph32.2 kmh 30.32 in1026.8 mb 0.00 in0.0 mm 0.00 in/hr0.0 mm/hr 0.00 in0.0 mm
09:03 AM 4.4°F-15.3°C -2.0°F-18.9°C 74% 23.0 mph N37.0 kmh N 25.0 mph40.2 kmh 30.32 in1026.8 mb 0.00 in0.0 mm 0.00 in/hr0.0 mm/hr 0.00 in0.0 mm
09:04 AM 4.4°F-15.3°C -2.0°F-18.9°C 74% 17.0 mph NNW27.4 kmh NNW 25.0 mph40.2 kmh 30.32 in1026.8 mb 0.00 in0.0 mm 0.00 in/hr0.0 mm/hr 0.00 in0.0 mm
09:05 AM 4.4°F-15.3°C -2.3°F-19.1°C 73% 16.0 mph NNW25.7 kmh NNW 25.0 mph40.2 kmh 30.32 in1026.8 mb 0.00 in0.0 mm 0.00 in/hr0.0 mm/hr 0.00 in0.0 mm
09:06 AM 4.4°F-15.3°C -2.3°F-19.1°C 73% 20.0 mph NW32.2 kmh NW 25.0 mph40.2 kmh 30.32 in1026.8 mb 0.00 in0.0 mm 0.00 in/hr0.0 mm/hr 0.00 in0.0 mm
09:08 AM 4.3°F-15.4°C -2.4°F-19.1°C 73% 15.0 mph NW24.1 kmh NW 25.0 mph40.2 kmh 30.32 in1026.8 mb 0.00 in0.0 mm 0.00 in/hr0.0 mm/hr 0.00 in0.0 mm
09:10 AM 4.3°F-15.4°C -2.1°F-18.9°C 74% 20.0 mph NW32.2 kmh NW 25.0 mph40.2 kmh 30.32 in1026.8 mb 0.00 in0.0 mm 0.00 in/hr0.0 mm/hr 0.00 in0.0 mm
09:12 AM 4.3°F-15.4°C -2.1°F-18.9°C 74% 21.0 mph NNW33.8 kmh NNW 27.0 mph43.5 kmh 30.32 in1026.8 mb 0.00 in0.0 mm 0.00 in/hr0.0 mm/hr 0.00 in0.0 mm
09:13 AM 4.3°F-15.4°C -2.1°F-18.9°C 74% 18.0 mph NW29.0 kmh NW 27.0 mph43.5 kmh 30.32 in1026.8 mb 0.00 in0.0 mm 0.00 in/hr0.0 mm/hr 0.00 in0.0 mm
09:15 AM 4.2°F-15.4°C -2.2°F-19.0°C 74% 17.0 mph NNW27.4 kmh NNW 27.0 mph43.5 kmh 30.32 in1026.8 mb 0.00 in0.0 mm 0.00 in/hr0.0 mm/hr 0.00 in0.0 mm
09:16 AM 4.2°F-15.4°C -2.2°F-19.0°C 74% 26.0 mph NW41.8 kmh NW 27.0 mph43.5 kmh 30.32 in1026.8 mb 0.00 in0.0 mm 0.00 in/hr0.0 mm/hr 0.00 in0.0 mm
09:18 AM 4.2°F-15.4°C -2.5°F-19.2°C 73% 21.0 mph NW33.8 kmh NW 27.0 mph43.5 kmh 30.32 in1026.8 mb 0.00 in0.0 mm 0.00 in/hr0.0 mm/hr 0.00 in0.0 mm
09:19 AM 4.2°F-15.4°C -2.2°F-19.0°C 74% 17.0 mph NW27.4 kmh NW 27.0 mph43.5 kmh 30.32 in1026.8 mb 0.00 in0.0 mm 0.00 in/hr0.0 mm/hr 0.00 in0.0 mm
09:20 AM 4.2°F-15.4°C -2.2°F-19.0°C 74% 20.0 mph NNW32.2 kmh NNW 27.0 mph43.5 kmh 30.32 in1026.8 mb 0.00 in0.0 mm 0.00 in/hr0.0 mm/hr 0.00 in0.0 mm
09:22 AM 4.3°F-15.4°C -2.1°F-18.9°C 74% 21.0 mph NW33.8 kmh NW 27.0 mph43.5 kmh 30.32 in1026.8 mb 0.00 in0.0 mm 0.00 in/hr0.0 mm/hr 0.00 in0.0 mm
09:23 AM 4.4°F-15.3°C -2.0°F-18.9°C 74% 20.0 mph NNW32.2 kmh NNW 27.0 mph43.5 kmh 30.33 in1027.1 mb 0.00 in0.0 mm 0.00 in/hr0.0 mm/hr 0.00 in0.0 mm
09:24 AM 4.4°F-15.3°C -2.0°F-18.9°C 74% 19.0 mph NW30.6 kmh NW 27.0 mph43.5 kmh 30.33 in1027.1 mb 0.00 in0.0 mm 0.00 in/hr0.0 mm/hr 0.00 in0.0 mm
09:26 AM 4.5°F-15.3°C -1.9°F-18.8°C 74% 18.0 mph NW29.0 kmh NW 27.0 mph43.5 kmh 30.33 in1027.1 mb 0.00 in0.0 mm 0.00 in/hr0.0 mm/hr 0.00 in0.0 mm
09:28 AM 4.6°F-15.2°C -2.1°F-18.9°C 73% 21.0 mph NW33.8 kmh NW 27.0 mph43.5 kmh 30.33 in1027.1 mb 0.00 in0.0 mm 0.00 in/hr0.0 mm/hr 0.00 in0.0 mm
09:29 AM 4.6°F-15.2°C -2.1°F-18.9°C 73% 22.0 mph NNW35.4 kmh NNW 27.0 mph43.5 kmh 30.33 in1027.1 mb 0.00 in0.0 mm 0.00 in/hr0.0 mm/hr 0.00 in0.0 mm
09:30 AM 4.6°F-15.2°C -2.1°F-18.9°C 73% 17.0 mph NNW27.4 kmh NNW 27.0 mph43.5 kmh 30.33 in1027.1 mb 0.00 in0.0 mm 0.00 in/hr0.0 mm/hr 0.00 in0.0 mm
09:31 AM 4.6°F-15.2°C -2.1°F-18.9°C 73% 17.0 mph NNW27.4 kmh NNW 22.0 mph35.4 kmh 30.33 in1027.1 mb 0.00 in0.0 mm 0.00 in/hr0.0 mm/hr 0.00 in0.0 mm
09:33 AM 4.7°F-15.2°C -2.0°F-18.9°C 73% 22.0 mph NNW35.4 kmh NNW 24.0 mph38.6 kmh 30.33 in1027.1 mb 0.00 in0.0 mm 0.00 in/hr0.0 mm/hr 0.00 in0.0 mm
09:34 AM 4.7°F-15.2°C -2.0°F-18.9°C 73% 15.0 mph NNW24.1 kmh NNW 24.0 mph38.6 kmh 30.33 in1027.1 mb 0.00 in0.0 mm 0.00 in/hr0.0 mm/hr 0.00 in0.0 mm
09:35 AM 4.7°F-15.2°C -2.0°F-18.9°C 73% 19.0 mph NW30.6 kmh NW 24.0 mph38.6 kmh 30.33 in1027.1 mb 0.00 in0.0 mm 0.00 in/hr0.0 mm/hr 0.00 in0.0 mm
09:36 AM 4.8°F-15.1°C -1.9°F-18.8°C 73% 23.0 mph NNW37.0 kmh NNW 24.0 mph38.6 kmh 30.33 in1027.1 mb 0.00 in0.0 mm 0.00 in/hr0.0 mm/hr 0.00 in0.0 mm
09:37 AM 4.8°F-15.1°C -1.9°F-18.8°C 73% 23.0 mph NNW37.0 kmh NNW 24.0 mph38.6 kmh 30.33 in1027.1 mb 0.00 in0.0 mm 0.00 in/hr0.0 mm/hr 0.00 in0.0 mm
09:38 AM 4.8°F-15.1°C -1.9°F-18.8°C 73% 23.0 mph NNW37.0 kmh NNW 24.0 mph38.6 kmh 30.33 in1027.1 mb 0.00 in0.0 mm 0.00 in/hr0.0 mm/hr 0.00 in0.0 mm
09:40 AM 4.8°F-15.1°C -1.9°F-18.8°C 73% 23.0 mph NNW37.0 kmh NNW 24.0 mph38.6 kmh 30.33 in1027.1 mb 0.00 in0.0 mm 0.00 in/hr0.0 mm/hr 0.00 in0.0 mm
09:42 AM 4.9°F-15.1°C -1.8°F-18.8°C 73% 14.0 mph NNW22.5 kmh NNW 25.0 mph40.2 kmh 30.33 in1027.1 mb 0.00 in0.0 mm 0.00 in/hr0.0 mm/hr 0.00 in0.0 mm
09:44 AM 4.9°F-15.1°C -1.8°F-18.8°C 73% 24.0 mph NNW38.6 kmh NNW 26.0 mph41.8 kmh 30.34 in1027.4 mb 0.00 in0.0 mm 0.00 in/hr0.0 mm/hr 0.00 in0.0 mm
09:45 AM 4.9°F-15.1°C -1.8°F-18.8°C 73% 19.0 mph NNW30.6 kmh NNW 27.0 mph43.5 kmh 30.34 in1027.4 mb 0.00 in0.0 mm 0.00 in/hr0.0 mm/hr 0.00 in0.0 mm
09:47 AM 4.9°F-15.1°C -2.1°F-18.9°C 72% 22.0 mph NNW35.4 kmh NNW 27.0 mph43.5 kmh 30.34 in1027.4 mb 0.00 in0.0 mm 0.00 in/hr0.0 mm/hr 0.00 in0.0 mm
09:49 AM 4.8°F-15.1°C -2.2°F-19.0°C 72% 23.0 mph NW37.0 kmh NW 29.0 mph46.7 kmh 30.34 in1027.4 mb 0.00 in0.0 mm 0.00 in/hr0.0 mm/hr 0.00 in0.0 mm
09:50 AM 4.7°F-15.2°C -2.3°F-19.1°C 72% 27.0 mph NNW43.5 kmh NNW 29.0 mph46.7 kmh 30.34 in1027.4 mb 0.00 in0.0 mm 0.00 in/hr0.0 mm/hr 0.00 in0.0 mm
09:52 AM 4.8°F-15.1°C -2.2°F-19.0°C 72% 20.0 mph NNW32.2 kmh NNW 29.0 mph46.7 kmh 30.34 in1027.4 mb 0.00 in0.0 mm 0.00 in/hr0.0 mm/hr 0.00 in0.0 mm
09:53 AM 4.8°F-15.1°C -1.9°F-18.8°C 73% 23.0 mph NNW37.0 kmh NNW 29.0 mph46.7 kmh 30.34 in1027.4 mb 0.00 in0.0 mm 0.00 in/hr0.0 mm/hr 0.00 in0.0 mm
09:54 AM 4.9°F-15.1°C -2.1°F-18.9°C 72% 20.0 mph NW32.2 kmh NW 29.0 mph46.7 kmh 30.34 in1027.4 mb 0.00 in0.0 mm 0.00 in/hr0.0 mm/hr 0.00 in0.0 mm
09:56 AM 4.9°F-15.1°C -2.1°F-18.9°C 72% 17.0 mph NNW27.4 kmh NNW 29.0 mph46.7 kmh 30.34 in1027.4 mb 0.00 in0.0 mm 0.00 in/hr0.0 mm/hr 0.00 in0.0 mm
09:58 AM 4.9°F-15.1°C -2.1°F-18.9°C 72% 19.0 mph NW30.6 kmh NW 29.0 mph46.7 kmh 30.34 in1027.4 mb 0.00 in0.0 mm 0.00 in/hr0.0 mm/hr 0.00 in0.0 mm
09:59 AM 4.9°F-15.1°C -2.1°F-18.9°C 72% 24.0 mph NW38.6 kmh NW 29.0 mph46.7 kmh 30.34 in1027.4 mb 0.00 in0.0 mm 0.00 in/hr0.0 mm/hr 0.00 in0.0 mm
10:00 AM 5.0°F-15.0°C -2.0°F-18.9°C 72% 17.0 mph NW27.4 kmh NW 29.0 mph46.7 kmh 30.34 in1027.4 mb 0.00 in0.0 mm 0.00 in/hr0.0 mm/hr 0.00 in0.0 mm
10:01 AM 5.0°F-15.0°C -1.8°F-18.8°C 73% 19.0 mph NW30.6 kmh NW 24.0 mph38.6 kmh 30.34 in1027.4 mb 0.00 in0.0 mm 0.00 in/hr0.0 mm/hr 0.00 in0.0 mm
10:03 AM 5.0°F-15.0°C -1.8°F-18.8°C 73% 18.0 mph NNW29.0 kmh NNW 26.0 mph41.8 kmh 30.34 in1027.4 mb 0.00 in0.0 mm 0.00 in/hr0.0 mm/hr 0.00 in0.0 mm
10:04 AM 5.0°F-15.0°C -1.8°F-18.8°C 73% 18.0 mph NNW29.0 kmh NNW 26.0 mph41.8 kmh 30.34 in1027.4 mb 0.00 in0.0 mm 0.00 in/hr0.0 mm/hr 0.00 in0.0 mm
10:05 AM 5.0°F-15.0°C -1.8°F-18.8°C 73% 18.0 mph NNW29.0 kmh NNW 26.0 mph41.8 kmh 30.34 in1027.4 mb 0.00 in0.0 mm 0.00 in/hr0.0 mm/hr 0.00 in0.0 mm
10:06 AM 5.0°F-15.0°C -1.8°F-18.8°C 73% 18.0 mph NNW29.0 kmh NNW 26.0 mph41.8 kmh 30.34 in1027.4 mb 0.00 in0.0 mm 0.00 in/hr0.0 mm/hr 0.00 in0.0 mm
10:07 AM 5.4°F-14.8°C -1.4°F-18.6°C 73% 19.0 mph NNW30.6 kmh NNW 26.0 mph41.8 kmh 30.34 in1027.4 mb 0.00 in0.0 mm 0.00 in/hr0.0 mm/hr 0.00 in0.0 mm
10:09 AM 5.4°F-14.8°C -1.7°F-18.7°C 72% 15.0 mph NNW24.1 kmh NNW 26.0 mph41.8 kmh 30.35 in1027.8 mb 0.00 in0.0 mm 0.00 in/hr0.0 mm/hr 0.00 in0.0 mm
10:10 AM 5.4°F-14.8°C -1.7°F-18.7°C 72% 21.0 mph NW33.8 kmh NW 26.0 mph41.8 kmh 30.34 in1027.4 mb 0.00 in0.0 mm 0.00 in/hr0.0 mm/hr 0.00 in0.0 mm
10:11 AM 5.4°F-14.8°C -1.7°F-18.7°C 72% 21.0 mph NNW33.8 kmh NNW 26.0 mph41.8 kmh 30.35 in1027.8 mb 0.00 in0.0 mm 0.00 in/hr0.0 mm/hr 0.00 in0.0 mm
10:13 AM 5.4°F-14.8°C -1.7°F-18.7°C 72% 21.0 mph NW33.8 kmh NW 26.0 mph41.8 kmh 30.34 in1027.4 mb 0.00 in0.0 mm 0.00 in/hr0.0 mm/hr 0.00 in0.0 mm
10:14 AM 5.5°F-14.7°C -1.6°F-18.7°C 72% 19.0 mph N30.6 kmh N 26.0 mph41.8 kmh 30.35 in1027.8 mb 0.00 in0.0 mm 0.00 in/hr0.0 mm/hr 0.00 in0.0 mm
10:16 AM 5.4°F-14.8°C -1.7°F-18.7°C 72% 18.0 mph NNW29.0 kmh NNW 26.0 mph41.8 kmh 30.35 in1027.8 mb 0.00 in0.0 mm 0.00 in/hr0.0 mm/hr 0.00 in0.0 mm
10:18 AM 5.4°F-14.8°C -1.9°F-18.8°C 71% 17.0 mph NNW27.4 kmh NNW 26.0 mph41.8 kmh 30.35 in1027.8 mb 0.00 in0.0 mm 0.00 in/hr0.0 mm/hr 0.00 in0.0 mm
10:20 AM 5.5°F-14.7°C -1.6°F-18.7°C 72% 23.0 mph NW37.0 kmh NW 26.0 mph41.8 kmh 30.35 in1027.8 mb 0.00 in0.0 mm 0.00 in/hr0.0 mm/hr 0.00 in0.0 mm
10:21 AM 5.5°F-14.7°C -1.6°F-18.7°C 72% 25.0 mph NNW40.2 kmh NNW 29.0 mph46.7 kmh 30.35 in1027.8 mb 0.00 in0.0 mm 0.00 in/hr0.0 mm/hr 0.00 in0.0 mm
10:23 AM 5.6°F-14.7°C -1.5°F-18.6°C 72% 24.0 mph NW38.6 kmh NW 29.0 mph46.7 kmh 30.35 in1027.8 mb 0.00 in0.0 mm 0.00 in/hr0.0 mm/hr 0.00 in0.0 mm
10:24 AM 5.6°F-14.7°C -1.5°F-18.6°C 72% 20.0 mph NW32.2 kmh NW 29.0 mph46.7 kmh 30.35 in1027.8 mb 0.00 in0.0 mm 0.00 in/hr0.0 mm/hr 0.00 in0.0 mm
10:25 AM 5.7°F-14.6°C -1.4°F-18.6°C 72% 26.0 mph NW41.8 kmh NW 29.0 mph46.7 kmh 30.35 in1027.8 mb 0.00 in0.0 mm 0.00 in/hr0.0 mm/hr 0.00 in0.0 mm
10:26 AM 5.7°F-14.6°C -1.4°F-18.6°C 72% 26.0 mph NW41.8 kmh NW 29.0 mph46.7 kmh 30.35 in1027.8 mb 0.00 in0.0 mm 0.00 in/hr0.0 mm/hr 0.00 in0.0 mm
10:27 AM 5.7°F-14.6°C -1.7°F-18.7°C 71% 20.0 mph NW32.2 kmh NW 29.0 mph46.7 kmh 30.35 in1027.8 mb 0.00 in0.0 mm 0.00 in/hr0.0 mm/hr 0.00 in0.0 mm
10:29 AM 5.6°F-14.7°C -1.8°F-18.8°C 71% 21.0 mph NNW33.8 kmh NNW 29.0 mph46.7 kmh 30.35 in1027.8 mb 0.00 in0.0 mm 0.00 in/hr0.0 mm/hr 0.00 in0.0 mm
10:30 AM 5.6°F-14.7°C -1.8°F-18.8°C 71% 25.0 mph NNW40.2 kmh NNW 29.0 mph46.7 kmh 30.35 in1027.8 mb 0.00 in0.0 mm 0.00 in/hr0.0 mm/hr 0.00 in0.0 mm
10:31 AM 5.6°F-14.7°C -1.8°F-18.8°C 71% 18.0 mph N29.0 kmh N 23.0 mph37.0 kmh 30.35 in1027.8 mb 0.00 in0.0 mm 0.00 in/hr0.0 mm/hr 0.00 in0.0 mm
10:34 AM 5.7°F-14.6°C -1.7°F-18.7°C 71% 18.0 mph NNW29.0 kmh NNW 26.0 mph41.8 kmh 30.35 in1027.8 mb 0.00 in0.0 mm 0.00 in/hr0.0 mm/hr 0.00 in0.0 mm
10:36 AM 5.6°F-14.7°C -1.8°F-18.8°C 71% 21.0 mph N33.8 kmh N 26.0 mph41.8 kmh 30.35 in1027.8 mb 0.00 in0.0 mm 0.00 in/hr0.0 mm/hr 0.00 in0.0 mm
10:38 AM 5.6°F-14.7°C -1.8°F-18.8°C 71% 18.0 mph N29.0 kmh N 26.0 mph41.8 kmh 30.36 in1028.1 mb 0.00 in0.0 mm 0.00 in/hr0.0 mm/hr 0.00 in0.0 mm
10:39 AM 5.6°F-14.7°C -1.8°F-18.8°C 71% 22.0 mph NW35.4 kmh NW 26.0 mph41.8 kmh 30.36 in1028.1 mb 0.00 in0.0 mm 0.00 in/hr0.0 mm/hr 0.00 in0.0 mm
10:40 AM 5.6°F-14.7°C -1.8°F-18.8°C 71% 18.0 mph NNW29.0 kmh NNW 26.0 mph41.8 kmh 30.36 in1028.1 mb 0.00 in0.0 mm 0.00 in/hr0.0 mm/hr 0.00 in0.0 mm
10:41 AM 5.7°F-14.6°C -1.7°F-18.7°C 71% 16.0 mph NNW25.7 kmh NNW 26.0 mph41.8 kmh 30.36 in1028.1 mb 0.00 in0.0 mm 0.00 in/hr0.0 mm/hr 0.00 in0.0 mm
10:43 AM 5.8°F-14.6°C -1.6°F-18.7°C 71% 21.0 mph NW33.8 kmh NW 27.0 mph43.5 kmh 30.36 in1028.1 mb 0.00 in0.0 mm 0.00 in/hr0.0 mm/hr 0.00 in0.0 mm
10:44 AM 5.8°F-14.6°C -1.6°F-18.7°C 71% 26.0 mph NNW41.8 kmh NNW 27.0 mph43.5 kmh 30.36 in1028.1 mb 0.00 in0.0 mm 0.00 in/hr0.0 mm/hr 0.00 in0.0 mm
10:46 AM 5.8°F-14.6°C -1.6°F-18.7°C 71% 25.0 mph NNW40.2 kmh NNW 27.0 mph43.5 kmh 30.36 in1028.1 mb 0.00 in0.0 mm 0.00 in/hr0.0 mm/hr 0.00 in0.0 mm
10:47 AM 5.9°F-14.5°C -1.5°F-18.6°C 71% 20.0 mph NNW32.2 kmh NNW 28.0 mph45.1 kmh 30.36 in1028.1 mb 0.00 in0.0 mm 0.00 in/hr0.0 mm/hr 0.00 in0.0 mm
10:49 AM 5.9°F-14.5°C -1.5°F-18.6°C 71% 21.0 mph NW33.8 kmh NW 28.0 mph45.1 kmh 30.36 in1028.1 mb 0.00 in0.0 mm 0.00 in/hr0.0 mm/hr 0.00 in0.0 mm
10:50 AM 5.9°F-14.5°C -1.5°F-18.6°C 71% 22.0 mph NNW35.4 kmh NNW 28.0 mph45.1 kmh 30.36 in1028.1 mb 0.00 in0.0 mm 0.00 in/hr0.0 mm/hr 0.00 in0.0 mm
10:51 AM 6.0°F-14.4°C -1.4°F-18.6°C 71% 24.0 mph NW38.6 kmh NW 28.0 mph45.1 kmh 30.36 in1028.1 mb 0.00 in0.0 mm 0.00 in/hr0.0 mm/hr 0.00 in0.0 mm
10:53 AM 6.1°F-14.4°C -1.3°F-18.5°C 71% 20.0 mph NNW32.2 kmh NNW 28.0 mph45.1 kmh 30.36 in1028.1 mb 0.00 in0.0 mm 0.00 in/hr0.0 mm/hr 0.00 in0.0 mm
10:55 AM 6.2°F-14.3°C -1.2°F-18.4°C 71% 24.0 mph NW38.6 kmh NW 28.0 mph45.1 kmh 30.36 in1028.1 mb 0.00 in0.0 mm 0.00 in/hr0.0 mm/hr 0.00 in0.0 mm
10:56 AM 6.2°F-14.3°C -1.2°F-18.4°C 71% 17.0 mph NNW27.4 kmh NNW 28.0 mph45.1 kmh 30.36 in1028.1 mb 0.00 in0.0 mm 0.00 in/hr0.0 mm/hr 0.00 in0.0 mm
10:58 AM 6.3°F-14.3°C -1.4°F-18.6°C 70% 24.0 mph NNW38.6 kmh NNW 28.0 mph45.1 kmh 30.36 in1028.1 mb 0.00 in0.0 mm 0.00 in/hr0.0 mm/hr 0.00 in0.0 mm
11:00 AM 6.4°F-14.2°C -1.0°F-18.3°C 71% 18.0 mph NNW29.0 kmh NNW 28.0 mph45.1 kmh 30.36 in1028.1 mb 0.00 in0.0 mm 0.00 in/hr0.0 mm/hr 0.00 in0.0 mm
11:01 AM 6.4°F-14.2°C -1.0°F-18.3°C 71% 20.0 mph NW32.2 kmh NW 26.0 mph41.8 kmh 30.36 in1028.1 mb 0.00 in0.0 mm 0.00 in/hr0.0 mm/hr 0.00 in0.0 mm
11:03 AM 6.4°F-14.2°C -1.3°F-18.5°C 70% 22.0 mph NNW35.4 kmh NNW 26.0 mph41.8 kmh 30.36 in1028.1 mb 0.00 in0.0 mm 0.00 in/hr0.0 mm/hr 0.00 in0.0 mm
11:04 AM 6.5°F-14.2°C -1.2°F-18.4°C 70% 14.0 mph NW22.5 kmh NW 26.0 mph41.8 kmh 30.36 in1028.1 mb 0.00 in0.0 mm 0.00 in/hr0.0 mm/hr 0.00 in0.0 mm
11:05 AM 6.7°F-14.1°C -0.7°F-18.2°C 71% 20.0 mph NW32.2 kmh NW 26.0 mph41.8 kmh 30.36 in1028.1 mb 0.00 in0.0 mm 0.00 in/hr0.0 mm/hr 0.00 in0.0 mm
11:06 AM 6.7°F-14.1°C -0.7°F-18.2°C 71% 20.0 mph NNW32.2 kmh NNW 26.0 mph41.8 kmh 30.36 in1028.1 mb 0.00 in0.0 mm 0.00 in/hr0.0 mm/hr 0.00 in0.0 mm
11:07 AM 6.7°F-14.1°C -1.0°F-18.3°C 70% 20.0 mph NW32.2 kmh NW 26.0 mph41.8 kmh 30.36 in1028.1 mb 0.00 in0.0 mm 0.00 in/hr0.0 mm/hr 0.00 in0.0 mm
11:09 AM 6.7°F-14.1°C -1.0°F-18.3°C 70% 20.0 mph NNW32.2 kmh NNW 26.0 mph41.8 kmh 30.36 in1028.1 mb 0.00 in0.0 mm 0.00 in/hr0.0 mm/hr 0.00 in0.0 mm
11:10 AM 6.8°F-14.0°C -0.9°F-18.3°C 70% 22.0 mph NW35.4 kmh NW 26.0 mph41.8 kmh 30.36 in1028.1 mb 0.00 in0.0 mm 0.00 in/hr0.0 mm/hr 0.00 in0.0 mm
11:11 AM 6.8°F-14.0°C -0.9°F-18.3°C 70% 21.0 mph N33.8 kmh N 26.0 mph41.8 kmh 30.36 in1028.1 mb 0.00 in0.0 mm 0.00 in/hr0.0 mm/hr 0.00 in0.0 mm
11:13 AM 6.7°F-14.1°C -1.3°F-18.5°C 69% 21.0 mph NNW33.8 kmh NNW 26.0 mph41.8 kmh 30.36 in1028.1 mb 0.00 in0.0 mm 0.00 in/hr0.0 mm/hr 0.00 in0.0 mm
11:14 AM 6.7°F-14.1°C -1.3°F-18.5°C 69% 20.0 mph NNW32.2 kmh NNW 26.0 mph41.8 kmh 30.36 in1028.1 mb 0.00 in0.0 mm 0.00 in/hr0.0 mm/hr 0.00 in0.0 mm
11:15 AM 6.7°F-14.1°C -1.3°F-18.5°C 69% 22.0 mph NW35.4 kmh NW 26.0 mph41.8 kmh 30.36 in1028.1 mb 0.00 in0.0 mm 0.00 in/hr0.0 mm/hr 0.00 in0.0 mm
11:16 AM 6.7°F-14.1°C -1.3°F-18.5°C 69% 19.0 mph NW30.6 kmh NW 29.0 mph46.7 kmh 30.36 in1028.1 mb 0.00 in0.0 mm 0.00 in/hr0.0 mm/hr 0.00 in0.0 mm
11:17 AM 6.8°F-14.0°C -0.9°F-18.3°C 70% 20.0 mph NNW32.2 kmh NNW 29.0 mph46.7 kmh 30.36 in1028.1 mb 0.00 in0.0 mm 0.00 in/hr0.0 mm/hr 0.00 in0.0 mm
11:18 AM 6.8°F-14.0°C -0.9°F-18.3°C 70% 21.0 mph NW33.8 kmh NW 29.0 mph46.7 kmh 30.36 in1028.1 mb 0.00 in0.0 mm 0.00 in/hr0.0 mm/hr 0.00 in0.0 mm
11:20 AM 6.8°F-14.0°C -1.2°F-18.4°C 69% 19.0 mph NNW30.6 kmh NNW 29.0 mph46.7 kmh 30.36 in1028.1 mb 0.00 in0.0 mm 0.00 in/hr0.0 mm/hr 0.00 in0.0 mm
11:21 AM 6.8°F-14.0°C -1.2°F-18.4°C 69% 17.0 mph NW27.4 kmh NW 29.0 mph46.7 kmh 30.36 in1028.1 mb 0.00 in0.0 mm 0.00 in/hr0.0 mm/hr 0.00 in0.0 mm
11:23 AM 6.8°F-14.0°C -1.2°F-18.4°C 69% 12.0 mph NNW19.3 kmh NNW 29.0 mph46.7 kmh 30.37 in1028.4 mb 0.00 in0.0 mm 0.00 in/hr0.0 mm/hr 0.00 in0.0 mm
11:24 AM 7.0°F-13.9°C -0.7°F-18.2°C 70% 21.0 mph NNW33.8 kmh NNW 29.0 mph46.7 kmh 30.37 in1028.4 mb 0.00 in0.0 mm 0.00 in/hr0.0 mm/hr 0.00 in0.0 mm
11:26 AM 7.2°F-13.8°C -0.8°F-18.2°C 69% 19.0 mph N30.6 kmh N 29.0 mph46.7 kmh 30.37 in1028.4 mb 0.00 in0.0 mm 0.00 in/hr0.0 mm/hr 0.00 in0.0 mm
11:27 AM 7.1°F-13.8°C -0.9°F-18.3°C 69% 16.0 mph NNW25.7 kmh NNW 29.0 mph46.7 kmh 30.37 in1028.4 mb 0.00 in0.0 mm 0.00 in/hr0.0 mm/hr 0.00 in0.0 mm
11:28 AM 7.2°F-13.8°C -0.8°F-18.2°C 69% 25.0 mph NW40.2 kmh NW 29.0 mph46.7 kmh 30.37 in1028.4 mb 0.00 in0.0 mm 0.00 in/hr0.0 mm/hr 0.00 in0.0 mm
11:30 AM 7.3°F-13.7°C -0.7°F-18.2°C 69% 23.0 mph NW37.0 kmh NW 29.0 mph46.7 kmh 30.37 in1028.4 mb 0.00 in0.0 mm 0.00 in/hr0.0 mm/hr 0.00 in0.0 mm
11:31 AM 7.4°F-13.7°C -0.6°F-18.1°C 69% 18.0 mph NNW29.0 kmh NNW 27.0 mph43.5 kmh 30.37 in1028.4 mb 0.00 in0.0 mm 0.00 in/hr0.0 mm/hr 0.00 in0.0 mm
11:33 AM 7.6°F-13.6°C -0.4°F-18.0°C 69% 18.0 mph NNW29.0 kmh NNW 27.0 mph43.5 kmh 30.37 in1028.4 mb 0.00 in0.0 mm 0.00 in/hr0.0 mm/hr 0.00 in0.0 mm
11:34 AM 7.6°F-13.6°C -0.7°F-18.2°C 68% 19.0 mph N30.6 kmh N 27.0 mph43.5 kmh 30.37 in1028.4 mb 0.00 in0.0 mm 0.00 in/hr0.0 mm/hr 0.00 in0.0 mm
11:36 AM 7.7°F-13.5°C -0.6°F-18.1°C 68% 14.0 mph NNW22.5 kmh NNW 27.0 mph43.5 kmh 30.37 in1028.4 mb 0.00 in0.0 mm 0.00 in/hr0.0 mm/hr 0.00 in0.0 mm
11:37 AM 8.0°F-13.3°C 0.3°F-17.6°C 70% 22.0 mph N35.4 kmh N 27.0 mph43.5 kmh 30.37 in1028.4 mb 0.00 in0.0 mm 0.00 in/hr0.0 mm/hr 0.00 in0.0 mm
11:38 AM 8.1°F-13.3°C 0.1°F-17.7°C 69% 24.0 mph NW38.6 kmh NW 27.0 mph43.5 kmh 30.37 in1028.4 mb 0.00 in0.0 mm 0.00 in/hr0.0 mm/hr 0.00 in0.0 mm
11:40 AM 8.1°F-13.3°C -0.3°F-17.9°C 68% 24.0 mph NNW38.6 kmh NNW 27.0 mph43.5 kmh 30.37 in1028.4 mb 0.00 in0.0 mm 0.00 in/hr0.0 mm/hr 0.00 in0.0 mm
11:41 AM 8.1°F-13.3°C -0.3°F-17.9°C 68% 19.0 mph NNW30.6 kmh NNW 27.0 mph43.5 kmh 30.37 in1028.4 mb 0.00 in0.0 mm 0.00 in/hr0.0 mm/hr 0.00 in0.0 mm
11:42 AM 8.2°F-13.2°C -0.5°F-18.1°C 67% 17.0 mph N27.4 kmh N 27.0 mph43.5 kmh 30.37 in1028.4 mb 0.00 in0.0 mm 0.00 in/hr0.0 mm/hr 0.00 in0.0 mm
11:44 AM 8.1°F-13.3°C -0.6°F-18.1°C 67% 19.0 mph NW30.6 kmh NW 27.0 mph43.5 kmh 30.37 in1028.4 mb 0.00 in0.0 mm 0.00 in/hr0.0 mm/hr 0.00 in0.0 mm
11:45 AM 8.0°F-13.3°C -1.0°F-18.3°C 66% 18.0 mph N29.0 kmh N 27.0 mph43.5 kmh 30.37 in1028.4 mb 0.00 in0.0 mm 0.00 in/hr0.0 mm/hr 0.00 in0.0 mm
11:46 AM 7.9°F-13.4°C -1.1°F-18.4°C 66% 17.0 mph NNW27.4 kmh NNW 27.0 mph43.5 kmh 30.37 in1028.4 mb 0.00 in0.0 mm 0.00 in/hr0.0 mm/hr 0.00 in0.0 mm
11:47 AM 8.0°F-13.3°C -0.7°F-18.2°C 67% 19.0 mph NNW30.6 kmh NNW 27.0 mph43.5 kmh 30.37 in1028.4 mb 0.00 in0.0 mm 0.00 in/hr0.0 mm/hr 0.00 in0.0 mm
11:49 AM 8.2°F-13.2°C -0.5°F-18.1°C 67% 19.0 mph NW30.6 kmh NW 27.0 mph43.5 kmh 30.37 in1028.4 mb 0.00 in0.0 mm 0.00 in/hr0.0 mm/hr 0.00 in0.0 mm
11:50 AM 8.4°F-13.1°C 0.0°F-17.8°C 68% 18.0 mph NW29.0 kmh NW 28.0 mph45.1 kmh 30.37 in1028.4 mb 0.00 in0.0 mm 0.00 in/hr0.0 mm/hr 0.00 in0.0 mm
11:51 AM 8.5°F-13.1°C 0.1°F-17.7°C 68% 20.0 mph N32.2 kmh N 28.0 mph45.1 kmh 30.38 in1028.8 mb 0.00 in0.0 mm 0.00 in/hr0.0 mm/hr 0.00 in0.0 mm
11:52 AM 8.6°F-13.0°C -0.1°F-17.8°C 67% 17.0 mph NNW27.4 kmh NNW 28.0 mph45.1 kmh 30.38 in1028.8 mb 0.00 in0.0 mm 0.00 in/hr0.0 mm/hr 0.00 in0.0 mm
11:54 AM 8.6°F-13.0°C -0.1°F-17.8°C 67% 22.0 mph NNW35.4 kmh NNW 28.0 mph45.1 kmh 30.38 in1028.8 mb 0.00 in0.0 mm 0.00 in/hr0.0 mm/hr 0.00 in0.0 mm
11:55 AM 8.7°F-12.9°C 0.0°F-17.8°C 67% 17.0 mph NNW27.4 kmh NNW 28.0 mph45.1 kmh 30.38 in1028.8 mb 0.00 in0.0 mm 0.00 in/hr0.0 mm/hr 0.00 in0.0 mm
11:57 AM 9.0°F-12.8°C 0.3°F-17.6°C 67% 18.0 mph NNW29.0 kmh NNW 28.0 mph45.1 kmh 30.38 in1028.8 mb 0.00 in0.0 mm 0.00 in/hr0.0 mm/hr 0.00 in0.0 mm
11:58 AM 8.9°F-12.8°C -0.1°F-17.8°C 66% 20.0 mph NNW32.2 kmh NNW 28.0 mph45.1 kmh 30.38 in1028.8 mb 0.00 in0.0 mm 0.00 in/hr0.0 mm/hr 0.00 in0.0 mm
12:00 PM 8.8°F-12.9°C -0.6°F-18.1°C 65% 22.0 mph NNW35.4 kmh NNW 28.0 mph45.1 kmh 30.38 in1028.8 mb 0.00 in0.0 mm 0.00 in/hr0.0 mm/hr 0.00 in0.0 mm
12:02 PM 8.6°F-13.0°C -1.1°F-18.4°C 64% 18.0 mph NNW29.0 kmh NNW 24.0 mph38.6 kmh 30.38 in1028.8 mb 0.00 in0.0 mm 0.00 in/hr0.0 mm/hr 0.00 in0.0 mm
12:03 PM 8.6°F-13.0°C -0.7°F-18.2°C 65% 23.0 mph NW37.0 kmh NW 25.0 mph40.2 kmh 30.38 in1028.8 mb 0.00 in0.0 mm 0.00 in/hr0.0 mm/hr 0.00 in0.0 mm
12:04 PM 8.7°F-12.9°C -0.3°F-17.9°C 66% 21.0 mph NW33.8 kmh NW 25.0 mph40.2 kmh 30.38 in1028.8 mb 0.00 in0.0 mm 0.00 in/hr0.0 mm/hr 0.00 in0.0 mm
12:06 PM 9.0°F-12.8°C 0.0°F-17.8°C 66% 20.0 mph NNW32.2 kmh NNW 25.0 mph40.2 kmh 30.38 in1028.8 mb 0.00 in0.0 mm 0.00 in/hr0.0 mm/hr 0.00 in0.0 mm
12:07 PM 9.2°F-12.7°C 0.2°F-17.7°C 66% 19.0 mph NNW30.6 kmh NNW 25.0 mph40.2 kmh 30.38 in1028.8 mb 0.00 in0.0 mm 0.00 in/hr0.0 mm/hr 0.00 in0.0 mm
12:09 PM 9.0°F-12.8°C -0.7°F-18.2°C 64% 13.0 mph N20.9 kmh N 25.0 mph40.2 kmh 30.38 in1028.8 mb 0.00 in0.0 mm 0.00 in/hr0.0 mm/hr 0.00 in0.0 mm
12:10 PM 9.0°F-12.8°C -0.7°F-18.2°C 64% 15.0 mph NNW24.1 kmh NNW 25.0 mph40.2 kmh 30.38 in1028.8 mb 0.00 in0.0 mm 0.00 in/hr0.0 mm/hr 0.00 in0.0 mm
12:11 PM 9.0°F-12.8°C -0.4°F-18.0°C 65% 15.0 mph NNW24.1 kmh NNW 25.0 mph40.2 kmh 30.38 in1028.8 mb 0.00 in0.0 mm 0.00 in/hr0.0 mm/hr 0.00 in0.0 mm
12:12 PM 9.1°F-12.7°C -0.3°F-17.9°C 65% 16.0 mph NNW25.7 kmh NNW 25.0 mph40.2 kmh 30.38 in1028.8 mb 0.00 in0.0 mm 0.00 in/hr0.0 mm/hr 0.00 in0.0 mm
12:14 PM 9.4°F-12.6°C 0.0°F-17.8°C 65% 25.0 mph NW40.2 kmh NW 25.0 mph40.2 kmh 30.38 in1028.8 mb 0.00 in0.0 mm 0.00 in/hr0.0 mm/hr 0.00 in0.0 mm
12:15 PM 9.8°F-12.3°C 0.7°F-17.4°C 66% 22.0 mph NW35.4 kmh NW 25.0 mph40.2 kmh 30.38 in1028.8 mb 0.00 in0.0 mm 0.00 in/hr0.0 mm/hr 0.00 in0.0 mm
12:17 PM 10.0°F-12.2°C 0.9°F-17.3°C 66% 22.0 mph NNW35.4 kmh NNW 25.0 mph40.2 kmh 30.38 in1028.8 mb 0.00 in0.0 mm 0.00 in/hr0.0 mm/hr 0.00 in0.0 mm
12:18 PM 10.0°F-12.2°C 0.3°F-17.6°C 64% 20.0 mph NNW32.2 kmh NNW 25.0 mph40.2 kmh 30.38 in1028.8 mb 0.00 in0.0 mm 0.00 in/hr0.0 mm/hr 0.00 in0.0 mm
12:20 PM 9.9°F-12.3°C 0.2°F-17.7°C 64% 20.0 mph N32.2 kmh N 25.0 mph40.2 kmh 30.38 in1028.8 mb 0.00 in0.0 mm 0.00 in/hr0.0 mm/hr 0.00 in0.0 mm
12:21 PM 9.9°F-12.3°C 0.2°F-17.7°C 64% 17.0 mph NNW27.4 kmh NNW 25.0 mph40.2 kmh 30.38 in1028.8 mb 0.00 in0.0 mm 0.00 in/hr0.0 mm/hr 0.00 in0.0 mm
12:22 PM 9.9°F-12.3°C 0.2°F-17.7°C 64% 23.0 mph NW37.0 kmh NW 25.0 mph40.2 kmh 30.39 in1029.1 mb 0.00 in0.0 mm 0.00 in/hr0.0 mm/hr 0.00 in0.0 mm
12:23 PM 9.9°F-12.3°C 0.2°F-17.7°C 64% 20.0 mph NW32.2 kmh NW 25.0 mph40.2 kmh 30.39 in1029.1 mb 0.00 in0.0 mm 0.00 in/hr0.0 mm/hr 0.00 in0.0 mm
12:24 PM 9.9°F-12.3°C 0.2°F-17.7°C 64% 16.0 mph N25.7 kmh N 25.0 mph40.2 kmh 30.39 in1029.1 mb 0.00 in0.0 mm 0.00 in/hr0.0 mm/hr 0.00 in0.0 mm
12:25 PM 9.9°F-12.3°C 0.2°F-17.7°C 64% 20.0 mph N32.2 kmh N 25.0 mph40.2 kmh 30.39 in1029.1 mb 0.00 in0.0 mm 0.00 in/hr0.0 mm/hr 0.00 in0.0 mm
12:27 PM 9.9°F-12.3°C -0.5°F-18.1°C 62% 23.0 mph NNW37.0 kmh NNW 25.0 mph40.2 kmh 30.39 in1029.1 mb 0.00 in0.0 mm 0.00 in/hr0.0 mm/hr 0.00 in0.0 mm
12:28 PM 9.8°F-12.3°C -0.6°F-18.1°C 62% 21.0 mph NNW33.8 kmh NNW 25.0 mph40.2 kmh 30.39 in1029.1 mb 0.00 in0.0 mm 0.00 in/hr0.0 mm/hr 0.00 in0.0 mm
12:29 PM 9.7°F-12.4°C -0.7°F-18.2°C 62% 23.0 mph N37.0 kmh N 25.0 mph40.2 kmh 30.38 in1028.8 mb 0.00 in0.0 mm 0.00 in/hr0.0 mm/hr 0.00 in0.0 mm
12:30 PM 9.7°F-12.4°C -0.7°F-18.2°C 62% 19.0 mph NNW30.6 kmh NNW 25.0 mph40.2 kmh 30.39 in1029.1 mb 0.00 in0.0 mm 0.00 in/hr0.0 mm/hr 0.00 in0.0 mm
12:32 PM 9.9°F-12.3°C -0.2°F-17.9°C 63% 21.0 mph N33.8 kmh N 22.0 mph35.4 kmh 30.39 in1029.1 mb 0.00 in0.0 mm 0.00 in/hr0.0 mm/hr 0.00 in0.0 mm
12:34 PM 10.1°F-12.2°C 0.0°F-17.8°C 63% 13.0 mph N20.9 kmh N 22.0 mph35.4 kmh 30.39 in1029.1 mb 0.00 in0.0 mm 0.00 in/hr0.0 mm/hr 0.00 in0.0 mm
12:35 PM 10.1°F-12.2°C 0.0°F-17.8°C 63% 17.0 mph NNW27.4 kmh NNW 26.0 mph41.8 kmh 30.39 in1029.1 mb 0.00 in0.0 mm 0.00 in/hr0.0 mm/hr 0.00 in0.0 mm
12:37 PM 10.3°F-12.1°C -0.1°F-17.8°C 62% 16.0 mph N25.7 kmh N 26.0 mph41.8 kmh 30.39 in1029.1 mb 0.00 in0.0 mm 0.00 in/hr0.0 mm/hr 0.00 in0.0 mm
12:38 PM 10.4°F-12.0°C 0.0°F-17.8°C 62% 19.0 mph N30.6 kmh N 26.0 mph41.8 kmh 30.39 in1029.1 mb 0.00 in0.0 mm 0.00 in/hr0.0 mm/hr 0.00 in0.0 mm
12:39 PM 10.4°F-12.0°C 0.0°F-17.8°C 62% 15.0 mph N24.1 kmh N 26.0 mph41.8 kmh 30.39 in1029.1 mb 0.00 in0.0 mm 0.00 in/hr0.0 mm/hr 0.00 in0.0 mm
12:40 PM 10.4°F-12.0°C 0.0°F-17.8°C 62% 15.0 mph N24.1 kmh N 26.0 mph41.8 kmh 30.38 in1028.8 mb 0.00 in0.0 mm 0.00 in/hr0.0 mm/hr 0.00 in0.0 mm
12:41 PM 10.6°F-11.9°C 0.2°F-17.7°C 62% 26.0 mph NNW41.8 kmh NNW 26.0 mph41.8 kmh 30.39 in1029.1 mb 0.00 in0.0 mm 0.00 in/hr0.0 mm/hr 0.00 in0.0 mm
12:43 PM 10.6°F-11.9°C 0.2°F-17.7°C 62% 18.0 mph N29.0 kmh N 26.0 mph41.8 kmh 30.39 in1029.1 mb 0.00 in0.0 mm 0.00 in/hr0.0 mm/hr 0.00 in0.0 mm
12:44 PM 10.6°F-11.9°C -0.2°F-17.9°C 61% 19.0 mph N30.6 kmh N 26.0 mph41.8 kmh 30.39 in1029.1 mb 0.00 in0.0 mm 0.00 in/hr0.0 mm/hr 0.00 in0.0 mm
12:46 PM 10.5°F-11.9°C -0.3°F-17.9°C 61% 15.0 mph N24.1 kmh N 26.0 mph41.8 kmh 30.39 in1029.1 mb 0.00 in0.0 mm 0.00 in/hr0.0 mm/hr 0.00 in0.0 mm
12:47 PM 10.4°F-12.0°C -0.4°F-18.0°C 61% 25.0 mph NW40.2 kmh NW 26.0 mph41.8 kmh 30.39 in1029.1 mb 0.00 in0.0 mm 0.00 in/hr0.0 mm/hr 0.00 in0.0 mm
12:48 PM 10.4°F-12.0°C -0.4°F-18.0°C 61% 23.0 mph NNW37.0 kmh NNW 29.0 mph46.7 kmh 30.39 in1029.1 mb 0.00 in0.0 mm 0.00 in/hr0.0 mm/hr 0.00 in0.0 mm
12:50 PM 10.3°F-12.1°C -0.5°F-18.1°C 61% 16.0 mph N25.7 kmh N 29.0 mph46.7 kmh 30.39 in1029.1 mb 0.00 in0.0 mm 0.00 in/hr0.0 mm/hr 0.00 in0.0 mm
12:52 PM 10.5°F-11.9°C -0.3°F-17.9°C 61% 18.0 mph N29.0 kmh N 29.0 mph46.7 kmh 30.39 in1029.1 mb 0.00 in0.0 mm 0.00 in/hr0.0 mm/hr 0.00 in0.0 mm
12:53 PM 10.5°F-11.9°C -0.3°F-17.9°C 61% 18.0 mph N29.0 kmh N 29.0 mph46.7 kmh 30.39 in1029.1 mb 0.00 in0.0 mm 0.00 in/hr0.0 mm/hr 0.00 in0.0 mm
12:55 PM 10.7°F-11.8°C -0.1°F-17.8°C 61% 14.0 mph NNW22.5 kmh NNW 29.0 mph46.7 kmh 30.39 in1029.1 mb 0.00 in0.0 mm 0.00 in/hr0.0 mm/hr 0.00 in0.0 mm
12:57 PM 10.7°F-11.8°C -0.1°F-17.8°C 61% 17.0 mph N27.4 kmh N 29.0 mph46.7 kmh 30.39 in1029.1 mb 0.00 in0.0 mm 0.00 in/hr0.0 mm/hr 0.00 in0.0 mm
12:58 PM 10.6°F-11.9°C -0.2°F-17.9°C 61% 22.0 mph NNW35.4 kmh NNW 29.0 mph46.7 kmh 30.39 in1029.1 mb 0.00 in0.0 mm 0.00 in/hr0.0 mm/hr 0.00 in0.0 mm
01:00 PM 10.6°F-11.9°C -0.2°F-17.9°C 61% 14.0 mph NNW22.5 kmh NNW 29.0 mph46.7 kmh 30.39 in1029.1 mb 0.00 in0.0 mm 0.00 in/hr0.0 mm/hr 0.00 in0.0 mm
01:01 PM 10.5°F-11.9°C -0.6°F-18.1°C 60% 12.0 mph NW19.3 kmh NW 18.0 mph29.0 kmh 30.39 in1029.1 mb 0.00 in0.0 mm 0.00 in/hr0.0 mm/hr 0.00 in0.0 mm
01:02 PM 10.6°F-11.9°C -0.2°F-17.9°C 61% 20.0 mph NNW32.2 kmh NNW 23.0 mph37.0 kmh 30.39 in1029.1 mb 0.00 in0.0 mm 0.00 in/hr0.0 mm/hr 0.00 in0.0 mm
01:04 PM 10.7°F-11.8°C -0.1°F-17.8°C 61% 18.0 mph NW29.0 kmh NW 24.0 mph38.6 kmh 30.39 in1029.1 mb 0.00 in0.0 mm 0.00 in/hr0.0 mm/hr 0.00 in0.0 mm
01:06 PM 10.7°F-11.8°C -0.1°F-17.8°C 61% 16.0 mph N25.7 kmh N 26.0 mph41.8 kmh 30.39 in1029.1 mb 0.00 in0.0 mm 0.00 in/hr0.0 mm/hr 0.00 in0.0 mm
01:07 PM 10.8°F-11.8°C 0.0°F-17.8°C 61% 13.0 mph N20.9 kmh N 26.0 mph41.8 kmh 30.39 in1029.1 mb 0.00 in0.0 mm 0.00 in/hr0.0 mm/hr 0.00 in0.0 mm
01:08 PM 11.3°F-11.5°C 0.8°F-17.3°C 62% 15.0 mph NNW24.1 kmh NNW 26.0 mph41.8 kmh 30.39 in1029.1 mb 0.00 in0.0 mm 0.00 in/hr0.0 mm/hr 0.00 in0.0 mm
01:10 PM 11.6°F-11.3°C 1.1°F-17.2°C 62% 17.0 mph NW27.4 kmh NW 26.0 mph41.8 kmh 30.39 in1029.1 mb 0.00 in0.0 mm 0.00 in/hr0.0 mm/hr 0.00 in0.0 mm
01:12 PM 12.0°F-11.1°C 1.2°F-17.1°C 61% 20.0 mph NW32.2 kmh NW 26.0 mph41.8 kmh 30.39 in1029.1 mb 0.00 in0.0 mm 0.00 in/hr0.0 mm/hr 0.00 in0.0 mm
01:13 PM 12.1°F-11.1°C 1.2°F-17.1°C 61% 14.0 mph NNW22.5 kmh NNW 26.0 mph41.8 kmh 30.39 in1029.1 mb 0.00 in0.0 mm 0.00 in/hr0.0 mm/hr 0.00 in0.0 mm
01:14 PM 12.0°F-11.1°C 0.4°F-17.6°C 59% 17.0 mph NW27.4 kmh NW 26.0 mph41.8 kmh 30.39 in1029.1 mb 0.00 in0.0 mm 0.00 in/hr0.0 mm/hr 0.00 in0.0 mm
01:16 PM 11.9°F-11.2°C 0.3°F-17.6°C 59% 21.0 mph NW33.8 kmh NW 26.0 mph41.8 kmh 30.39 in1029.1 mb 0.00 in0.0 mm 0.00 in/hr0.0 mm/hr 0.00 in0.0 mm
01:17 PM 12.0°F-11.1°C 0.8°F-17.3°C 60% 20.0 mph N32.2 kmh N 26.0 mph41.8 kmh 30.39 in1029.1 mb 0.00 in0.0 mm 0.00 in/hr0.0 mm/hr 0.00 in0.0 mm
01:18 PM 12.1°F-11.1°C 0.9°F-17.3°C 60% 22.0 mph N35.4 kmh N 26.0 mph41.8 kmh 30.39 in1029.1 mb 0.00 in0.0 mm 0.00 in/hr0.0 mm/hr 0.00 in0.0 mm
01:19 PM 12.0°F-11.1°C 0.4°F-17.6°C 59% 17.0 mph NNW27.4 kmh NNW 26.0 mph41.8 kmh 30.39 in1029.1 mb 0.00 in0.0 mm 0.00 in/hr0.0 mm/hr 0.00 in0.0 mm
01:20 PM 11.9°F-11.2°C 0.3°F-17.6°C 59% 21.0 mph N33.8 kmh N 26.0 mph41.8 kmh 30.39 in1029.1 mb 0.00 in0.0 mm 0.00 in/hr0.0 mm/hr 0.00 in0.0 mm
01:22 PM 12.0°F-11.1°C 0.4°F-17.6°C 59% 22.0 mph NNW35.4 kmh NNW 26.0 mph41.8 kmh 30.39 in1029.1 mb 0.00 in0.0 mm 0.00 in/hr0.0 mm/hr 0.00 in0.0 mm
01:23 PM 11.9°F-11.2°C 0.0°F-17.8°C 58% 19.0 mph N30.6 kmh N 26.0 mph41.8 kmh 30.39 in1029.1 mb 0.00 in0.0 mm 0.00 in/hr0.0 mm/hr 0.00 in0.0 mm
01:25 PM 11.9°F-11.2°C 0.0°F-17.8°C 58% 14.0 mph NNW22.5 kmh NNW 26.0 mph41.8 kmh 30.39 in1029.1 mb 0.00 in0.0 mm 0.00 in/hr0.0 mm/hr 0.00 in0.0 mm
01:26 PM 11.9°F-11.2°C 0.3°F-17.6°C 59% 20.0 mph NNW32.2 kmh NNW 26.0 mph41.8 kmh 30.39 in1029.1 mb 0.00 in0.0 mm 0.00 in/hr0.0 mm/hr 0.00 in0.0 mm
01:28 PM 12.0°F-11.1°C 0.4°F-17.6°C 59% 20.0 mph N32.2 kmh N 26.0 mph41.8 kmh 30.39 in1029.1 mb 0.00 in0.0 mm 0.00 in/hr0.0 mm/hr 0.00 in0.0 mm
01:29 PM 12.0°F-11.1°C 0.4°F-17.6°C 59% 17.0 mph N27.4 kmh N 26.0 mph41.8 kmh 30.39 in1029.1 mb 0.00 in0.0 mm 0.00 in/hr0.0 mm/hr 0.00 in0.0 mm
01:30 PM 12.1°F-11.1°C 0.5°F-17.5°C 59% 19.0 mph N30.6 kmh N 26.0 mph41.8 kmh 30.39 in1029.1 mb 0.00 in0.0 mm 0.00 in/hr0.0 mm/hr 0.00 in0.0 mm
01:31 PM 12.1°F-11.1°C 0.5°F-17.5°C 59% 22.0 mph NNW35.4 kmh NNW 24.0 mph38.6 kmh 30.39 in1029.1 mb 0.00 in0.0 mm 0.00 in/hr0.0 mm/hr 0.00 in0.0 mm
01:32 PM 12.2°F-11.0°C 0.6°F-17.4°C 59% 21.0 mph N33.8 kmh N 24.0 mph38.6 kmh 30.39 in1029.1 mb 0.00 in0.0 mm 0.00 in/hr0.0 mm/hr 0.00 in0.0 mm
01:34 PM 12.1°F-11.1°C 0.2°F-17.7°C 58% 16.0 mph NNW25.7 kmh NNW 24.0 mph38.6 kmh 30.38 in1028.8 mb 0.00 in0.0 mm 0.00 in/hr0.0 mm/hr 0.00 in0.0 mm
01:35 PM 12.1°F-11.1°C 0.2°F-17.7°C 58% 19.0 mph NNW30.6 kmh NNW 24.0 mph38.6 kmh 30.39 in1029.1 mb 0.00 in0.0 mm 0.00 in/hr0.0 mm/hr 0.00 in0.0 mm
01:37 PM 12.1°F-11.1°C 0.2°F-17.7°C 58% 16.0 mph NNW25.7 kmh NNW 27.0 mph43.5 kmh 30.39 in1029.1 mb 0.00 in0.0 mm 0.00 in/hr0.0 mm/hr 0.00 in0.0 mm
01:38 PM 12.1°F-11.1°C 0.2°F-17.7°C 58% 19.0 mph N30.6 kmh N 27.0 mph43.5 kmh 30.38 in1028.8 mb 0.00 in0.0 mm 0.00 in/hr0.0 mm/hr 0.00 in0.0 mm
01:40 PM 12.1°F-11.1°C 0.2°F-17.7°C 58% 22.0 mph NNW35.4 kmh NNW 27.0 mph43.5 kmh 30.39 in1029.1 mb 0.00 in0.0 mm 0.00 in/hr0.0 mm/hr 0.00 in0.0 mm
01:41 PM 12.1°F-11.1°C 0.5°F-17.5°C 59% 15.0 mph NW24.1 kmh NW 27.0 mph43.5 kmh 30.38 in1028.8 mb 0.00 in0.0 mm 0.00 in/hr0.0 mm/hr 0.00 in0.0 mm
01:42 PM 12.2°F-11.0°C 0.6°F-17.4°C 59% 19.0 mph N30.6 kmh N 27.0 mph43.5 kmh 30.38 in1028.8 mb 0.00 in0.0 mm 0.00 in/hr0.0 mm/hr 0.00 in0.0 mm
01:44 PM 12.2°F-11.0°C 0.6°F-17.4°C 59% 13.0 mph N20.9 kmh N 27.0 mph43.5 kmh 30.38 in1028.8 mb 0.00 in0.0 mm 0.00 in/hr0.0 mm/hr 0.00 in0.0 mm
01:46 PM 12.4°F-10.9°C 0.8°F-17.3°C 59% 19.0 mph N30.6 kmh N 27.0 mph43.5 kmh 30.38 in1028.8 mb 0.00 in0.0 mm 0.00 in/hr0.0 mm/hr 0.00 in0.0 mm
01:47 PM 12.4°F-10.9°C 0.8°F-17.3°C 59% 20.0 mph N32.2 kmh N 27.0 mph43.5 kmh 30.38 in1028.8 mb 0.00 in0.0 mm 0.00 in/hr0.0 mm/hr 0.00 in0.0 mm
01:48 PM 12.4°F-10.9°C 0.8°F-17.3°C 59% 17.0 mph N27.4 kmh N 27.0 mph43.5 kmh 30.38 in1028.8 mb 0.00 in0.0 mm 0.00 in/hr0.0 mm/hr 0.00 in0.0 mm
01:50 PM 12.5°F-10.8°C 0.9°F-17.3°C 59% 20.0 mph N32.2 kmh N 27.0 mph43.5 kmh 30.38 in1028.8 mb 0.00 in0.0 mm 0.00 in/hr0.0 mm/hr 0.00 in0.0 mm
01:52 PM 13.0°F-10.6°C 2.1°F-16.6°C 61% 21.0 mph N33.8 kmh N 27.0 mph43.5 kmh 30.38 in1028.8 mb 0.00 in0.0 mm 0.00 in/hr0.0 mm/hr 0.00 in0.0 mm
01:53 PM 13.2°F-10.4°C 1.9°F-16.7°C 60% 17.0 mph N27.4 kmh N 27.0 mph43.5 kmh 30.38 in1028.8 mb 0.00 in0.0 mm 0.00 in/hr0.0 mm/hr 0.00 in0.0 mm
01:55 PM 13.0°F-10.6°C 0.6°F-17.4°C 57% 19.0 mph N30.6 kmh N 27.0 mph43.5 kmh 30.38 in1028.8 mb 0.00 in0.0 mm 0.00 in/hr0.0 mm/hr 0.00 in0.0 mm
01:56 PM 13.0°F-10.6°C 1.0°F-17.2°C 58% 15.0 mph N24.1 kmh N 27.0 mph43.5 kmh 30.38 in1028.8 mb 0.00 in0.0 mm 0.00 in/hr0.0 mm/hr 0.00 in0.0 mm
01:58 PM 12.8°F-10.7°C 0.5°F-17.5°C 57% 22.0 mph N35.4 kmh N 27.0 mph43.5 kmh 30.38 in1028.8 mb 0.00 in0.0 mm 0.00 in/hr0.0 mm/hr 0.00 in0.0 mm
02:00 PM 12.7°F-10.7°C 0.4°F-17.6°C 57% 13.0 mph NNW20.9 kmh NNW 27.0 mph43.5 kmh 30.38 in1028.8 mb 0.00 in0.0 mm 0.00 in/hr0.0 mm/hr 0.00 in0.0 mm
02:01 PM 12.7°F-10.7°C 0.4°F-17.6°C 57% 16.0 mph N25.7 kmh N 21.0 mph33.8 kmh 30.38 in1028.8 mb 0.00 in0.0 mm 0.00 in/hr0.0 mm/hr 0.00 in0.0 mm
02:02 PM 12.7°F-10.7°C 0.4°F-17.6°C 57% 17.0 mph NW27.4 kmh NW 27.0 mph43.5 kmh 30.38 in1028.8 mb 0.00 in0.0 mm 0.00 in/hr0.0 mm/hr 0.00 in0.0 mm
02:04 PM 12.7°F-10.7°C 0.4°F-17.6°C 57% 15.0 mph NW24.1 kmh NW 27.0 mph43.5 kmh 30.38 in1028.8 mb 0.00 in0.0 mm 0.00 in/hr0.0 mm/hr 0.00 in0.0 mm
02:06 PM 13.2°F-10.4°C 1.6°F-16.9°C 59% 18.0 mph N29.0 kmh N 27.0 mph43.5 kmh 30.38 in1028.8 mb 0.00 in0.0 mm 0.00 in/hr0.0 mm/hr 0.00 in0.0 mm
02:07 PM 13.2°F-10.4°C 0.8°F-17.3°C 57% 19.0 mph NNW30.6 kmh NNW 27.0 mph43.5 kmh 30.38 in1028.8 mb 0.00 in0.0 mm 0.00 in/hr0.0 mm/hr 0.00 in0.0 mm
02:09 PM 13.1°F-10.5°C 0.7°F-17.4°C 57% 15.0 mph NNW24.1 kmh NNW 27.0 mph43.5 kmh 30.38 in1028.8 mb 0.00 in0.0 mm 0.00 in/hr0.0 mm/hr 0.00 in0.0 mm
02:10 PM 13.0°F-10.6°C 0.3°F-17.6°C 56% 20.0 mph N32.2 kmh N 27.0 mph43.5 kmh 30.38 in1028.8 mb 0.00 in0.0 mm 0.00 in/hr0.0 mm/hr 0.00 in0.0 mm
02:12 PM 13.1°F-10.5°C 1.1°F-17.2°C 58% 23.0 mph N37.0 kmh N 29.0 mph46.7 kmh 30.39 in1029.1 mb 0.00 in0.0 mm 0.00 in/hr0.0 mm/hr 0.00 in0.0 mm
02:14 PM 13.0°F-10.6°C 0.6°F-17.4°C 57% 17.0 mph NW27.4 kmh NW 29.0 mph46.7 kmh 30.39 in1029.1 mb 0.00 in0.0 mm 0.00 in/hr0.0 mm/hr 0.00 in0.0 mm
02:15 PM 12.8°F-10.7°C 0.5°F-17.5°C 57% 15.0 mph N24.1 kmh N 29.0 mph46.7 kmh 30.39 in1029.1 mb 0.00 in0.0 mm 0.00 in/hr0.0 mm/hr 0.00 in0.0 mm
02:17 PM 12.9°F-10.6°C 0.9°F-17.3°C 58% 24.0 mph N38.6 kmh N 29.0 mph46.7 kmh 30.38 in1028.8 mb 0.00 in0.0 mm 0.00 in/hr0.0 mm/hr 0.00 in0.0 mm
02:18 PM 13.1°F-10.5°C 1.1°F-17.2°C 58% 24.0 mph N38.6 kmh N 29.0 mph46.7 kmh 30.38 in1028.8 mb 0.00 in0.0 mm 0.00 in/hr0.0 mm/hr 0.00 in0.0 mm
02:20 PM 13.2°F-10.4°C 1.2°F-17.1°C 58% 16.0 mph N25.7 kmh N 29.0 mph46.7 kmh 30.38 in1028.8 mb 0.00 in0.0 mm 0.00 in/hr0.0 mm/hr 0.00 in0.0 mm
02:21 PM 13.3°F-10.4°C 1.3°F-17.1°C 58% 20.0 mph N32.2 kmh N 29.0 mph46.7 kmh 30.38 in1028.8 mb 0.00 in0.0 mm 0.00 in/hr0.0 mm/hr 0.00 in0.0 mm
02:22 PM 13.4°F-10.3°C 1.4°F-17.0°C 58% 23.0 mph NNW37.0 kmh NNW 29.0 mph46.7 kmh 30.38 in1028.8 mb 0.00 in0.0 mm 0.00 in/hr0.0 mm/hr 0.00 in0.0 mm
02:24 PM 13.5°F-10.3°C 1.1°F-17.2°C 57% 20.0 mph N32.2 kmh N 29.0 mph46.7 kmh 30.38 in1028.8 mb 0.00 in0.0 mm 0.00 in/hr0.0 mm/hr 0.00 in0.0 mm
02:25 PM 13.5°F-10.3°C 1.1°F-17.2°C 57% 21.0 mph N33.8 kmh N 29.0 mph46.7 kmh 30.38 in1028.8 mb 0.00 in0.0 mm 0.00 in/hr0.0 mm/hr 0.00 in0.0 mm
02:26 PM 13.5°F-10.3°C 1.1°F-17.2°C 57% 19.0 mph NNW30.6 kmh NNW 29.0 mph46.7 kmh 30.38 in1028.8 mb 0.00 in0.0 mm 0.00 in/hr0.0 mm/hr 0.00 in0.0 mm
02:27 PM 13.5°F-10.3°C 1.1°F-17.2°C 57% 20.0 mph NNW32.2 kmh NNW 29.0 mph46.7 kmh 30.38 in1028.8 mb 0.00 in0.0 mm 0.00 in/hr0.0 mm/hr 0.00 in0.0 mm
02:28 PM 13.8°F-10.1°C 1.8°F-16.8°C 58% 18.0 mph N29.0 kmh N 29.0 mph46.7 kmh 30.39 in1029.1 mb 0.00 in0.0 mm 0.00 in/hr0.0 mm/hr 0.00 in0.0 mm
02:30 PM 14.0°F-10.0°C 2.0°F-16.7°C 58% 15.0 mph NNW24.1 kmh NNW 29.0 mph46.7 kmh 30.39 in1029.1 mb 0.00 in0.0 mm 0.00 in/hr0.0 mm/hr 0.00 in0.0 mm
02:32 PM 14.1°F-9.9°C 1.7°F-16.8°C 57% 21.0 mph NNW33.8 kmh NNW 21.0 mph33.8 kmh 30.38 in1028.8 mb 0.00 in0.0 mm 0.00 in/hr0.0 mm/hr 0.00 in0.0 mm
02:33 PM 14.1°F-9.9°C 1.7°F-16.8°C 57% 22.0 mph NNW35.4 kmh NNW 25.0 mph40.2 kmh 30.38 in1028.8 mb 0.00 in0.0 mm 0.00 in/hr0.0 mm/hr 0.00 in0.0 mm
02:35 PM 14.0°F-10.0°C 1.2°F-17.1°C 56% 17.0 mph NW27.4 kmh NW 26.0 mph41.8 kmh 30.38 in1028.8 mb 0.00 in0.0 mm 0.00 in/hr0.0 mm/hr 0.00 in0.0 mm
02:36 PM 14.0°F-10.0°C 1.2°F-17.1°C 56% 24.0 mph NW38.6 kmh NW 26.0 mph41.8 kmh 30.38 in1028.8 mb 0.00 in0.0 mm 0.00 in/hr0.0 mm/hr 0.00 in0.0 mm
02:38 PM 14.0°F-10.0°C 1.2°F-17.1°C 56% 18.0 mph NNW29.0 kmh NNW 27.0 mph43.5 kmh 30.38 in1028.8 mb 0.00 in0.0 mm 0.00 in/hr0.0 mm/hr 0.00 in0.0 mm
02:39 PM 14.0°F-10.0°C 1.2°F-17.1°C 56% 25.0 mph NNW40.2 kmh NNW 27.0 mph43.5 kmh 30.38 in1028.8 mb 0.00 in0.0 mm 0.00 in/hr0.0 mm/hr 0.00 in0.0 mm
02:40 PM 14.1°F-9.9°C 1.3°F-17.1°C 56% 20.0 mph NW32.2 kmh NW 27.0 mph43.5 kmh 30.38 in1028.8 mb 0.00 in0.0 mm 0.00 in/hr0.0 mm/hr 0.00 in0.0 mm
02:42 PM 14.1°F-9.9°C 1.3°F-17.1°C 56% 14.0 mph NNW22.5 kmh NNW 27.0 mph43.5 kmh 30.39 in1029.1 mb 0.00 in0.0 mm 0.00 in/hr0.0 mm/hr 0.00 in0.0 mm
02:44 PM 14.0°F-10.0°C 1.2°F-17.1°C 56% 15.0 mph NNW24.1 kmh NNW 27.0 mph43.5 kmh 30.39 in1029.1 mb 0.00 in0.0 mm 0.00 in/hr0.0 mm/hr 0.00 in0.0 mm
02:46 PM 14.1°F-9.9°C 1.3°F-17.1°C 56% 17.0 mph N27.4 kmh N 27.0 mph43.5 kmh 30.39 in1029.1 mb 0.00 in0.0 mm 0.00 in/hr0.0 mm/hr 0.00 in0.0 mm
02:48 PM 14.3°F-9.8°C 1.5°F-16.9°C 56% 17.0 mph N27.4 kmh N 27.0 mph43.5 kmh 30.39 in1029.1 mb 0.00 in0.0 mm 0.00 in/hr0.0 mm/hr 0.00 in0.0 mm
02:49 PM 14.4°F-9.8°C 2.0°F-16.7°C 57% 18.0 mph NW29.0 kmh NW 27.0 mph43.5 kmh 30.39 in1029.1 mb 0.00 in0.0 mm 0.00 in/hr0.0 mm/hr 0.00 in0.0 mm
02:50 PM 14.6°F-9.7°C 2.2°F-16.6°C 57% 16.0 mph NNW25.7 kmh NNW 27.0 mph43.5 kmh 30.39 in1029.1 mb 0.00 in0.0 mm 0.00 in/hr0.0 mm/hr 0.00 in0.0 mm
02:51 PM 14.6°F-9.7°C 1.8°F-16.8°C 56% 19.0 mph N30.6 kmh N 27.0 mph43.5 kmh 30.38 in1028.8 mb 0.00 in0.0 mm 0.00 in/hr0.0 mm/hr 0.00 in0.0 mm
02:52 PM 14.6°F-9.7°C 1.8°F-16.8°C 56% 17.0 mph N27.4 kmh N 27.0 mph43.5 kmh 30.39 in1029.1 mb 0.00 in0.0 mm 0.00 in/hr0.0 mm/hr 0.00 in0.0 mm
02:54 PM 14.8°F-9.6°C 2.3°F-16.5°C 57% 20.0 mph NNE32.2 kmh NNE 27.0 mph43.5 kmh 30.39 in1029.1 mb 0.00 in0.0 mm 0.00 in/hr0.0 mm/hr 0.00 in0.0 mm
02:55 PM 14.9°F-9.5°C 2.4°F-16.4°C 57% 23.0 mph NNE37.0 kmh NNE 27.0 mph43.5 kmh 30.39 in1029.1 mb 0.00 in0.0 mm 0.00 in/hr0.0 mm/hr 0.00 in0.0 mm
02:57 PM 15.2°F-9.3°C 2.3°F-16.5°C 56% 18.0 mph N29.0 kmh N 28.0 mph45.1 kmh 30.39 in1029.1 mb 0.00 in0.0 mm 0.00 in/hr0.0 mm/hr 0.00 in0.0 mm
02:58 PM 15.4°F-9.2°C 3.3°F-15.9°C 58% 18.0 mph N29.0 kmh N 28.0 mph45.1 kmh 30.39 in1029.1 mb 0.00 in0.0 mm 0.00 in/hr0.0 mm/hr 0.00 in0.0 mm
02:59 PM 15.5°F-9.2°C 3.0°F-16.1°C 57% 16.0 mph NNE25.7 kmh NNE 28.0 mph45.1 kmh 30.39 in1029.1 mb 0.00 in0.0 mm 0.00 in/hr0.0 mm/hr 0.00 in0.0 mm
03:00 PM 15.5°F-9.2°C 2.2°F-16.6°C 55% 19.0 mph N30.6 kmh N 28.0 mph45.1 kmh 30.39 in1029.1 mb 0.00 in0.0 mm 0.00 in/hr0.0 mm/hr 0.00 in0.0 mm
03:01 PM 15.4°F-9.2°C 2.1°F-16.6°C 55% 17.0 mph NW27.4 kmh NW 21.0 mph33.8 kmh 30.39 in1029.1 mb 0.00 in0.0 mm 0.00 in/hr0.0 mm/hr 0.00 in0.0 mm
03:02 PM 15.2°F-9.3°C 1.6°F-16.9°C 54% 20.0 mph NNW32.2 kmh NNW 23.0 mph37.0 kmh 30.39 in1029.1 mb 0.00 in0.0 mm 0.00 in/hr0.0 mm/hr 0.00 in0.0 mm
03:04 PM 14.8°F-9.6°C 1.2°F-17.1°C 54% 17.0 mph N27.4 kmh N 26.0 mph41.8 kmh 30.40 in1029.5 mb 0.00 in0.0 mm 0.00 in/hr0.0 mm/hr 0.00 in0.0 mm
03:05 PM 14.6°F-9.7°C 1.0°F-17.2°C 54% 25.0 mph NNW40.2 kmh NNW 26.0 mph41.8 kmh 30.39 in1029.1 mb 0.00 in0.0 mm 0.00 in/hr0.0 mm/hr 0.00 in0.0 mm
03:07 PM 14.6°F-9.7°C 1.8°F-16.8°C 56% 26.0 mph NNW41.8 kmh NNW 26.0 mph41.8 kmh 30.40 in1029.5 mb 0.00 in0.0 mm 0.00 in/hr0.0 mm/hr 0.00 in0.0 mm
03:09 PM 14.8°F-9.6°C 1.6°F-16.9°C 55% 18.0 mph NNW29.0 kmh NNW 26.0 mph41.8 kmh 30.40 in1029.5 mb 0.00 in0.0 mm 0.00 in/hr0.0 mm/hr 0.00 in0.0 mm
03:10 PM 15.0°F-9.4°C 2.5°F-16.4°C 57% 19.0 mph NNW30.6 kmh NNW 26.0 mph41.8 kmh 30.40 in1029.5 mb 0.00 in0.0 mm 0.00 in/hr0.0 mm/hr 0.00 in0.0 mm
03:12 PM 15.3°F-9.3°C 2.8°F-16.2°C 57% 18.0 mph N29.0 kmh N 28.0 mph45.1 kmh 30.40 in1029.5 mb 0.00 in0.0 mm 0.00 in/hr0.0 mm/hr 0.00 in0.0 mm
03:13 PM 15.5°F-9.2°C 2.2°F-16.6°C 55% 19.0 mph N30.6 kmh N 28.0 mph45.1 kmh 30.40 in1029.5 mb 0.00 in0.0 mm 0.00 in/hr0.0 mm/hr 0.00 in0.0 mm
03:15 PM 15.4°F-9.2°C 1.7°F-16.8°C 54% 20.0 mph NNW32.2 kmh NNW 28.0 mph45.1 kmh 30.40 in1029.5 mb 0.00 in0.0 mm 0.00 in/hr0.0 mm/hr 0.00 in0.0 mm
03:17 PM 15.1°F-9.4°C 1.5°F-16.9°C 54% 13.0 mph NNW20.9 kmh NNW 28.0 mph45.1 kmh 30.40 in1029.5 mb 0.00 in0.0 mm 0.00 in/hr0.0 mm/hr 0.00 in0.0 mm
03:18 PM 15.0°F-9.4°C 1.4°F-17.0°C 54% 22.0 mph NW35.4 kmh NW 28.0 mph45.1 kmh 30.40 in1029.5 mb 0.00 in0.0 mm 0.00 in/hr0.0 mm/hr 0.00 in0.0 mm
03:19 PM 14.9°F-9.5°C 1.3°F-17.1°C 54% 16.0 mph NNW25.7 kmh NNW 28.0 mph45.1 kmh 30.40 in1029.5 mb 0.00 in0.0 mm 0.00 in/hr0.0 mm/hr 0.00 in0.0 mm
03:20 PM 14.8°F-9.6°C 1.2°F-17.1°C 54% 23.0 mph NW37.0 kmh NW 28.0 mph45.1 kmh 30.40 in1029.5 mb 0.00 in0.0 mm 0.00 in/hr0.0 mm/hr 0.00 in0.0 mm
03:22 PM 14.9°F-9.5°C 2.1°F-16.6°C 56% 20.0 mph N32.2 kmh N 28.0 mph45.1 kmh 30.40 in1029.5 mb 0.00 in0.0 mm 0.00 in/hr0.0 mm/hr 0.00 in0.0 mm
03:23 PM 14.8°F-9.6°C 1.2°F-17.1°C 54% 17.0 mph NNW27.4 kmh NNW 28.0 mph45.1 kmh 30.40 in1029.5 mb 0.00 in0.0 mm 0.00 in/hr0.0 mm/hr 0.00 in0.0 mm
03:24 PM 14.7°F-9.6°C 1.1°F-17.2°C 54% 12.0 mph NNW19.3 kmh NNW 28.0 mph45.1 kmh 30.40 in1029.5 mb 0.00 in0.0 mm 0.00 in/hr0.0 mm/hr 0.00 in0.0 mm
03:26 PM 14.5°F-9.7°C 0.9°F-17.3°C 54% 18.0 mph NNW29.0 kmh NNW 28.0 mph45.1 kmh 30.40 in1029.5 mb 0.00 in0.0 mm 0.00 in/hr0.0 mm/hr 0.00 in0.0 mm
03:28 PM 14.4°F-9.8°C 1.2°F-17.1°C 55% 25.0 mph NNW40.2 kmh NNW 28.0 mph45.1 kmh 30.40 in1029.5 mb 0.00 in0.0 mm 0.00 in/hr0.0 mm/hr 0.00 in0.0 mm
03:29 PM 14.6°F-9.7°C 1.8°F-16.8°C 56% 20.0 mph NNW32.2 kmh NNW 28.0 mph45.1 kmh 30.40 in1029.5 mb 0.00 in0.0 mm 0.00 in/hr0.0 mm/hr 0.00 in0.0 mm
03:30 PM 14.7°F-9.6°C 1.9°F-16.7°C 56% 14.0 mph N22.5 kmh N 28.0 mph45.1 kmh 30.41 in1029.8 mb 0.00 in0.0 mm 0.00 in/hr0.0 mm/hr 0.00 in0.0 mm
03:31 PM 14.7°F-9.6°C 1.5°F-16.9°C 55% 16.0 mph NNW25.7 kmh NNW 23.0 mph37.0 kmh 30.41 in1029.8 mb 0.00 in0.0 mm 0.00 in/hr0.0 mm/hr 0.00 in0.0 mm
03:32 PM 14.8°F-9.6°C 1.6°F-16.9°C 55% 15.0 mph NNW24.1 kmh NNW 23.0 mph37.0 kmh 30.41 in1029.8 mb 0.00 in0.0 mm 0.00 in/hr0.0 mm/hr 0.00 in0.0 mm
03:33 PM 14.7°F-9.6°C 1.5°F-16.9°C 55% 28.0 mph N45.1 kmh N 28.0 mph45.1 kmh 30.41 in1029.8 mb 0.00 in0.0 mm 0.00 in/hr0.0 mm/hr 0.00 in0.0 mm
03:34 PM 14.6°F-9.7°C 1.0°F-17.2°C 54% 17.0 mph N27.4 kmh N 28.0 mph45.1 kmh 30.41 in1029.8 mb 0.00 in0.0 mm 0.00 in/hr0.0 mm/hr 0.00 in0.0 mm
03:36 PM 14.5°F-9.7°C 0.9°F-17.3°C 54% 19.0 mph NNW30.6 kmh NNW 28.0 mph45.1 kmh 30.41 in1029.8 mb 0.00 in0.0 mm 0.00 in/hr0.0 mm/hr 0.00 in0.0 mm
03:37 PM 14.4°F-9.8°C 0.8°F-17.3°C 54% 22.0 mph NNW35.4 kmh NNW 28.0 mph45.1 kmh 30.41 in1029.8 mb 0.00 in0.0 mm 0.00 in/hr0.0 mm/hr 0.00 in0.0 mm
03:38 PM 14.5°F-9.7°C 1.3°F-17.1°C 55% 17.0 mph N27.4 kmh N 28.0 mph45.1 kmh 30.41 in1029.8 mb 0.00 in0.0 mm 0.00 in/hr0.0 mm/hr 0.00 in0.0 mm
03:40 PM 14.5°F-9.7°C 1.3°F-17.1°C 55% 16.0 mph NW25.7 kmh NW 28.0 mph45.1 kmh 30.41 in1029.8 mb 0.00 in0.0 mm 0.00 in/hr0.0 mm/hr 0.00 in0.0 mm
03:42 PM 14.8°F-9.6°C 2.0°F-16.7°C 56% 18.0 mph NNW29.0 kmh NNW 28.0 mph45.1 kmh 30.41 in1029.8 mb 0.00 in0.0 mm 0.00 in/hr0.0 mm/hr 0.00 in0.0 mm
03:43 PM 15.0°F-9.4°C 2.1°F-16.6°C 56% 16.0 mph N25.7 kmh N 28.0 mph45.1 kmh 30.41 in1029.8 mb 0.00 in0.0 mm 0.00 in/hr0.0 mm/hr 0.00 in0.0 mm
03:44 PM 15.1°F-9.4°C 2.2°F-16.6°C 56% 21.0 mph N33.8 kmh N 28.0 mph45.1 kmh 30.41 in1029.8 mb 0.00 in0.0 mm 0.00 in/hr0.0 mm/hr 0.00 in0.0 mm
03:45 PM 15.2°F-9.3°C 2.3°F-16.5°C 56% 19.0 mph N30.6 kmh N 28.0 mph45.1 kmh 30.41 in1029.8 mb 0.00 in0.0 mm 0.00 in/hr0.0 mm/hr 0.00 in0.0 mm
03:47 PM 15.3°F-9.3°C 2.0°F-16.7°C 55% 15.0 mph N24.1 kmh N 28.0 mph45.1 kmh 30.41 in1029.8 mb 0.00 in0.0 mm 0.00 in/hr0.0 mm/hr 0.00 in0.0 mm
03:48 PM 15.2°F-9.3°C 1.6°F-16.9°C 54% 18.0 mph N29.0 kmh N 28.0 mph45.1 kmh 30.41 in1029.8 mb 0.00 in0.0 mm 0.00 in/hr0.0 mm/hr 0.00 in0.0 mm
03:50 PM 15.2°F-9.3°C 1.6°F-16.9°C 54% 19.0 mph N30.6 kmh N 28.0 mph45.1 kmh 30.41 in1029.8 mb 0.00 in0.0 mm 0.00 in/hr0.0 mm/hr 0.00 in0.0 mm
03:51 PM 15.5°F-9.2°C 2.2°F-16.6°C 55% 21.0 mph N33.8 kmh N 28.0 mph45.1 kmh 30.42 in1030.1 mb 0.00 in0.0 mm 0.00 in/hr0.0 mm/hr 0.00 in0.0 mm
03:53 PM 15.5°F-9.2°C 1.8°F-16.8°C 54% 14.0 mph N22.5 kmh N 28.0 mph45.1 kmh 30.42 in1030.1 mb 0.00 in0.0 mm 0.00 in/hr0.0 mm/hr 0.00 in0.0 mm
03:55 PM 15.5°F-9.2°C 1.8°F-16.8°C 54% 13.0 mph NNW20.9 kmh NNW 28.0 mph45.1 kmh 30.42 in1030.1 mb 0.00 in0.0 mm 0.00 in/hr0.0 mm/hr 0.00 in0.0 mm
03:56 PM 15.6°F-9.1°C 2.3°F-16.5°C 55% 20.0 mph N32.2 kmh N 28.0 mph45.1 kmh 30.42 in1030.1 mb 0.00 in0.0 mm 0.00 in/hr0.0 mm/hr 0.00 in0.0 mm
03:58 PM 15.4°F-9.2°C 1.7°F-16.8°C 54% 14.0 mph NNW22.5 kmh NNW 28.0 mph45.1 kmh 30.42 in1030.1 mb 0.00 in0.0 mm 0.00 in/hr0.0 mm/hr 0.00 in0.0 mm
03:59 PM 15.3°F-9.3°C 1.3°F-17.1°C 53% 20.0 mph NNW32.2 kmh NNW 28.0 mph45.1 kmh 30.42 in1030.1 mb 0.00 in0.0 mm 0.00 in/hr0.0 mm/hr 0.00 in0.0 mm
04:00 PM 15.0°F-9.4°C 1.0°F-17.2°C 53% 15.0 mph N24.1 kmh N 28.0 mph45.1 kmh 30.42 in1030.1 mb 0.00 in0.0 mm 0.00 in/hr0.0 mm/hr 0.00 in0.0 mm
04:01 PM 14.8°F-9.6°C 0.8°F-17.3°C 53% 16.0 mph NNW25.7 kmh NNW 22.0 mph35.4 kmh 30.42 in1030.1 mb 0.00 in0.0 mm 0.00 in/hr0.0 mm/hr 0.00 in0.0 mm
04:03 PM 14.8°F-9.6°C 0.8°F-17.3°C 53% 21.0 mph N33.8 kmh N 22.0 mph35.4 kmh 30.42 in1030.1 mb 0.00 in0.0 mm 0.00 in/hr0.0 mm/hr 0.00 in0.0 mm
04:05 PM 14.8°F-9.6°C 1.2°F-17.1°C 54% 12.0 mph N19.3 kmh N 23.0 mph37.0 kmh 30.42 in1030.1 mb 0.00 in0.0 mm 0.00 in/hr0.0 mm/hr 0.00 in0.0 mm
04:06 PM 14.8°F-9.6°C 1.6°F-16.9°C 55% 22.0 mph N35.4 kmh N 23.0 mph37.0 kmh 30.42 in1030.1 mb 0.00 in0.0 mm 0.00 in/hr0.0 mm/hr 0.00 in0.0 mm
04:08 PM 14.6°F-9.7°C 1.0°F-17.2°C 54% 14.0 mph NNW22.5 kmh NNW 24.0 mph38.6 kmh 30.42 in1030.1 mb 0.00 in0.0 mm 0.00 in/hr0.0 mm/hr 0.00 in0.0 mm
04:09 PM 14.5°F-9.7°C 0.9°F-17.3°C 54% 14.0 mph N22.5 kmh N 24.0 mph38.6 kmh 30.42 in1030.1 mb 0.00 in0.0 mm 0.00 in/hr0.0 mm/hr 0.00 in0.0 mm
04:10 PM 14.4°F-9.8°C 0.8°F-17.3°C 54% 16.0 mph NW25.7 kmh NW 24.0 mph38.6 kmh 30.43 in1030.5 mb 0.00 in0.0 mm 0.00 in/hr0.0 mm/hr 0.00 in0.0 mm
04:11 PM 14.5°F-9.7°C 0.9°F-17.3°C 54% 19.0 mph N30.6 kmh N 26.0 mph41.8 kmh 30.43 in1030.5 mb 0.00 in0.0 mm 0.00 in/hr0.0 mm/hr 0.00 in0.0 mm
04:13 PM 14.6°F-9.7°C 1.4°F-17.0°C 55% 18.0 mph N29.0 kmh N 26.0 mph41.8 kmh 30.43 in1030.5 mb 0.00 in0.0 mm 0.00 in/hr0.0 mm/hr 0.00 in0.0 mm
04:14 PM 14.8°F-9.6°C 1.6°F-16.9°C 55% 23.0 mph N37.0 kmh N 26.0 mph41.8 kmh 30.43 in1030.5 mb 0.00 in0.0 mm 0.00 in/hr0.0 mm/hr 0.00 in0.0 mm
04:16 PM 14.9°F-9.5°C 1.3°F-17.1°C 54% 20.0 mph N32.2 kmh N 26.0 mph41.8 kmh 30.43 in1030.5 mb 0.00 in0.0 mm 0.00 in/hr0.0 mm/hr 0.00 in0.0 mm
04:18 PM 15.0°F-9.4°C 1.8°F-16.8°C 55% 15.0 mph N24.1 kmh N 26.0 mph41.8 kmh 30.43 in1030.5 mb 0.00 in0.0 mm 0.00 in/hr0.0 mm/hr 0.00 in0.0 mm
04:20 PM 15.1°F-9.4°C 1.5°F-16.9°C 54% 17.0 mph NNW27.4 kmh NNW 26.0 mph41.8 kmh 30.43 in1030.5 mb 0.00 in0.0 mm 0.00 in/hr0.0 mm/hr 0.00 in0.0 mm
04:22 PM 15.0°F-9.4°C 1.4°F-17.0°C 54% 12.0 mph N19.3 kmh N 26.0 mph41.8 kmh 30.44 in1030.8 mb 0.00 in0.0 mm 0.00 in/hr0.0 mm/hr 0.00 in0.0 mm
04:23 PM 15.0°F-9.4°C 1.4°F-17.0°C 54% 17.0 mph N27.4 kmh N 26.0 mph41.8 kmh 30.43 in1030.5 mb 0.00 in0.0 mm 0.00 in/hr0.0 mm/hr 0.00 in0.0 mm
04:24 PM 14.9°F-9.5°C 1.3°F-17.1°C 54% 18.0 mph N29.0 kmh N 27.0 mph43.5 kmh 30.44 in1030.8 mb 0.00 in0.0 mm 0.00 in/hr0.0 mm/hr 0.00 in0.0 mm
04:26 PM 14.9°F-9.5°C 0.9°F-17.3°C 53% 19.0 mph N30.6 kmh N 27.0 mph43.5 kmh 30.44 in1030.8 mb 0.00 in0.0 mm 0.00 in/hr0.0 mm/hr 0.00 in0.0 mm
04:27 PM 15.0°F-9.4°C 1.8°F-16.8°C 55% 15.0 mph N24.1 kmh N 27.0 mph43.5 kmh 30.43 in1030.5 mb 0.00 in0.0 mm 0.00 in/hr0.0 mm/hr 0.00 in0.0 mm
04:29 PM 15.0°F-9.4°C 1.4°F-17.0°C 54% 20.0 mph NW32.2 kmh NW 27.0 mph43.5 kmh 30.44 in1030.8 mb 0.00 in0.0 mm 0.00 in/hr0.0 mm/hr 0.00 in0.0 mm
04:30 PM 14.9°F-9.5°C 0.9°F-17.3°C 53% 13.0 mph N20.9 kmh N 27.0 mph43.5 kmh 30.44 in1030.8 mb 0.00 in0.0 mm 0.00 in/hr0.0 mm/hr 0.00 in0.0 mm
04:31 PM 14.9°F-9.5°C 0.9°F-17.3°C 53% 13.0 mph NNW20.9 kmh NNW 20.0 mph32.2 kmh 30.44 in1030.8 mb 0.00 in0.0 mm 0.00 in/hr0.0 mm/hr 0.00 in0.0 mm
04:32 PM 14.8°F-9.6°C 0.8°F-17.3°C 53% 18.0 mph NNW29.0 kmh NNW 20.0 mph32.2 kmh 30.44 in1030.8 mb 0.00 in0.0 mm 0.00 in/hr0.0 mm/hr 0.00 in0.0 mm
04:34 PM 14.8°F-9.6°C 0.8°F-17.3°C 53% 20.0 mph N32.2 kmh N 21.0 mph33.8 kmh 30.44 in1030.8 mb 0.00 in0.0 mm 0.00 in/hr0.0 mm/hr 0.00 in0.0 mm
04:36 PM 14.9°F-9.5°C 1.3°F-17.1°C 54% 14.0 mph NNW22.5 kmh NNW 21.0 mph33.8 kmh 30.44 in1030.8 mb 0.00 in0.0 mm 0.00 in/hr0.0 mm/hr 0.00 in0.0 mm
04:38 PM 15.1°F-9.4°C 1.5°F-16.9°C 54% 20.0 mph N32.2 kmh N 23.0 mph37.0 kmh 30.45 in1031.2 mb 0.00 in0.0 mm 0.00 in/hr0.0 mm/hr 0.00 in0.0 mm
04:39 PM 15.2°F-9.3°C 1.6°F-16.9°C 54% 22.0 mph N35.4 kmh N 26.0 mph41.8 kmh 30.45 in1031.2 mb 0.00 in0.0 mm 0.00 in/hr0.0 mm/hr 0.00 in0.0 mm
04:40 PM 15.3°F-9.3°C 1.3°F-17.1°C 53% 22.0 mph N35.4 kmh N 26.0 mph41.8 kmh 30.45 in1031.2 mb 0.00 in0.0 mm 0.00 in/hr0.0 mm/hr 0.00 in0.0 mm
04:41 PM 15.2°F-9.3°C 0.8°F-17.3°C 52% 18.0 mph N29.0 kmh N 26.0 mph41.8 kmh 30.45 in1031.2 mb 0.00 in0.0 mm 0.00 in/hr0.0 mm/hr 0.00 in0.0 mm
04:42 PM 15.0°F-9.4°C 0.6°F-17.4°C 52% 18.0 mph NNW29.0 kmh NNW 26.0 mph41.8 kmh 30.45 in1031.2 mb 0.00 in0.0 mm 0.00 in/hr0.0 mm/hr 0.00 in0.0 mm
04:44 PM 15.0°F-9.4°C 0.6°F-17.4°C 52% 17.0 mph N27.4 kmh N 26.0 mph41.8 kmh 30.45 in1031.2 mb 0.00 in0.0 mm 0.00 in/hr0.0 mm/hr 0.00 in0.0 mm
04:45 PM 14.9°F-9.5°C 0.5°F-17.5°C 52% 13.0 mph N20.9 kmh N 26.0 mph41.8 kmh 30.45 in1031.2 mb 0.00 in0.0 mm 0.00 in/hr0.0 mm/hr 0.00 in0.0 mm
04:47 PM 14.9°F-9.5°C 0.5°F-17.5°C 52% 15.0 mph N24.1 kmh N 26.0 mph41.8 kmh 30.45 in1031.2 mb 0.00 in0.0 mm 0.00 in/hr0.0 mm/hr 0.00 in0.0 mm
04:48 PM 14.8°F-9.6°C 0.4°F-17.6°C 52% 15.0 mph NNW24.1 kmh NNW 26.0 mph41.8 kmh 30.45 in1031.2 mb 0.00 in0.0 mm 0.00 in/hr0.0 mm/hr 0.00 in0.0 mm
04:50 PM 15.0°F-9.4°C 1.0°F-17.2°C 53% 15.0 mph N24.1 kmh N 26.0 mph41.8 kmh 30.45 in1031.2 mb 0.00 in0.0 mm 0.00 in/hr0.0 mm/hr 0.00 in0.0 mm
04:52 PM 15.1°F-9.4°C 0.7°F-17.4°C 52% 21.0 mph NNW33.8 kmh NNW 26.0 mph41.8 kmh 30.45 in1031.2 mb 0.00 in0.0 mm 0.00 in/hr0.0 mm/hr 0.00 in0.0 mm
04:54 PM 15.0°F-9.4°C 0.2°F-17.7°C 51% 16.0 mph NNW25.7 kmh NNW 26.0 mph41.8 kmh 30.45 in1031.2 mb 0.00 in0.0 mm 0.00 in/hr0.0 mm/hr 0.00 in0.0 mm
04:56 PM 14.9°F-9.5°C 0.1°F-17.7°C 51% 14.0 mph NNW22.5 kmh NNW 26.0 mph41.8 kmh 30.45 in1031.2 mb 0.00 in0.0 mm 0.00 in/hr0.0 mm/hr 0.00 in0.0 mm
04:58 PM 14.8°F-9.6°C 0.0°F-17.8°C 51% 15.0 mph NW24.1 kmh NW 26.0 mph41.8 kmh 30.45 in1031.2 mb 0.00 in0.0 mm 0.00 in/hr0.0 mm/hr 0.00 in0.0 mm
05:00 PM 14.8°F-9.6°C -0.5°F-18.1°C 50% 24.0 mph NNW38.6 kmh NNW 26.0 mph41.8 kmh 30.45 in1031.2 mb 0.00 in0.0 mm 0.00 in/hr0.0 mm/hr 0.00 in0.0 mm
05:01 PM 14.7°F-9.6°C -0.6°F-18.1°C 50% 23.0 mph NNW37.0 kmh NNW 23.0 mph37.0 kmh 30.45 in1031.2 mb 0.00 in0.0 mm 0.00 in/hr0.0 mm/hr 0.00 in0.0 mm
05:03 PM 14.6°F-9.7°C -0.2°F-17.9°C 51% 17.0 mph NNW27.4 kmh NNW 23.0 mph37.0 kmh 30.45 in1031.2 mb 0.00 in0.0 mm 0.00 in/hr0.0 mm/hr 0.00 in0.0 mm
05:05 PM 14.7°F-9.6°C -0.1°F-17.8°C 51% 12.0 mph N19.3 kmh N 23.0 mph37.0 kmh 30.45 in1031.2 mb 0.00 in0.0 mm 0.00 in/hr0.0 mm/hr 0.00 in0.0 mm
05:07 PM 14.8°F-9.6°C 0.4°F-17.6°C 52% 16.0 mph N25.7 kmh N 23.0 mph37.0 kmh 30.45 in1031.2 mb 0.00 in0.0 mm 0.00 in/hr0.0 mm/hr 0.00 in0.0 mm
05:09 PM 14.8°F-9.6°C 0.0°F-17.8°C 51% 21.0 mph N33.8 kmh N 23.0 mph37.0 kmh 30.46 in1031.5 mb 0.00 in0.0 mm 0.00 in/hr0.0 mm/hr 0.00 in0.0 mm
05:10 PM 14.8°F-9.6°C 0.0°F-17.8°C 51% 16.0 mph NNW25.7 kmh NNW 23.0 mph37.0 kmh 30.46 in1031.5 mb 0.00 in0.0 mm 0.00 in/hr0.0 mm/hr 0.00 in0.0 mm
05:12 PM 14.7°F-9.6°C -0.6°F-18.1°C 50% 20.0 mph NNW32.2 kmh NNW 23.0 mph37.0 kmh 30.46 in1031.5 mb 0.00 in0.0 mm 0.00 in/hr0.0 mm/hr 0.00 in0.0 mm
05:14 PM 14.6°F-9.7°C -1.1°F-18.4°C 49% 18.0 mph NNW29.0 kmh NNW 25.0 mph40.2 kmh 30.45 in1031.2 mb 0.00 in0.0 mm 0.00 in/hr0.0 mm/hr 0.00 in0.0 mm
05:15 PM 14.5°F-9.7°C -1.2°F-18.4°C 49% 21.0 mph NNW33.8 kmh NNW 25.0 mph40.2 kmh 30.45 in1031.2 mb 0.00 in0.0 mm 0.00 in/hr0.0 mm/hr 0.00 in0.0 mm
05:16 PM 14.4°F-9.8°C -1.3°F-18.5°C 49% 26.0 mph NNW41.8 kmh NNW 27.0 mph43.5 kmh 30.45 in1031.2 mb 0.00 in0.0 mm 0.00 in/hr0.0 mm/hr 0.00 in0.0 mm
05:18 PM 14.4°F-9.8°C -1.3°F-18.5°C 49% 19.0 mph NNW30.6 kmh NNW 27.0 mph43.5 kmh 30.45 in1031.2 mb 0.00 in0.0 mm 0.00 in/hr0.0 mm/hr 0.00 in0.0 mm
05:19 PM 14.3°F-9.8°C -1.4°F-18.6°C 49% 24.0 mph NW38.6 kmh NW 27.0 mph43.5 kmh 30.45 in1031.2 mb 0.00 in0.0 mm 0.00 in/hr0.0 mm/hr 0.00 in0.0 mm
05:20 PM 14.3°F-9.8°C -1.4°F-18.6°C 49% 19.0 mph NNW30.6 kmh NNW 27.0 mph43.5 kmh 30.46 in1031.5 mb 0.00 in0.0 mm 0.00 in/hr0.0 mm/hr 0.00 in0.0 mm
05:22 PM 14.3°F-9.8°C -1.4°F-18.6°C 49% 17.0 mph NNW27.4 kmh NNW 27.0 mph43.5 kmh 30.46 in1031.5 mb 0.00 in0.0 mm 0.00 in/hr0.0 mm/hr 0.00 in0.0 mm
05:24 PM 14.3°F-9.8°C -0.9°F-18.3°C 50% 15.0 mph NNW24.1 kmh NNW 27.0 mph43.5 kmh 30.46 in1031.5 mb 0.00 in0.0 mm 0.00 in/hr0.0 mm/hr 0.00 in0.0 mm
05:25 PM 14.3°F-9.8°C -1.4°F-18.6°C 49% 14.0 mph N22.5 kmh N 27.0 mph43.5 kmh 30.46 in1031.5 mb 0.00 in0.0 mm 0.00 in/hr0.0 mm/hr 0.00 in0.0 mm
05:27 PM 14.3°F-9.8°C -1.4°F-18.6°C 49% 15.0 mph N24.1 kmh N 27.0 mph43.5 kmh 30.46 in1031.5 mb 0.00 in0.0 mm 0.00 in/hr0.0 mm/hr 0.00 in0.0 mm
05:28 PM 14.3°F-9.8°C -1.4°F-18.6°C 49% 20.0 mph NW32.2 kmh NW 27.0 mph43.5 kmh 30.46 in1031.5 mb 0.00 in0.0 mm 0.00 in/hr0.0 mm/hr 0.00 in0.0 mm
05:29 PM 14.3°F-9.8°C -1.4°F-18.6°C 49% 14.0 mph N22.5 kmh N 27.0 mph43.5 kmh 30.46 in1031.5 mb 0.00 in0.0 mm 0.00 in/hr0.0 mm/hr 0.00 in0.0 mm
05:30 PM 14.3°F-9.8°C -1.8°F-18.8°C 48% 21.0 mph N33.8 kmh N 27.0 mph43.5 kmh 30.46 in1031.5 mb 0.00 in0.0 mm 0.00 in/hr0.0 mm/hr 0.00 in0.0 mm
05:31 PM 14.2°F-9.9°C -1.9°F-18.8°C 48% 16.0 mph NNW25.7 kmh NNW 23.0 mph37.0 kmh 30.46 in1031.5 mb 0.00 in0.0 mm 0.00 in/hr0.0 mm/hr 0.00 in0.0 mm
05:33 PM 14.2°F-9.9°C -1.9°F-18.8°C 48% 12.0 mph N19.3 kmh N 23.0 mph37.0 kmh 30.47 in1031.8 mb 0.00 in0.0 mm 0.00 in/hr0.0 mm/hr 0.00 in0.0 mm
05:34 PM 14.2°F-9.9°C -1.9°F-18.8°C 48% 16.0 mph NNE25.7 kmh NNE 23.0 mph37.0 kmh 30.47 in1031.8 mb 0.00 in0.0 mm 0.00 in/hr0.0 mm/hr 0.00 in0.0 mm
05:36 PM 14.1°F-9.9°C -2.0°F-18.9°C 48% 14.0 mph NNW22.5 kmh NNW 23.0 mph37.0 kmh 30.47 in1031.8 mb 0.00 in0.0 mm 0.00 in/hr0.0 mm/hr 0.00 in0.0 mm
05:37 PM 14.2°F-9.9°C -1.9°F-18.8°C 48% 19.0 mph N30.6 kmh N 23.0 mph37.0 kmh 30.47 in1031.8 mb 0.00 in0.0 mm 0.00 in/hr0.0 mm/hr 0.00 in0.0 mm
05:39 PM 14.2°F-9.9°C -1.4°F-18.6°C 49% 21.0 mph NNW33.8 kmh NNW 23.0 mph37.0 kmh 30.47 in1031.8 mb 0.00 in0.0 mm 0.00 in/hr0.0 mm/hr 0.00 in0.0 mm
05:40 PM 14.2°F-9.9°C -1.9°F-18.8°C 48% 20.0 mph NW32.2 kmh NW 23.0 mph37.0 kmh 30.47 in1031.8 mb 0.00 in0.0 mm 0.00 in/hr0.0 mm/hr 0.00 in0.0 mm
05:41 PM 14.2°F-9.9°C -1.9°F-18.8°C 48% 22.0 mph NW35.4 kmh NW 23.0 mph37.0 kmh 30.47 in1031.8 mb 0.00 in0.0 mm 0.00 in/hr0.0 mm/hr 0.00 in0.0 mm
05:43 PM 14.1°F-9.9°C -2.4°F-19.1°C 47% 17.0 mph NNW27.4 kmh NNW 26.0 mph41.8 kmh 30.47 in1031.8 mb 0.00 in0.0 mm 0.00 in/hr0.0 mm/hr 0.00 in0.0 mm
05:44 PM 14.1°F-9.9°C -2.0°F-18.9°C 48% 15.0 mph NNW24.1 kmh NNW 26.0 mph41.8 kmh 30.47 in1031.8 mb 0.00 in0.0 mm 0.00 in/hr0.0 mm/hr 0.00 in0.0 mm
05:46 PM 14.1°F-9.9°C -2.0°F-18.9°C 48% 19.0 mph NNW30.6 kmh NNW 26.0 mph41.8 kmh 30.47 in1031.8 mb 0.00 in0.0 mm 0.00 in/hr0.0 mm/hr 0.00 in0.0 mm
05:47 PM 14.1°F-9.9°C -2.4°F-19.1°C 47% 13.0 mph N20.9 kmh N 26.0 mph41.8 kmh 30.48 in1032.2 mb 0.00 in0.0 mm 0.00 in/hr0.0 mm/hr 0.00 in0.0 mm
05:49 PM 14.0°F-10.0°C -2.5°F-19.2°C 47% 23.0 mph NNW37.0 kmh NNW 26.0 mph41.8 kmh 30.48 in1032.2 mb 0.00 in0.0 mm 0.00 in/hr0.0 mm/hr 0.00 in0.0 mm
05:50 PM 14.0°F-10.0°C -2.5°F-19.2°C 47% 10.0 mph NW16.1 kmh NW 26.0 mph41.8 kmh 30.48 in1032.2 mb 0.00 in0.0 mm 0.00 in/hr0.0 mm/hr 0.00 in0.0 mm
05:52 PM 14.0°F-10.0°C -2.1°F-18.9°C 48% 18.0 mph N29.0 kmh N 26.0 mph41.8 kmh 30.48 in1032.2 mb 0.00 in0.0 mm 0.00 in/hr0.0 mm/hr 0.00 in0.0 mm
05:54 PM 13.9°F-10.1°C -2.6°F-19.2°C 47% 16.0 mph NW25.7 kmh NW 26.0 mph41.8 kmh 30.48 in1032.2 mb 0.00 in0.0 mm 0.00 in/hr0.0 mm/hr 0.00 in0.0 mm
05:55 PM 13.9°F-10.1°C -3.1°F-19.5°C 46% 18.0 mph NNW29.0 kmh NNW 26.0 mph41.8 kmh 30.48 in1032.2 mb 0.00 in0.0 mm 0.00 in/hr0.0 mm/hr 0.00 in0.0 mm
05:57 PM 13.8°F-10.1°C -3.1°F-19.5°C 46% 10.0 mph N16.1 kmh N 26.0 mph41.8 kmh 30.48 in1032.2 mb 0.00 in0.0 mm 0.00 in/hr0.0 mm/hr 0.00 in0.0 mm
05:59 PM 13.7°F-10.2°C -3.2°F-19.6°C 46% 14.0 mph N22.5 kmh N 26.0 mph41.8 kmh 30.48 in1032.2 mb 0.00 in0.0 mm 0.00 in/hr0.0 mm/hr 0.00 in0.0 mm
06:00 PM 13.7°F-10.2°C -3.2°F-19.6°C 46% 15.0 mph NNW24.1 kmh NNW 26.0 mph41.8 kmh 30.48 in1032.2 mb 0.00 in0.0 mm 0.00 in/hr0.0 mm/hr 0.00 in0.0 mm
06:01 PM 13.7°F-10.2°C -3.2°F-19.6°C 46% 14.0 mph N22.5 kmh N 17.0 mph27.4 kmh 30.48 in1032.2 mb 0.00 in0.0 mm 0.00 in/hr0.0 mm/hr 0.00 in0.0 mm
06:02 PM 13.6°F-10.2°C -3.3°F-19.6°C 46% 15.0 mph N24.1 kmh N 19.0 mph30.6 kmh 30.48 in1032.2 mb 0.00 in0.0 mm 0.00 in/hr0.0 mm/hr 0.00 in0.0 mm
06:03 PM 13.6°F-10.2°C -3.3°F-19.6°C 46% 12.0 mph NNW19.3 kmh NNW 19.0 mph30.6 kmh 30.48 in1032.2 mb 0.00 in0.0 mm 0.00 in/hr0.0 mm/hr 0.00 in0.0 mm
06:05 PM 13.5°F-10.3°C -3.4°F-19.7°C 46% 15.0 mph NNW24.1 kmh NNW 19.0 mph30.6 kmh 30.49 in1032.5 mb 0.00 in0.0 mm 0.00 in/hr0.0 mm/hr 0.00 in0.0 mm
06:07 PM 13.5°F-10.3°C -3.4°F-19.7°C 46% 14.0 mph N22.5 kmh N 19.0 mph30.6 kmh 30.49 in1032.5 mb 0.00 in0.0 mm 0.00 in/hr0.0 mm/hr 0.00 in0.0 mm
06:09 PM 13.5°F-10.3°C -3.4°F-19.7°C 46% 13.0 mph N20.9 kmh N 19.0 mph30.6 kmh 30.49 in1032.5 mb 0.00 in0.0 mm 0.00 in/hr0.0 mm/hr 0.00 in0.0 mm
06:10 PM 13.5°F-10.3°C -3.4°F-19.7°C 46% 15.0 mph N24.1 kmh N 20.0 mph32.2 kmh 30.49 in1032.5 mb 0.00 in0.0 mm 0.00 in/hr0.0 mm/hr 0.00 in0.0 mm
06:12 PM 13.4°F-10.3°C -4.0°F-20.0°C 45% 17.0 mph NNW27.4 kmh NNW 20.0 mph32.2 kmh 30.49 in1032.5 mb 0.00 in0.0 mm 0.00 in/hr0.0 mm/hr 0.00 in0.0 mm
06:13 PM 13.4°F-10.3°C -4.0°F-20.0°C 45% 13.0 mph N20.9 kmh N 20.0 mph32.2 kmh 30.49 in1032.5 mb 0.00 in0.0 mm 0.00 in/hr0.0 mm/hr 0.00 in0.0 mm
06:14 PM 13.3°F-10.4°C -4.1°F-20.1°C 45% 11.0 mph NNW17.7 kmh NNW 20.0 mph32.2 kmh 30.49 in1032.5 mb 0.00 in0.0 mm 0.00 in/hr0.0 mm/hr 0.00 in0.0 mm
06:15 PM 13.3°F-10.4°C -4.1°F-20.1°C 45% 9.0 mph NNW14.5 kmh NNW 20.0 mph32.2 kmh 30.49 in1032.5 mb 0.00 in0.0 mm 0.00 in/hr0.0 mm/hr 0.00 in0.0 mm
06:17 PM 13.2°F-10.4°C -4.2°F-20.1°C 45% 16.0 mph N25.7 kmh N 20.0 mph32.2 kmh 30.49 in1032.5 mb 0.00 in0.0 mm 0.00 in/hr0.0 mm/hr 0.00 in0.0 mm
06:18 PM 13.2°F-10.4°C -4.2°F-20.1°C 45% 13.0 mph N20.9 kmh N 20.0 mph32.2 kmh 30.49 in1032.5 mb 0.00 in0.0 mm 0.00 in/hr0.0 mm/hr 0.00 in0.0 mm
06:20 PM 13.2°F-10.4°C -4.2°F-20.1°C 45% 19.0 mph N30.6 kmh N 20.0 mph32.2 kmh 30.49 in1032.5 mb 0.00 in0.0 mm 0.00 in/hr0.0 mm/hr 0.00 in0.0 mm
06:21 PM 13.2°F-10.4°C -4.2°F-20.1°C 45% 16.0 mph N25.7 kmh N 22.0 mph35.4 kmh 30.49 in1032.5 mb 0.00 in0.0 mm 0.00 in/hr0.0 mm/hr 0.00 in0.0 mm
06:23 PM 13.1°F-10.5°C -4.2°F-20.1°C 45% 13.0 mph N20.9 kmh N 22.0 mph35.4 kmh 30.50 in1032.8 mb 0.00 in0.0 mm 0.00 in/hr0.0 mm/hr 0.00 in0.0 mm
06:24 PM 13.1°F-10.5°C -4.2°F-20.1°C 45% 10.0 mph N16.1 kmh N 22.0 mph35.4 kmh 30.50 in1032.8 mb 0.00 in0.0 mm 0.00 in/hr0.0 mm/hr 0.00 in0.0 mm
06:26 PM 13.0°F-10.6°C -3.9°F-19.9°C 46% 12.0 mph N19.3 kmh N 22.0 mph35.4 kmh 30.50 in1032.8 mb 0.00 in0.0 mm 0.00 in/hr0.0 mm/hr 0.00 in0.0 mm
06:28 PM 13.0°F-10.6°C -3.9°F-19.9°C 46% 12.0 mph N19.3 kmh N 22.0 mph35.4 kmh 30.50 in1032.8 mb 0.00 in0.0 mm 0.00 in/hr0.0 mm/hr 0.00 in0.0 mm
06:29 PM 12.9°F-10.6°C -4.0°F-20.0°C 46% 12.0 mph N19.3 kmh N 22.0 mph35.4 kmh 30.50 in1032.8 mb 0.00 in0.0 mm 0.00 in/hr0.0 mm/hr 0.00 in0.0 mm
06:30 PM 12.9°F-10.6°C -4.0°F-20.0°C 46% 16.0 mph N25.7 kmh N 22.0 mph35.4 kmh 30.50 in1032.8 mb 0.00 in0.0 mm 0.00 in/hr0.0 mm/hr 0.00 in0.0 mm
06:31 PM 12.9°F-10.6°C -4.0°F-20.0°C 46% 17.0 mph N27.4 kmh N 21.0 mph33.8 kmh 30.50 in1032.8 mb 0.00 in0.0 mm 0.00 in/hr0.0 mm/hr 0.00 in0.0 mm
06:32 PM 12.8°F-10.7°C -4.5°F-20.3°C 45% 17.0 mph N27.4 kmh N 21.0 mph33.8 kmh 30.50 in1032.8 mb 0.00 in0.0 mm 0.00 in/hr0.0 mm/hr 0.00 in0.0 mm
06:34 PM 12.8°F-10.7°C -4.5°F-20.3°C 45% 20.0 mph N32.2 kmh N 21.0 mph33.8 kmh 30.50 in1032.8 mb 0.00 in0.0 mm 0.00 in/hr0.0 mm/hr 0.00 in0.0 mm
06:35 PM 12.7°F-10.7°C -4.2°F-20.1°C 46% 16.0 mph N25.7 kmh N 22.0 mph35.4 kmh 30.50 in1032.8 mb 0.00 in0.0 mm 0.00 in/hr0.0 mm/hr 0.00 in0.0 mm
06:37 PM 12.7°F-10.7°C -4.2°F-20.1°C 46% 20.0 mph NNW32.2 kmh NNW 22.0 mph35.4 kmh 30.50 in1032.8 mb 0.00 in0.0 mm 0.00 in/hr0.0 mm/hr 0.00 in0.0 mm
06:38 PM 12.6°F-10.8°C -4.3°F-20.2°C 46% 15.0 mph N24.1 kmh N 22.0 mph35.4 kmh 30.50 in1032.8 mb 0.00 in0.0 mm 0.00 in/hr0.0 mm/hr 0.00 in0.0 mm
06:39 PM 12.7°F-10.7°C -4.2°F-20.1°C 46% 13.0 mph N20.9 kmh N 22.0 mph35.4 kmh 30.50 in1032.8 mb 0.00 in0.0 mm 0.00 in/hr0.0 mm/hr 0.00 in0.0 mm
06:40 PM 12.7°F-10.7°C -4.2°F-20.1°C 46% 13.0 mph N20.9 kmh N 22.0 mph35.4 kmh 30.50 in1032.8 mb 0.00 in0.0 mm 0.00 in/hr0.0 mm/hr 0.00 in0.0 mm
06:41 PM 12.7°F-10.7°C -4.2°F-20.1°C 46% 13.0 mph N20.9 kmh N 22.0 mph35.4 kmh 30.50 in1032.8 mb 0.00 in0.0 mm 0.00 in/hr0.0 mm/hr 0.00 in0.0 mm
06:42 PM 12.6°F-10.8°C -4.3°F-20.2°C 46% 14.0 mph NNW22.5 kmh NNW 22.0 mph35.4 kmh 30.50 in1032.8 mb 0.00 in0.0 mm 0.00 in/hr0.0 mm/hr 0.00 in0.0 mm
06:43 PM 12.6°F-10.8°C -4.3°F-20.2°C 46% 12.0 mph N19.3 kmh N 22.0 mph35.4 kmh 30.50 in1032.8 mb 0.00 in0.0 mm 0.00 in/hr0.0 mm/hr 0.00 in0.0 mm
06:44 PM 12.5°F-10.8°C -4.3°F-20.2°C 46% 11.0 mph NNW17.7 kmh NNW 22.0 mph35.4 kmh 30.50 in1032.8 mb 0.00 in0.0 mm 0.00 in/hr0.0 mm/hr 0.00 in0.0 mm
06:45 PM 12.5°F-10.8°C -4.3°F-20.2°C 46% 13.0 mph NNW20.9 kmh NNW 22.0 mph35.4 kmh 30.51 in1033.2 mb 0.00 in0.0 mm 0.00 in/hr0.0 mm/hr 0.00 in0.0 mm
06:46 PM 12.5°F-10.8°C -3.9°F-19.9°C 47% 11.0 mph NNW17.7 kmh NNW 22.0 mph35.4 kmh 30.51 in1033.2 mb 0.00 in0.0 mm 0.00 in/hr0.0 mm/hr 0.00 in0.0 mm
06:47 PM 12.5°F-10.8°C -3.9°F-19.9°C 47% 10.0 mph NW16.1 kmh NW 22.0 mph35.4 kmh 30.51 in1033.2 mb 0.00 in0.0 mm 0.00 in/hr0.0 mm/hr 0.00 in0.0 mm
06:49 PM 12.5°F-10.8°C -3.9°F-19.9°C 47% 13.0 mph N20.9 kmh N 22.0 mph35.4 kmh 30.51 in1033.2 mb 0.00 in0.0 mm 0.00 in/hr0.0 mm/hr 0.00 in0.0 mm
06:50 PM 12.4°F-10.9°C -4.0°F-20.0°C 47% 10.0 mph NW16.1 kmh NW 22.0 mph35.4 kmh 30.51 in1033.2 mb 0.00 in0.0 mm 0.00 in/hr0.0 mm/hr 0.00 in0.0 mm
06:51 PM 12.4°F-10.9°C -4.0°F-20.0°C 47% 10.0 mph NNW16.1 kmh NNW 22.0 mph35.4 kmh 30.51 in1033.2 mb 0.00 in0.0 mm 0.00 in/hr0.0 mm/hr 0.00 in0.0 mm
06:52 PM 12.4°F-10.9°C -3.5°F-19.7°C 48% 11.0 mph NNW17.7 kmh NNW 22.0 mph35.4 kmh 30.51 in1033.2 mb 0.00 in0.0 mm 0.00 in/hr0.0 mm/hr 0.00 in0.0 mm
06:54 PM 12.3°F-10.9°C -4.1°F-20.1°C 47% 12.0 mph NNW19.3 kmh NNW 22.0 mph35.4 kmh 30.51 in1033.2 mb 0.00 in0.0 mm 0.00 in/hr0.0 mm/hr 0.00 in0.0 mm
06:55 PM 12.3°F-10.9°C -4.1°F-20.1°C 47% 14.0 mph NW22.5 kmh NW 22.0 mph35.4 kmh 30.51 in1033.2 mb 0.00 in0.0 mm 0.00 in/hr0.0 mm/hr 0.00 in0.0 mm
06:57 PM 12.3°F-10.9°C -4.1°F-20.1°C 47% 15.0 mph NNW24.1 kmh NNW 22.0 mph35.4 kmh 30.51 in1033.2 mb 0.00 in0.0 mm 0.00 in/hr0.0 mm/hr 0.00 in0.0 mm
06:58 PM 12.3°F-10.9°C -4.1°F-20.1°C 47% 9.0 mph NNW14.5 kmh NNW 22.0 mph35.4 kmh 30.51 in1033.2 mb 0.00 in0.0 mm 0.00 in/hr0.0 mm/hr 0.00 in0.0 mm
06:59 PM 12.3°F-10.9°C -3.6°F-19.8°C 48% 16.0 mph N25.7 kmh N 22.0 mph35.4 kmh 30.51 in1033.2 mb 0.00 in0.0 mm 0.00 in/hr0.0 mm/hr 0.00 in0.0 mm
07:00 PM 12.3°F-10.9°C -3.6°F-19.8°C 48% 12.0 mph NNW19.3 kmh NNW 22.0 mph35.4 kmh 30.51 in1033.2 mb 0.00 in0.0 mm 0.00 in/hr0.0 mm/hr 0.00 in0.0 mm
07:01 PM 12.2°F-11.0°C -3.7°F-19.8°C 48% 14.0 mph NW22.5 kmh NW 15.0 mph24.1 kmh 30.51 in1033.2 mb 0.00 in0.0 mm 0.00 in/hr0.0 mm/hr 0.00 in0.0 mm
07:02 PM 12.2°F-11.0°C -3.7°F-19.8°C 48% 13.0 mph NNW20.9 kmh NNW 16.0 mph25.7 kmh 30.51 in1033.2 mb 0.00 in0.0 mm 0.00 in/hr0.0 mm/hr 0.00 in0.0 mm
07:04 PM 12.2°F-11.0°C -3.7°F-19.8°C 48% 11.0 mph N17.7 kmh N 17.0 mph27.4 kmh 30.51 in1033.2 mb 0.00 in0.0 mm 0.00 in/hr0.0 mm/hr 0.00 in0.0 mm
07:05 PM 12.2°F-11.0°C -3.7°F-19.8°C 48% 11.0 mph NW17.7 kmh NW 18.0 mph29.0 kmh 30.52 in1033.5 mb 0.00 in0.0 mm 0.00 in/hr0.0 mm/hr 0.00 in0.0 mm
07:06 PM 12.1°F-11.1°C -3.8°F-19.9°C 48% 17.0 mph NNW27.4 kmh NNW 18.0 mph29.0 kmh 30.52 in1033.5 mb 0.00 in0.0 mm 0.00 in/hr0.0 mm/hr 0.00 in0.0 mm
07:08 PM 12.1°F-11.1°C -3.8°F-19.9°C 48% 8.0 mph NNW12.9 kmh NNW 18.0 mph29.0 kmh 30.52 in1033.5 mb 0.00 in0.0 mm 0.00 in/hr0.0 mm/hr 0.00 in0.0 mm
07:10 PM 12.1°F-11.1°C -3.4°F-19.7°C 49% 20.0 mph N32.2 kmh N 20.0 mph32.2 kmh 30.52 in1033.5 mb 0.00 in0.0 mm 0.00 in/hr0.0 mm/hr 0.00 in0.0 mm
07:12 PM 12.1°F-11.1°C -3.4°F-19.7°C 49% 16.0 mph NNW25.7 kmh NNW 20.0 mph32.2 kmh 30.52 in1033.5 mb 0.00 in0.0 mm 0.00 in/hr0.0 mm/hr 0.00 in0.0 mm
07:13 PM 12.1°F-11.1°C -3.4°F-19.7°C 49% 11.0 mph NNW17.7 kmh NNW 20.0 mph32.2 kmh 30.52 in1033.5 mb 0.00 in0.0 mm 0.00 in/hr0.0 mm/hr 0.00 in0.0 mm
07:15 PM 12.1°F-11.1°C -3.4°F-19.7°C 49% 12.0 mph N19.3 kmh N 20.0 mph32.2 kmh 30.52 in1033.5 mb 0.00 in0.0 mm 0.00 in/hr0.0 mm/hr 0.00 in0.0 mm
07:17 PM 12.1°F-11.1°C -3.4°F-19.7°C 49% 13.0 mph NNW20.9 kmh NNW 20.0 mph32.2 kmh 30.52 in1033.5 mb 0.00 in0.0 mm 0.00 in/hr0.0 mm/hr 0.00 in0.0 mm
07:18 PM 12.0°F-11.1°C -3.5°F-19.7°C 49% 11.0 mph NNW17.7 kmh NNW 20.0 mph32.2 kmh 30.52 in1033.5 mb 0.00 in0.0 mm 0.00 in/hr0.0 mm/hr 0.00 in0.0 mm
07:20 PM 12.0°F-11.1°C -3.1°F-19.5°C 50% 13.0 mph N20.9 kmh N 20.0 mph32.2 kmh 30.52 in1033.5 mb 0.00 in0.0 mm 0.00 in/hr0.0 mm/hr 0.00 in0.0 mm
07:22 PM 11.9°F-11.2°C -3.2°F-19.6°C 50% 16.0 mph NNW25.7 kmh NNW 20.0 mph32.2 kmh 30.53 in1033.9 mb 0.00 in0.0 mm 0.00 in/hr0.0 mm/hr 0.00 in0.0 mm
07:23 PM 11.9°F-11.2°C -3.2°F-19.6°C 50% 15.0 mph N24.1 kmh N 20.0 mph32.2 kmh 30.52 in1033.5 mb 0.00 in0.0 mm 0.00 in/hr0.0 mm/hr 0.00 in0.0 mm
07:24 PM 11.9°F-11.2°C -3.2°F-19.6°C 50% 12.0 mph N19.3 kmh N 20.0 mph32.2 kmh 30.52 in1033.5 mb 0.00 in0.0 mm 0.00 in/hr0.0 mm/hr 0.00 in0.0 mm
07:26 PM 11.9°F-11.2°C -3.2°F-19.6°C 50% 17.0 mph NNW27.4 kmh NNW 20.0 mph32.2 kmh 30.53 in1033.9 mb 0.00 in0.0 mm 0.00 in/hr0.0 mm/hr 0.00 in0.0 mm
07:28 PM 11.9°F-11.2°C -3.2°F-19.6°C 50% 13.0 mph NNW20.9 kmh NNW 20.0 mph32.2 kmh 30.53 in1033.9 mb 0.00 in0.0 mm 0.00 in/hr0.0 mm/hr 0.00 in0.0 mm
07:29 PM 11.8°F-11.2°C -3.3°F-19.6°C 50% 16.0 mph NW25.7 kmh NW 20.0 mph32.2 kmh 30.53 in1033.9 mb 0.00 in0.0 mm 0.00 in/hr0.0 mm/hr 0.00 in0.0 mm
07:30 PM 11.9°F-11.2°C -3.2°F-19.6°C 50% 13.0 mph N20.9 kmh N 20.0 mph32.2 kmh 30.53 in1033.9 mb 0.00 in0.0 mm 0.00 in/hr0.0 mm/hr 0.00 in0.0 mm
07:32 PM 11.8°F-11.2°C -3.3°F-19.6°C 50% 10.0 mph NNW16.1 kmh NNW 14.0 mph22.5 kmh 30.53 in1033.9 mb 0.00 in0.0 mm 0.00 in/hr0.0 mm/hr 0.00 in0.0 mm
07:33 PM 11.7°F-11.3°C -3.3°F-19.6°C 50% 12.0 mph NNW19.3 kmh NNW 17.0 mph27.4 kmh 30.53 in1033.9 mb 0.00 in0.0 mm 0.00 in/hr0.0 mm/hr 0.00 in0.0 mm
07:34 PM 11.7°F-11.3°C -3.3°F-19.6°C 50% 10.0 mph N16.1 kmh N 17.0 mph27.4 kmh 30.53 in1033.9 mb 0.00 in0.0 mm 0.00 in/hr0.0 mm/hr 0.00 in0.0 mm
07:35 PM 11.7°F-11.3°C -2.9°F-19.4°C 51% 13.0 mph NW20.9 kmh NW 17.0 mph27.4 kmh 30.53 in1033.9 mb 0.00 in0.0 mm 0.00 in/hr0.0 mm/hr 0.00 in0.0 mm
07:36 PM 11.7°F-11.3°C -2.9°F-19.4°C 51% 10.0 mph N16.1 kmh N 17.0 mph27.4 kmh 30.53 in1033.9 mb 0.00 in0.0 mm 0.00 in/hr0.0 mm/hr 0.00 in0.0 mm
07:38 PM 11.7°F-11.3°C -2.9°F-19.4°C 51% 14.0 mph NNW22.5 kmh NNW 17.0 mph27.4 kmh 30.53 in1033.9 mb 0.00 in0.0 mm 0.00 in/hr0.0 mm/hr 0.00 in0.0 mm
07:40 PM 11.7°F-11.3°C -2.9°F-19.4°C 51% 14.0 mph N22.5 kmh N 17.0 mph27.4 kmh 30.53 in1033.9 mb 0.00 in0.0 mm 0.00 in/hr0.0 mm/hr 0.00 in0.0 mm
07:41 PM 11.6°F-11.3°C -3.0°F-19.4°C 51% 11.0 mph N17.7 kmh N 19.0 mph30.6 kmh 30.53 in1033.9 mb 0.00 in0.0 mm 0.00 in/hr0.0 mm/hr 0.00 in0.0 mm
07:43 PM 11.6°F-11.3°C -3.0°F-19.4°C 51% 11.0 mph NNW17.7 kmh NNW 19.0 mph30.6 kmh 30.53 in1033.9 mb 0.00 in0.0 mm 0.00 in/hr0.0 mm/hr 0.00 in0.0 mm
07:44 PM 11.6°F-11.3°C -3.0°F-19.4°C 51% 9.0 mph NNW14.5 kmh NNW 19.0 mph30.6 kmh 30.53 in1033.9 mb 0.00 in0.0 mm 0.00 in/hr0.0 mm/hr 0.00 in0.0 mm
07:46 PM 11.6°F-11.3°C -3.0°F-19.4°C 51% 13.0 mph NW20.9 kmh NW 19.0 mph30.6 kmh 30.53 in1033.9 mb 0.00 in0.0 mm 0.00 in/hr0.0 mm/hr 0.00 in0.0 mm
07:47 PM 11.6°F-11.3°C -3.0°F-19.4°C 51% 14.0 mph NNW22.5 kmh NNW 19.0 mph30.6 kmh 30.53 in1033.9 mb 0.00 in0.0 mm 0.00 in/hr0.0 mm/hr 0.00 in0.0 mm
07:49 PM 11.6°F-11.3°C -3.0°F-19.4°C 51% 10.0 mph NNW16.1 kmh NNW 19.0 mph30.6 kmh 30.53 in1033.9 mb 0.00 in0.0 mm 0.00 in/hr0.0 mm/hr 0.00 in0.0 mm
07:50 PM 11.6°F-11.3°C -3.0°F-19.4°C 51% 13.0 mph NNW20.9 kmh NNW 19.0 mph30.6 kmh 30.54 in1034.2 mb 0.00 in0.0 mm 0.00 in/hr0.0 mm/hr 0.00 in0.0 mm
07:52 PM 11.5°F-11.4°C -2.7°F-19.3°C 52% 13.0 mph N20.9 kmh N 19.0 mph30.6 kmh 30.54 in1034.2 mb 0.00 in0.0 mm 0.00 in/hr0.0 mm/hr 0.00 in0.0 mm
07:53 PM 11.5°F-11.4°C -2.7°F-19.3°C 52% 13.0 mph N20.9 kmh N 19.0 mph30.6 kmh 30.54 in1034.2 mb 0.00 in0.0 mm 0.00 in/hr0.0 mm/hr 0.00 in0.0 mm
07:55 PM 11.5°F-11.4°C -2.7°F-19.3°C 52% 10.0 mph NNW16.1 kmh NNW 19.0 mph30.6 kmh 30.54 in1034.2 mb 0.00 in0.0 mm 0.00 in/hr0.0 mm/hr 0.00 in0.0 mm
07:56 PM 11.5°F-11.4°C -2.7°F-19.3°C 52% 12.0 mph NNW19.3 kmh NNW 19.0 mph30.6 kmh 30.54 in1034.2 mb 0.00 in0.0 mm 0.00 in/hr0.0 mm/hr 0.00 in0.0 mm
07:58 PM 11.5°F-11.4°C -2.7°F-19.3°C 52% 8.0 mph N12.9 kmh N 19.0 mph30.6 kmh 30.54 in1034.2 mb 0.00 in0.0 mm 0.00 in/hr0.0 mm/hr 0.00 in0.0 mm
08:00 PM 11.4°F-11.4°C -2.8°F-19.3°C 52% 10.0 mph NNW16.1 kmh NNW 19.0 mph30.6 kmh 30.54 in1034.2 mb 0.00 in0.0 mm 0.00 in/hr0.0 mm/hr 0.00 in0.0 mm
08:02 PM 11.3°F-11.5°C -2.5°F-19.2°C 53% 12.0 mph NNW19.3 kmh NNW 12.0 mph19.3 kmh 30.54 in1034.2 mb 0.00 in0.0 mm 0.00 in/hr0.0 mm/hr 0.00 in0.0 mm
08:04 PM 11.3°F-11.5°C -2.5°F-19.2°C 53% 10.0 mph N16.1 kmh N 15.0 mph24.1 kmh 30.54 in1034.2 mb 0.00 in0.0 mm 0.00 in/hr0.0 mm/hr 0.00 in0.0 mm
08:05 PM 11.3°F-11.5°C -2.5°F-19.2°C 53% 9.0 mph N14.5 kmh N 15.0 mph24.1 kmh 30.54 in1034.2 mb 0.00 in0.0 mm 0.00 in/hr0.0 mm/hr 0.00 in0.0 mm
08:06 PM 11.2°F-11.6°C -2.6°F-19.2°C 53% 13.0 mph NNW20.9 kmh NNW 16.0 mph25.7 kmh 30.54 in1034.2 mb 0.00 in0.0 mm 0.00 in/hr0.0 mm/hr 0.00 in0.0 mm
08:07 PM 11.3°F-11.5°C -2.5°F-19.2°C 53% 12.0 mph NNW19.3 kmh NNW 16.0 mph25.7 kmh 30.54 in1034.2 mb 0.00 in0.0 mm 0.00 in/hr0.0 mm/hr 0.00 in0.0 mm
08:09 PM 11.3°F-11.5°C -2.5°F-19.2°C 53% 9.0 mph N14.5 kmh N 16.0 mph25.7 kmh 30.54 in1034.2 mb 0.00 in0.0 mm 0.00 in/hr0.0 mm/hr 0.00 in0.0 mm
08:10 PM 11.2°F-11.6°C -2.2°F-19.0°C 54% 14.0 mph NNW22.5 kmh NNW 16.0 mph25.7 kmh 30.54 in1034.2 mb 0.00 in0.0 mm 0.00 in/hr0.0 mm/hr 0.00 in0.0 mm
08:11 PM 11.2°F-11.6°C -2.2°F-19.0°C 54% 10.0 mph NNW16.1 kmh NNW 16.0 mph25.7 kmh 30.54 in1034.2 mb 0.00 in0.0 mm 0.00 in/hr0.0 mm/hr 0.00 in0.0 mm
08:12 PM 11.2°F-11.6°C -2.2°F-19.0°C 54% 11.0 mph NNW17.7 kmh NNW 16.0 mph25.7 kmh 30.54 in1034.2 mb 0.00 in0.0 mm 0.00 in/hr0.0 mm/hr 0.00 in0.0 mm
08:13 PM 11.2°F-11.6°C -2.2°F-19.0°C 54% 11.0 mph NNW17.7 kmh NNW 16.0 mph25.7 kmh 30.54 in1034.2 mb 0.00 in0.0 mm 0.00 in/hr0.0 mm/hr 0.00 in0.0 mm
08:14 PM 11.2°F-11.6°C -2.2°F-19.0°C 54% 10.0 mph NNW16.1 kmh NNW 16.0 mph25.7 kmh 30.54 in1034.2 mb 0.00 in0.0 mm 0.00 in/hr0.0 mm/hr 0.00 in0.0 mm
08:15 PM 11.2°F-11.6°C -2.2°F-19.0°C 54% 10.0 mph NW16.1 kmh NW 16.0 mph25.7 kmh 30.54 in1034.2 mb 0.00 in0.0 mm 0.00 in/hr0.0 mm/hr 0.00 in0.0 mm
08:16 PM 11.1°F-11.6°C -2.3°F-19.1°C 54% 10.0 mph NNW16.1 kmh NNW 16.0 mph25.7 kmh 30.54 in1034.2 mb 0.00 in0.0 mm 0.00 in/hr0.0 mm/hr 0.00 in0.0 mm
08:17 PM 11.1°F-11.6°C -2.3°F-19.1°C 54% 12.0 mph N19.3 kmh N 16.0 mph25.7 kmh 30.54 in1034.2 mb 0.00 in0.0 mm 0.00 in/hr0.0 mm/hr 0.00 in0.0 mm
08:19 PM 11.1°F-11.6°C -2.3°F-19.1°C 54% 13.0 mph NW20.9 kmh NW 16.0 mph25.7 kmh 30.55 in1034.5 mb 0.00 in0.0 mm 0.00 in/hr0.0 mm/hr 0.00 in0.0 mm
08:20 PM 11.1°F-11.6°C -2.3°F-19.1°C 54% 10.0 mph NW16.1 kmh NW 16.0 mph25.7 kmh 30.55 in1034.5 mb 0.00 in0.0 mm 0.00 in/hr0.0 mm/hr 0.00 in0.0 mm
08:21 PM 11.1°F-11.6°C -1.9°F-18.8°C 55% 11.0 mph NNW17.7 kmh NNW 16.0 mph25.7 kmh 30.55 in1034.5 mb 0.00 in0.0 mm 0.00 in/hr0.0 mm/hr 0.00 in0.0 mm
08:22 PM 11.1°F-11.6°C -1.9°F-18.8°C 55% 10.0 mph NNW16.1 kmh NNW 16.0 mph25.7 kmh 30.55 in1034.5 mb 0.00 in0.0 mm 0.00 in/hr0.0 mm/hr 0.00 in0.0 mm
08:24 PM 11.0°F-11.7°C -2.0°F-18.9°C 55% 11.0 mph N17.7 kmh N 16.0 mph25.7 kmh 30.55 in1034.5 mb 0.00 in0.0 mm 0.00 in/hr0.0 mm/hr 0.00 in0.0 mm
08:25 PM 11.0°F-11.7°C -2.0°F-18.9°C 55% 10.0 mph NNW16.1 kmh NNW 16.0 mph25.7 kmh 30.55 in1034.5 mb 0.00 in0.0 mm 0.00 in/hr0.0 mm/hr 0.00 in0.0 mm
08:26 PM 11.0°F-11.7°C -2.0°F-18.9°C 55% 13.0 mph NNW20.9 kmh NNW 16.0 mph25.7 kmh 30.55 in1034.5 mb 0.00 in0.0 mm 0.00 in/hr0.0 mm/hr 0.00 in0.0 mm
08:28 PM 11.0°F-11.7°C -2.0°F-18.9°C 55% 11.0 mph NW17.7 kmh NW 16.0 mph25.7 kmh 30.55 in1034.5 mb 0.00 in0.0 mm 0.00 in/hr0.0 mm/hr 0.00 in0.0 mm
08:30 PM 10.9°F-11.7°C -2.1°F-18.9°C 55% 11.0 mph NNW17.7 kmh NNW 16.0 mph25.7 kmh 30.55 in1034.5 mb 0.00 in0.0 mm 0.00 in/hr0.0 mm/hr 0.00 in0.0 mm
08:31 PM 10.9°F-11.7°C -2.1°F-18.9°C 55% 11.0 mph NNW17.7 kmh NNW 14.0 mph22.5 kmh 30.55 in1034.5 mb 0.00 in0.0 mm 0.00 in/hr0.0 mm/hr 0.00 in0.0 mm
08:33 PM 10.9°F-11.7°C -1.7°F-18.7°C 56% 9.0 mph NNW14.5 kmh NNW 14.0 mph22.5 kmh 30.55 in1034.5 mb 0.00 in0.0 mm 0.00 in/hr0.0 mm/hr 0.00 in0.0 mm
08:35 PM 10.9°F-11.7°C -1.7°F-18.7°C 56% 11.0 mph N17.7 kmh N 15.0 mph24.1 kmh 30.55 in1034.5 mb 0.00 in0.0 mm 0.00 in/hr0.0 mm/hr 0.00 in0.0 mm
08:36 PM 10.8°F-11.8°C -1.8°F-18.8°C 56% 9.0 mph NNW14.5 kmh NNW 15.0 mph24.1 kmh 30.55 in1034.5 mb 0.00 in0.0 mm 0.00 in/hr0.0 mm/hr 0.00 in0.0 mm
08:38 PM 10.8°F-11.8°C -1.8°F-18.8°C 56% 8.0 mph NNW12.9 kmh NNW 15.0 mph24.1 kmh 30.55 in1034.5 mb 0.00 in0.0 mm 0.00 in/hr0.0 mm/hr 0.00 in0.0 mm
08:40 PM 10.7°F-11.8°C -1.9°F-18.8°C 56% 11.0 mph NNW17.7 kmh NNW 15.0 mph24.1 kmh 30.56 in1034.9 mb 0.00 in0.0 mm 0.00 in/hr0.0 mm/hr 0.00 in0.0 mm
08:42 PM 10.7°F-11.8°C -1.5°F-18.6°C 57% 8.0 mph N12.9 kmh N 15.0 mph24.1 kmh 30.56 in1034.9 mb 0.00 in0.0 mm 0.00 in/hr0.0 mm/hr 0.00 in0.0 mm
08:43 PM 10.7°F-11.8°C -1.5°F-18.6°C 57% 10.0 mph NNW16.1 kmh NNW 15.0 mph24.1 kmh 30.56 in1034.9 mb 0.00 in0.0 mm 0.00 in/hr0.0 mm/hr 0.00 in0.0 mm
08:45 PM 10.6°F-11.9°C -1.6°F-18.7°C 57% 11.0 mph NNW17.7 kmh NNW 15.0 mph24.1 kmh 30.56 in1034.9 mb 0.00 in0.0 mm 0.00 in/hr0.0 mm/hr 0.00 in0.0 mm
08:46 PM 10.6°F-11.9°C -1.6°F-18.7°C 57% 13.0 mph NNW20.9 kmh NNW 15.0 mph24.1 kmh 30.56 in1034.9 mb 0.00 in0.0 mm 0.00 in/hr0.0 mm/hr 0.00 in0.0 mm
08:48 PM 10.6°F-11.9°C -1.6°F-18.7°C 57% 8.0 mph NNW12.9 kmh NNW 15.0 mph24.1 kmh 30.56 in1034.9 mb 0.00 in0.0 mm 0.00 in/hr0.0 mm/hr 0.00 in0.0 mm
08:50 PM 10.5°F-11.9°C -1.7°F-18.7°C 57% 13.0 mph NNW20.9 kmh NNW 16.0 mph25.7 kmh 30.56 in1034.9 mb 0.00 in0.0 mm 0.00 in/hr0.0 mm/hr 0.00 in0.0 mm
08:51 PM 10.5°F-11.9°C -1.7°F-18.7°C 57% 8.0 mph NNW12.9 kmh NNW 16.0 mph25.7 kmh 30.56 in1034.9 mb 0.00 in0.0 mm 0.00 in/hr0.0 mm/hr 0.00 in0.0 mm
08:53 PM 10.5°F-11.9°C -1.7°F-18.7°C 57% 10.0 mph N16.1 kmh N 16.0 mph25.7 kmh 30.56 in1034.9 mb 0.00 in0.0 mm 0.00 in/hr0.0 mm/hr 0.00 in0.0 mm
08:55 PM 10.5°F-11.9°C -1.7°F-18.7°C 57% 10.0 mph NNW16.1 kmh NNW 16.0 mph25.7 kmh 30.57 in1035.2 mb 0.00 in0.0 mm 0.00 in/hr0.0 mm/hr 0.00 in0.0 mm
08:57 PM 10.5°F-11.9°C -1.7°F-18.7°C 57% 15.0 mph NNW24.1 kmh NNW 16.0 mph25.7 kmh 30.56 in1034.9 mb 0.00 in0.0 mm 0.00 in/hr0.0 mm/hr 0.00 in0.0 mm
08:58 PM 10.5°F-11.9°C -1.7°F-18.7°C 57% 17.0 mph N27.4 kmh N 17.0 mph27.4 kmh 30.56 in1034.9 mb 0.00 in0.0 mm 0.00 in/hr0.0 mm/hr 0.00 in0.0 mm
08:59 PM 10.5°F-11.9°C -2.1°F-18.9°C 56% 10.0 mph N16.1 kmh N 17.0 mph27.4 kmh 30.56 in1034.9 mb 0.00 in0.0 mm 0.00 in/hr0.0 mm/hr 0.00 in0.0 mm
09:00 PM 10.5°F-11.9°C -2.1°F-18.9°C 56% 12.0 mph NNW19.3 kmh NNW 17.0 mph27.4 kmh 30.56 in1034.9 mb 0.00 in0.0 mm 0.00 in/hr0.0 mm/hr 0.00 in0.0 mm
09:01 PM 10.5°F-11.9°C -2.1°F-18.9°C 56% 12.0 mph NNW19.3 kmh NNW 12.0 mph19.3 kmh 30.57 in1035.2 mb 0.00 in0.0 mm 0.00 in/hr0.0 mm/hr 0.00 in0.0 mm
09:02 PM 10.5°F-11.9°C -2.1°F-18.9°C 56% 11.0 mph NNW17.7 kmh NNW 12.0 mph19.3 kmh 30.57 in1035.2 mb 0.00 in0.0 mm 0.00 in/hr0.0 mm/hr 0.00 in0.0 mm
09:03 PM 10.5°F-11.9°C -1.7°F-18.7°C 57% 12.0 mph NNW19.3 kmh NNW 13.0 mph20.9 kmh 30.57 in1035.2 mb 0.00 in0.0 mm 0.00 in/hr0.0 mm/hr 0.00 in0.0 mm
09:05 PM 10.4°F-12.0°C -2.2°F-19.0°C 56% 12.0 mph N19.3 kmh N 15.0 mph24.1 kmh 30.57 in1035.2 mb 0.00 in0.0 mm 0.00 in/hr0.0 mm/hr 0.00 in0.0 mm
09:07 PM 10.4°F-12.0°C -2.2°F-19.0°C 56% 13.0 mph N20.9 kmh N 15.0 mph24.1 kmh 30.57 in1035.2 mb 0.00 in0.0 mm 0.00 in/hr0.0 mm/hr 0.00 in0.0 mm
09:08 PM 10.4°F-12.0°C -2.2°F-19.0°C 56% 9.0 mph NNW14.5 kmh NNW 15.0 mph24.1 kmh 30.57 in1035.2 mb 0.00 in0.0 mm 0.00 in/hr0.0 mm/hr 0.00 in0.0 mm
09:10 PM 10.4°F-12.0°C -2.2°F-19.0°C 56% 11.0 mph NNW17.7 kmh NNW 15.0 mph24.1 kmh 30.57 in1035.2 mb 0.00 in0.0 mm 0.00 in/hr0.0 mm/hr 0.00 in0.0 mm
09:12 PM 10.4°F-12.0°C -2.6°F-19.2°C 55% 14.0 mph NW22.5 kmh NW 15.0 mph24.1 kmh 30.57 in1035.2 mb 0.00 in0.0 mm 0.00 in/hr0.0 mm/hr 0.00 in0.0 mm
09:14 PM 10.4°F-12.0°C -2.6°F-19.2°C 55% 12.0 mph NNW19.3 kmh NNW 17.0 mph27.4 kmh 30.57 in1035.2 mb 0.00 in0.0 mm 0.00 in/hr0.0 mm/hr 0.00 in0.0 mm
09:15 PM 10.4°F-12.0°C -2.6°F-19.2°C 55% 9.0 mph NNW14.5 kmh NNW 17.0 mph27.4 kmh 30.57 in1035.2 mb 0.00 in0.0 mm 0.00 in/hr0.0 mm/hr 0.00 in0.0 mm
09:17 PM 10.3°F-12.1°C -2.7°F-19.3°C 55% 8.0 mph NNW12.9 kmh NNW 17.0 mph27.4 kmh 30.57 in1035.2 mb 0.00 in0.0 mm 0.00 in/hr0.0 mm/hr 0.00 in0.0 mm
09:19 PM 10.3°F-12.1°C -2.7°F-19.3°C 55% 10.0 mph NNW16.1 kmh NNW 17.0 mph27.4 kmh 30.57 in1035.2 mb 0.00 in0.0 mm 0.00 in/hr0.0 mm/hr 0.00 in0.0 mm
09:20 PM 10.2°F-12.1°C -2.7°F-19.3°C 55% 10.0 mph NW16.1 kmh NW 17.0 mph27.4 kmh 30.58 in1035.6 mb 0.00 in0.0 mm 0.00 in/hr0.0 mm/hr 0.00 in0.0 mm
09:22 PM 10.2°F-12.1°C -2.7°F-19.3°C 55% 13.0 mph NNW20.9 kmh NNW 17.0 mph27.4 kmh 30.58 in1035.6 mb 0.00 in0.0 mm 0.00 in/hr0.0 mm/hr 0.00 in0.0 mm
09:23 PM 10.2°F-12.1°C -2.7°F-19.3°C 55% 12.0 mph NW19.3 kmh NW 17.0 mph27.4 kmh 30.58 in1035.6 mb 0.00 in0.0 mm 0.00 in/hr0.0 mm/hr 0.00 in0.0 mm
09:25 PM 10.2°F-12.1°C -2.7°F-19.3°C 55% 10.0 mph NW16.1 kmh NW 17.0 mph27.4 kmh 30.58 in1035.6 mb 0.00 in0.0 mm 0.00 in/hr0.0 mm/hr 0.00 in0.0 mm
09:27 PM 10.1°F-12.2°C -2.8°F-19.3°C 55% 12.0 mph NNW19.3 kmh NNW 17.0 mph27.4 kmh 30.58 in1035.6 mb 0.00 in0.0 mm 0.00 in/hr0.0 mm/hr 0.00 in0.0 mm
09:28 PM 10.1°F-12.2°C -2.8°F-19.3°C 55% 10.0 mph NNW16.1 kmh NNW 17.0 mph27.4 kmh 30.58 in1035.6 mb 0.00 in0.0 mm 0.00 in/hr0.0 mm/hr 0.00 in0.0 mm
09:30 PM 10.1°F-12.2°C -2.8°F-19.3°C 55% 12.0 mph NNW19.3 kmh NNW 17.0 mph27.4 kmh 30.58 in1035.6 mb 0.00 in0.0 mm 0.00 in/hr0.0 mm/hr 0.00 in0.0 mm
09:32 PM 10.1°F-12.2°C -2.8°F-19.3°C 55% 10.0 mph NNW16.1 kmh NNW 16.0 mph25.7 kmh 30.58 in1035.6 mb 0.00 in0.0 mm 0.00 in/hr0.0 mm/hr 0.00 in0.0 mm
09:33 PM 10.1°F-12.2°C -2.8°F-19.3°C 55% 12.0 mph NW19.3 kmh NW 16.0 mph25.7 kmh 30.58 in1035.6 mb 0.00 in0.0 mm 0.00 in/hr0.0 mm/hr 0.00 in0.0 mm
09:35 PM 10.0°F-12.2°C -2.9°F-19.4°C 55% 12.0 mph NW19.3 kmh NW 16.0 mph25.7 kmh 30.59 in1035.9 mb 0.00 in0.0 mm 0.00 in/hr0.0 mm/hr 0.00 in0.0 mm
09:37 PM 10.0°F-12.2°C -2.9°F-19.4°C 55% 14.0 mph NNW22.5 kmh NNW 16.0 mph25.7 kmh 30.59 in1035.9 mb 0.00 in0.0 mm 0.00 in/hr0.0 mm/hr 0.00 in0.0 mm
09:38 PM 10.0°F-12.2°C -2.9°F-19.4°C 55% 12.0 mph NNW19.3 kmh NNW 16.0 mph25.7 kmh 30.59 in1035.9 mb 0.00 in0.0 mm 0.00 in/hr0.0 mm/hr 0.00 in0.0 mm
09:40 PM 9.9°F-12.3°C -2.7°F-19.3°C 56% 10.0 mph NW16.1 kmh NW 16.0 mph25.7 kmh 30.59 in1035.9 mb 0.00 in0.0 mm 0.00 in/hr0.0 mm/hr 0.00 in0.0 mm
09:41 PM 9.8°F-12.3°C -2.7°F-19.3°C 56% 10.0 mph NW16.1 kmh NW 16.0 mph25.7 kmh 30.59 in1035.9 mb 0.00 in0.0 mm 0.00 in/hr0.0 mm/hr 0.00 in0.0 mm
09:43 PM 9.8°F-12.3°C -2.4°F-19.1°C 57% 11.0 mph NW17.7 kmh NW 16.0 mph25.7 kmh 30.59 in1035.9 mb 0.00 in0.0 mm 0.00 in/hr0.0 mm/hr 0.00 in0.0 mm
09:44 PM 9.7°F-12.4°C -2.5°F-19.2°C 57% 8.0 mph NW12.9 kmh NW 16.0 mph25.7 kmh 30.59 in1035.9 mb 0.00 in0.0 mm 0.00 in/hr0.0 mm/hr 0.00 in0.0 mm
09:46 PM 9.6°F-12.4°C -2.6°F-19.2°C 57% 10.0 mph NW16.1 kmh NW 16.0 mph25.7 kmh 30.59 in1035.9 mb 0.00 in0.0 mm 0.00 in/hr0.0 mm/hr 0.00 in0.0 mm
09:47 PM 9.6°F-12.4°C -2.2°F-19.0°C 58% 8.0 mph NW12.9 kmh NW 16.0 mph25.7 kmh 30.59 in1035.9 mb 0.00 in0.0 mm 0.00 in/hr0.0 mm/hr 0.00 in0.0 mm
09:49 PM 9.5°F-12.5°C -2.3°F-19.1°C 58% 11.0 mph NNW17.7 kmh NNW 16.0 mph25.7 kmh 30.59 in1035.9 mb 0.00 in0.0 mm 0.00 in/hr0.0 mm/hr 0.00 in0.0 mm
09:50 PM 9.4°F-12.6°C -2.4°F-19.1°C 58% 7.0 mph NW11.3 kmh NW 16.0 mph25.7 kmh 30.59 in1035.9 mb 0.00 in0.0 mm 0.00 in/hr0.0 mm/hr 0.00 in0.0 mm
09:51 PM 9.4°F-12.6°C -2.0°F-18.9°C 59% 7.0 mph NW11.3 kmh NW 16.0 mph25.7 kmh 30.60 in1036.2 mb 0.00 in0.0 mm 0.00 in/hr0.0 mm/hr 0.00 in0.0 mm
09:53 PM 9.3°F-12.6°C -2.1°F-18.9°C 59% 9.0 mph NW14.5 kmh NW 16.0 mph25.7 kmh 30.60 in1036.2 mb 0.00 in0.0 mm 0.00 in/hr0.0 mm/hr 0.00 in0.0 mm
09:54 PM 9.3°F-12.6°C -2.1°F-18.9°C 59% 9.0 mph NW14.5 kmh NW 16.0 mph25.7 kmh 30.60 in1036.2 mb 0.00 in0.0 mm 0.00 in/hr0.0 mm/hr 0.00 in0.0 mm
09:56 PM 9.2°F-12.7°C -2.2°F-19.0°C 59% 10.0 mph NW16.1 kmh NW 16.0 mph25.7 kmh 30.60 in1036.2 mb 0.00 in0.0 mm 0.00 in/hr0.0 mm/hr 0.00 in0.0 mm
09:57 PM 9.2°F-12.7°C -2.2°F-19.0°C 59% 9.0 mph NW14.5 kmh NW 16.0 mph25.7 kmh 30.60 in1036.2 mb 0.00 in0.0 mm 0.00 in/hr0.0 mm/hr 0.00 in0.0 mm
09:58 PM 9.1°F-12.7°C -2.3°F-19.1°C 59% 9.0 mph NW14.5 kmh NW 16.0 mph25.7 kmh 30.60 in1036.2 mb 0.00 in0.0 mm 0.00 in/hr0.0 mm/hr 0.00 in0.0 mm
10:00 PM 9.0°F-12.8°C -2.4°F-19.1°C 59% 10.0 mph NW16.1 kmh NW 16.0 mph25.7 kmh 30.60 in1036.2 mb 0.00 in0.0 mm 0.00 in/hr0.0 mm/hr 0.00 in0.0 mm
10:01 PM 9.0°F-12.8°C -2.4°F-19.1°C 59% 13.0 mph NNW20.9 kmh NNW 13.0 mph20.9 kmh 30.60 in1036.2 mb 0.00 in0.0 mm 0.00 in/hr0.0 mm/hr 0.00 in0.0 mm
10:02 PM 9.0°F-12.8°C -2.4°F-19.1°C 59% 10.0 mph NW16.1 kmh NW 15.0 mph24.1 kmh 30.60 in1036.2 mb 0.00 in0.0 mm 0.00 in/hr0.0 mm/hr 0.00 in0.0 mm
10:03 PM 8.9°F-12.8°C -2.5°F-19.2°C 59% 10.0 mph NW16.1 kmh NW 15.0 mph24.1 kmh 30.61 in1036.6 mb 0.00 in0.0 mm 0.00 in/hr0.0 mm/hr 0.00 in0.0 mm
10:05 PM 8.9°F-12.8°C -2.5°F-19.2°C 59% 9.0 mph NW14.5 kmh NW 15.0 mph24.1 kmh 30.61 in1036.6 mb 0.00 in0.0 mm 0.00 in/hr0.0 mm/hr 0.00 in0.0 mm
10:07 PM 8.9°F-12.8°C -2.9°F-19.4°C 58% 13.0 mph NW20.9 kmh NW 15.0 mph24.1 kmh 30.61 in1036.6 mb 0.00 in0.0 mm 0.00 in/hr0.0 mm/hr 0.00 in0.0 mm
10:08 PM 8.9°F-12.8°C -2.9°F-19.4°C 58% 13.0 mph NW20.9 kmh NW 15.0 mph24.1 kmh 30.61 in1036.6 mb 0.00 in0.0 mm 0.00 in/hr0.0 mm/hr 0.00 in0.0 mm
10:09 PM 8.9°F-12.8°C -2.9°F-19.4°C 58% 13.0 mph NW20.9 kmh NW 15.0 mph24.1 kmh 30.61 in1036.6 mb 0.00 in0.0 mm 0.00 in/hr0.0 mm/hr 0.00 in0.0 mm
10:10 PM 8.9°F-12.8°C -2.9°F-19.4°C 58% 10.0 mph NW16.1 kmh NW 15.0 mph24.1 kmh 30.61 in1036.6 mb 0.00 in0.0 mm 0.00 in/hr0.0 mm/hr 0.00 in0.0 mm
10:11 PM 8.9°F-12.8°C -2.9°F-19.4°C 58% 8.0 mph NW12.9 kmh NW 15.0 mph24.1 kmh 30.61 in1036.6 mb 0.00 in0.0 mm 0.00 in/hr0.0 mm/hr 0.00 in0.0 mm
10:13 PM 8.9°F-12.8°C -2.9°F-19.4°C 58% 11.0 mph NW17.7 kmh NW 15.0 mph24.1 kmh 30.61 in1036.6 mb 0.00 in0.0 mm 0.00 in/hr0.0 mm/hr 0.00 in0.0 mm
10:14 PM 8.9°F-12.8°C -2.9°F-19.4°C 58% 10.0 mph NNW16.1 kmh NNW 15.0 mph24.1 kmh 30.61 in1036.6 mb 0.00 in0.0 mm 0.00 in/hr0.0 mm/hr 0.00 in0.0 mm
10:15 PM 8.8°F-12.9°C -3.0°F-19.4°C 58% 10.0 mph NW16.1 kmh NW 15.0 mph24.1 kmh 30.61 in1036.6 mb 0.00 in0.0 mm 0.00 in/hr0.0 mm/hr 0.00 in0.0 mm
10:16 PM 8.8°F-12.9°C -3.0°F-19.4°C 58% 10.0 mph NW16.1 kmh NW 15.0 mph24.1 kmh 30.61 in1036.6 mb 0.00 in0.0 mm 0.00 in/hr0.0 mm/hr 0.00 in0.0 mm
10:18 PM 8.8°F-12.9°C -3.0°F-19.4°C 58% 12.0 mph NW19.3 kmh NW 15.0 mph24.1 kmh 30.61 in1036.6 mb 0.00 in0.0 mm 0.00 in/hr0.0 mm/hr 0.00 in0.0 mm
10:19 PM 8.7°F-12.9°C -3.0°F-19.4°C 58% 13.0 mph NNW20.9 kmh NNW 16.0 mph25.7 kmh 30.61 in1036.6 mb 0.00 in0.0 mm 0.00 in/hr0.0 mm/hr 0.00 in0.0 mm
10:20 PM 8.7°F-12.9°C -3.0°F-19.4°C 58% 15.0 mph NNW24.1 kmh NNW 16.0 mph25.7 kmh 30.61 in1036.6 mb 0.00 in0.0 mm 0.00 in/hr0.0 mm/hr 0.00 in0.0 mm
10:21 PM 8.7°F-12.9°C -3.4°F-19.7°C 57% 12.0 mph NNW19.3 kmh NNW 16.0 mph25.7 kmh 30.61 in1036.6 mb 0.00 in0.0 mm 0.00 in/hr0.0 mm/hr 0.00 in0.0 mm
10:22 PM 8.7°F-12.9°C -3.0°F-19.4°C 58% 12.0 mph NW19.3 kmh NW 16.0 mph25.7 kmh 30.61 in1036.6 mb 0.00 in0.0 mm 0.00 in/hr0.0 mm/hr 0.00 in0.0 mm
10:23 PM 8.8°F-12.9°C -3.3°F-19.6°C 57% 12.0 mph NW19.3 kmh NW 18.0 mph29.0 kmh 30.61 in1036.6 mb 0.00 in0.0 mm 0.00 in/hr0.0 mm/hr 0.00 in0.0 mm
10:25 PM 8.8°F-12.9°C -3.3°F-19.6°C 57% 13.0 mph NW20.9 kmh NW 18.0 mph29.0 kmh 30.61 in1036.6 mb 0.00 in0.0 mm 0.00 in/hr0.0 mm/hr 0.00 in0.0 mm
10:27 PM 8.8°F-12.9°C -3.3°F-19.6°C 57% 18.0 mph NW29.0 kmh NW 18.0 mph29.0 kmh 30.61 in1036.6 mb 0.00 in0.0 mm 0.00 in/hr0.0 mm/hr 0.00 in0.0 mm
10:28 PM 8.8°F-12.9°C -3.7°F-19.8°C 56% 13.0 mph NW20.9 kmh NW 18.0 mph29.0 kmh 30.62 in1036.9 mb 0.00 in0.0 mm 0.00 in/hr0.0 mm/hr 0.00 in0.0 mm
10:30 PM 8.8°F-12.9°C -3.7°F-19.8°C 56% 10.0 mph NW16.1 kmh NW 18.0 mph29.0 kmh 30.62 in1036.9 mb 0.00 in0.0 mm 0.00 in/hr0.0 mm/hr 0.00 in0.0 mm
10:31 PM 8.8°F-12.9°C -3.3°F-19.6°C 57% 8.0 mph NW12.9 kmh NW 12.0 mph19.3 kmh 30.62 in1036.9 mb 0.00 in0.0 mm 0.00 in/hr0.0 mm/hr 0.00 in0.0 mm
10:33 PM 8.7°F-12.9°C -3.4°F-19.7°C 57% 13.0 mph NW20.9 kmh NW 15.0 mph24.1 kmh 30.62 in1036.9 mb 0.00 in0.0 mm 0.00 in/hr0.0 mm/hr 0.00 in0.0 mm
10:34 PM 8.6°F-13.0°C -3.5°F-19.7°C 57% 11.0 mph NW17.7 kmh NW 15.0 mph24.1 kmh 30.62 in1036.9 mb 0.00 in0.0 mm 0.00 in/hr0.0 mm/hr 0.00 in0.0 mm
10:36 PM 8.6°F-13.0°C -3.5°F-19.7°C 57% 12.0 mph NW19.3 kmh NW 16.0 mph25.7 kmh 30.62 in1036.9 mb 0.00 in0.0 mm 0.00 in/hr0.0 mm/hr 0.00 in0.0 mm
10:37 PM 8.5°F-13.1°C -3.6°F-19.8°C 57% 14.0 mph NW22.5 kmh NW 16.0 mph25.7 kmh 30.62 in1036.9 mb 0.00 in0.0 mm 0.00 in/hr0.0 mm/hr 0.00 in0.0 mm
10:39 PM 8.5°F-13.1°C -3.6°F-19.8°C 57% 13.0 mph NW20.9 kmh NW 16.0 mph25.7 kmh 30.62 in1036.9 mb 0.00 in0.0 mm 0.00 in/hr0.0 mm/hr 0.00 in0.0 mm
10:40 PM 8.5°F-13.1°C -3.6°F-19.8°C 57% 12.0 mph NW19.3 kmh NW 17.0 mph27.4 kmh 30.62 in1036.9 mb 0.00 in0.0 mm 0.00 in/hr0.0 mm/hr 0.00 in0.0 mm
10:42 PM 8.4°F-13.1°C -3.7°F-19.8°C 57% 14.0 mph NW22.5 kmh NW 17.0 mph27.4 kmh 30.63 in1037.3 mb 0.00 in0.0 mm 0.00 in/hr0.0 mm/hr 0.00 in0.0 mm
10:44 PM 8.3°F-13.2°C -3.4°F-19.7°C 58% 11.0 mph NW17.7 kmh NW 17.0 mph27.4 kmh 30.63 in1037.3 mb 0.00 in0.0 mm 0.00 in/hr0.0 mm/hr 0.00 in0.0 mm
10:45 PM 8.2°F-13.2°C -3.5°F-19.7°C 58% 10.0 mph NW16.1 kmh NW 17.0 mph27.4 kmh 30.63 in1037.3 mb 0.00 in0.0 mm 0.00 in/hr0.0 mm/hr 0.00 in0.0 mm
10:46 PM 8.1°F-13.3°C -3.6°F-19.8°C 58% 16.0 mph NW25.7 kmh NW 18.0 mph29.0 kmh 30.63 in1037.3 mb 0.00 in0.0 mm 0.00 in/hr0.0 mm/hr 0.00 in0.0 mm
10:47 PM 8.0°F-13.3°C -3.4°F-19.7°C 59% 16.0 mph NW25.7 kmh NW 18.0 mph29.0 kmh 30.63 in1037.3 mb 0.00 in0.0 mm 0.00 in/hr0.0 mm/hr 0.00 in0.0 mm
10:49 PM 7.8°F-13.4°C -3.5°F-19.7°C 59% 12.0 mph NW19.3 kmh NW 18.0 mph29.0 kmh 30.63 in1037.3 mb 0.00 in0.0 mm 0.00 in/hr0.0 mm/hr 0.00 in0.0 mm
10:50 PM 7.7°F-13.5°C -3.3°F-19.6°C 60% 14.0 mph NW22.5 kmh NW 18.0 mph29.0 kmh 30.63 in1037.3 mb 0.00 in0.0 mm 0.00 in/hr0.0 mm/hr 0.00 in0.0 mm
10:51 PM 7.6°F-13.6°C -3.4°F-19.7°C 60% 12.0 mph NW19.3 kmh NW 18.0 mph29.0 kmh 30.63 in1037.3 mb 0.00 in0.0 mm 0.00 in/hr0.0 mm/hr 0.00 in0.0 mm
10:53 PM 7.4°F-13.7°C -3.6°F-19.8°C 60% 13.0 mph NW20.9 kmh NW 18.0 mph29.0 kmh 30.63 in1037.3 mb 0.00 in0.0 mm 0.00 in/hr0.0 mm/hr 0.00 in0.0 mm
10:55 PM 7.2°F-13.8°C -3.4°F-19.7°C 61% 12.0 mph NW19.3 kmh NW 18.0 mph29.0 kmh 30.63 in1037.3 mb 0.00 in0.0 mm 0.00 in/hr0.0 mm/hr 0.00 in0.0 mm
10:57 PM 7.1°F-13.8°C -3.2°F-19.6°C 62% 14.0 mph NW22.5 kmh NW 18.0 mph29.0 kmh 30.64 in1037.6 mb 0.00 in0.0 mm 0.00 in/hr0.0 mm/hr 0.00 in0.0 mm
10:59 PM 6.9°F-13.9°C -3.4°F-19.7°C 62% 12.0 mph NW19.3 kmh NW 18.0 mph29.0 kmh 30.64 in1037.6 mb 0.00 in0.0 mm 0.00 in/hr0.0 mm/hr 0.00 in0.0 mm
11:00 PM 6.8°F-14.0°C -3.5°F-19.7°C 62% 14.0 mph NW22.5 kmh NW 18.0 mph29.0 kmh 30.64 in1037.6 mb 0.00 in0.0 mm 0.00 in/hr0.0 mm/hr 0.00 in0.0 mm
11:02 PM 6.7°F-14.1°C -3.5°F-19.7°C 62% 12.0 mph NW19.3 kmh NW 14.0 mph22.5 kmh 30.64 in1037.6 mb 0.00 in0.0 mm 0.00 in/hr0.0 mm/hr 0.00 in0.0 mm
11:03 PM 6.7°F-14.1°C -3.2°F-19.6°C 63% 12.0 mph NW19.3 kmh NW 14.0 mph22.5 kmh 30.64 in1037.6 mb 0.00 in0.0 mm 0.00 in/hr0.0 mm/hr 0.00 in0.0 mm
11:05 PM 6.5°F-14.2°C -3.4°F-19.7°C 63% 13.0 mph NW20.9 kmh NW 15.0 mph24.1 kmh 30.64 in1037.6 mb 0.00 in0.0 mm 0.00 in/hr0.0 mm/hr 0.00 in0.0 mm
11:07 PM 6.4°F-14.2°C -3.5°F-19.7°C 63% 12.0 mph NW19.3 kmh NW 15.0 mph24.1 kmh 30.64 in1037.6 mb 0.00 in0.0 mm 0.00 in/hr0.0 mm/hr 0.00 in0.0 mm
11:09 PM 6.4°F-14.2°C -3.5°F-19.7°C 63% 9.0 mph NW14.5 kmh NW 15.0 mph24.1 kmh 30.64 in1037.6 mb 0.00 in0.0 mm 0.00 in/hr0.0 mm/hr 0.00 in0.0 mm
11:10 PM 6.3°F-14.3°C -3.3°F-19.6°C 64% 12.0 mph NW19.3 kmh NW 15.0 mph24.1 kmh 30.64 in1037.6 mb 0.00 in0.0 mm 0.00 in/hr0.0 mm/hr 0.00 in0.0 mm
11:11 PM 6.3°F-14.3°C -3.3°F-19.6°C 64% 11.0 mph NW17.7 kmh NW 15.0 mph24.1 kmh 30.64 in1037.6 mb 0.00 in0.0 mm 0.00 in/hr0.0 mm/hr 0.00 in0.0 mm
11:12 PM 6.2°F-14.3°C -3.4°F-19.7°C 64% 11.0 mph NW17.7 kmh NW 15.0 mph24.1 kmh 30.64 in1037.6 mb 0.00 in0.0 mm 0.00 in/hr0.0 mm/hr 0.00 in0.0 mm
11:14 PM 6.1°F-14.4°C -3.5°F-19.7°C 64% 14.0 mph WNW22.5 kmh WNW 15.0 mph24.1 kmh 30.64 in1037.6 mb 0.00 in0.0 mm 0.00 in/hr0.0 mm/hr 0.00 in0.0 mm
11:16 PM 6.1°F-14.4°C -3.5°F-19.7°C 64% 11.0 mph NW17.7 kmh NW 15.0 mph24.1 kmh 30.64 in1037.6 mb 0.00 in0.0 mm 0.00 in/hr0.0 mm/hr 0.00 in0.0 mm
11:18 PM 6.0°F-14.4°C -3.6°F-19.8°C 64% 14.0 mph NW22.5 kmh NW 15.0 mph24.1 kmh 30.65 in1037.9 mb 0.00 in0.0 mm 0.00 in/hr0.0 mm/hr 0.00 in0.0 mm
11:19 PM 6.0°F-14.4°C -3.6°F-19.8°C 64% 12.0 mph NW19.3 kmh NW 15.0 mph24.1 kmh 30.65 in1037.9 mb 0.00 in0.0 mm 0.00 in/hr0.0 mm/hr 0.00 in0.0 mm
11:20 PM 5.9°F-14.5°C -3.6°F-19.8°C 64% 10.0 mph NW16.1 kmh NW 15.0 mph24.1 kmh 30.65 in1037.9 mb 0.00 in0.0 mm 0.00 in/hr0.0 mm/hr 0.00 in0.0 mm
11:22 PM 5.9°F-14.5°C -3.6°F-19.8°C 64% 13.0 mph NW20.9 kmh NW 17.0 mph27.4 kmh 30.64 in1037.6 mb 0.00 in0.0 mm 0.00 in/hr0.0 mm/hr 0.00 in0.0 mm
11:23 PM 5.9°F-14.5°C -3.6°F-19.8°C 64% 12.0 mph NW19.3 kmh NW 17.0 mph27.4 kmh 30.64 in1037.6 mb 0.00 in0.0 mm 0.00 in/hr0.0 mm/hr 0.00 in0.0 mm
11:24 PM 5.8°F-14.6°C -3.7°F-19.8°C 64% 16.0 mph NW25.7 kmh NW 17.0 mph27.4 kmh 30.64 in1037.6 mb 0.00 in0.0 mm 0.00 in/hr0.0 mm/hr 0.00 in0.0 mm
11:25 PM 5.8°F-14.6°C -3.7°F-19.8°C 64% 12.0 mph NW19.3 kmh NW 17.0 mph27.4 kmh 30.64 in1037.6 mb 0.00 in0.0 mm 0.00 in/hr0.0 mm/hr 0.00 in0.0 mm
11:26 PM 5.8°F-14.6°C -3.7°F-19.8°C 64% 11.0 mph NW17.7 kmh NW 17.0 mph27.4 kmh 30.64 in1037.6 mb 0.00 in0.0 mm 0.00 in/hr0.0 mm/hr 0.00 in0.0 mm
11:27 PM 5.8°F-14.6°C -3.4°F-19.7°C 65% 12.0 mph NW19.3 kmh NW 18.0 mph29.0 kmh 30.64 in1037.6 mb 0.00 in0.0 mm 0.00 in/hr0.0 mm/hr 0.00 in0.0 mm
11:28 PM 5.7°F-14.6°C -3.5°F-19.7°C 65% 14.0 mph NW22.5 kmh NW 18.0 mph29.0 kmh 30.64 in1037.6 mb 0.00 in0.0 mm 0.00 in/hr0.0 mm/hr 0.00 in0.0 mm
11:30 PM 5.7°F-14.6°C -3.5°F-19.7°C 65% 13.0 mph NW20.9 kmh NW 18.0 mph29.0 kmh 30.64 in1037.6 mb 0.00 in0.0 mm 0.00 in/hr0.0 mm/hr 0.00 in0.0 mm
11:31 PM 5.6°F-14.7°C -3.6°F-19.8°C 65% 15.0 mph NW24.1 kmh NW 17.0 mph27.4 kmh 30.64 in1037.6 mb 0.00 in0.0 mm 0.00 in/hr0.0 mm/hr 0.00 in0.0 mm
11:33 PM 5.6°F-14.7°C -3.6°F-19.8°C 65% 14.0 mph NW22.5 kmh NW 17.0 mph27.4 kmh 30.64 in1037.6 mb 0.00 in0.0 mm 0.00 in/hr0.0 mm/hr 0.00 in0.0 mm
11:35 PM 5.6°F-14.7°C -3.6°F-19.8°C 65% 12.0 mph NW19.3 kmh NW 17.0 mph27.4 kmh 30.64 in1037.6 mb 0.00 in0.0 mm 0.00 in/hr0.0 mm/hr 0.00 in0.0 mm
11:36 PM 5.5°F-14.7°C -3.7°F-19.8°C 65% 14.0 mph NW22.5 kmh NW 17.0 mph27.4 kmh 30.64 in1037.6 mb 0.00 in0.0 mm 0.00 in/hr0.0 mm/hr 0.00 in0.0 mm
11:38 PM 5.5°F-14.7°C -3.7°F-19.8°C 65% 11.0 mph NW17.7 kmh NW 17.0 mph27.4 kmh 30.64 in1037.6 mb 0.00 in0.0 mm 0.00 in/hr0.0 mm/hr 0.00 in0.0 mm
11:40 PM 5.5°F-14.7°C -3.7°F-19.8°C 65% 13.0 mph NW20.9 kmh NW 17.0 mph27.4 kmh 30.64 in1037.6 mb 0.00 in0.0 mm 0.00 in/hr0.0 mm/hr 0.00 in0.0 mm
11:42 PM 5.4°F-14.8°C -3.8°F-19.9°C 65% 16.0 mph NW25.7 kmh NW 17.0 mph27.4 kmh 30.64 in1037.6 mb 0.00 in0.0 mm 0.00 in/hr0.0 mm/hr 0.00 in0.0 mm
11:43 PM 5.4°F-14.8°C -3.8°F-19.9°C 65% 13.0 mph NW20.9 kmh NW 17.0 mph27.4 kmh 30.65 in1037.9 mb 0.00 in0.0 mm 0.00 in/hr0.0 mm/hr 0.00 in0.0 mm
11:44 PM 5.4°F-14.8°C -3.8°F-19.9°C 65% 13.0 mph NW20.9 kmh NW 17.0 mph27.4 kmh 30.65 in1037.9 mb 0.00 in0.0 mm 0.00 in/hr0.0 mm/hr 0.00 in0.0 mm
11:45 PM 5.4°F-14.8°C -3.8°F-19.9°C 65% 12.0 mph NW19.3 kmh NW 17.0 mph27.4 kmh 30.65 in1037.9 mb 0.00 in0.0 mm 0.00 in/hr0.0 mm/hr 0.00 in0.0 mm
11:46 PM 5.4°F-14.8°C -3.8°F-19.9°C 65% 11.0 mph NW17.7 kmh NW 17.0 mph27.4 kmh 30.65 in1037.9 mb 0.00 in0.0 mm 0.00 in/hr0.0 mm/hr 0.00 in0.0 mm
11:47 PM 5.3°F-14.8°C -3.6°F-19.8°C 66% 15.0 mph NW24.1 kmh NW 17.0 mph27.4 kmh 30.65 in1037.9 mb 0.00 in0.0 mm 0.00 in/hr0.0 mm/hr 0.00 in0.0 mm
11:48 PM 5.3°F-14.8°C -3.9°F-19.9°C 65% 10.0 mph NW16.1 kmh NW 17.0 mph27.4 kmh 30.65 in1037.9 mb 0.00 in0.0 mm 0.00 in/hr0.0 mm/hr 0.00 in0.0 mm
11:50 PM 5.3°F-14.8°C -3.9°F-19.9°C 65% 14.0 mph NW22.5 kmh NW 18.0 mph29.0 kmh 30.65 in1037.9 mb 0.00 in0.0 mm 0.00 in/hr0.0 mm/hr 0.00 in0.0 mm
11:51 PM 5.3°F-14.8°C -3.9°F-19.9°C 65% 14.0 mph NW22.5 kmh NW 18.0 mph29.0 kmh 30.65 in1037.9 mb 0.00 in0.0 mm 0.00 in/hr0.0 mm/hr 0.00 in0.0 mm
11:53 PM 5.2°F-14.9°C -4.0°F-20.0°C 65% 13.0 mph NW20.9 kmh NW 18.0 mph29.0 kmh 30.65 in1037.9 mb 0.00 in0.0 mm 0.00 in/hr0.0 mm/hr 0.00 in0.0 mm
11:54 PM 5.2°F-14.9°C -4.0°F-20.0°C 65% 10.0 mph NW16.1 kmh NW 18.0 mph29.0 kmh 30.65 in1037.9 mb 0.00 in0.0 mm 0.00 in/hr0.0 mm/hr 0.00 in0.0 mm
11:56 PM 5.2°F-14.9°C -4.0°F-20.0°C 65% 12.0 mph NW19.3 kmh NW 18.0 mph29.0 kmh 30.65 in1037.9 mb 0.00 in0.0 mm 0.00 in/hr0.0 mm/hr 0.00 in0.0 mm
11:58 PM 5.1°F-14.9°C -4.1°F-20.1°C 65% 11.0 mph NW17.7 kmh NW 18.0 mph29.0 kmh 30.65 in1037.9 mb 0.00 in0.0 mm 0.00 in/hr0.0 mm/hr 0.00 in0.0 mm
11:59 PM 5.1°F-14.9°C -4.1°F-20.1°C 65% 11.0 mph NW17.7 kmh NW 18.0 mph29.0 kmh 30.65 in1037.9 mb 0.00 in0.0 mm 0.00 in/hr0.0 mm/hr 0.00 in0.0 mm